<?xml version="1.0" encoding="UTF-8" standalone="no" ?>
<gpx xmlns="http://www.topografix.com/GPX/1/1" xmlns:xsi="http://www.w3.org/2001/XMLSchema-instance" xsi:schemaLocation="http://www.topografix.com/GPX/1/1 http://www.topografix.com/GPX/1/1/gpx.xsd" version="1.1" creator="VisuGPX - https://www.visugpx.com">
  <metadata>
    <name>rando Ctoix St Jean montagne de Jouère</name>
    <desc><![CDATA[rando par grand beau temps Croix St Jean montagne de Jouère]]></desc>
  </metadata>
  <trk>
    <name><![CDATA[15-DEC-13 15:32:46]]></name>
    <trkseg>
      <trkpt lat="44.27715" lon="6.07041">
        <ele>1189.77</ele>
        <time>2013-12-15T08:42:25Z</time>
      </trkpt>
      <trkpt lat="44.27715" lon="6.07041">
        <ele>1186.4</ele>
        <time>2013-12-15T08:42:42Z</time>
      </trkpt>
      <trkpt lat="44.27715" lon="6.07041">
        <ele>1189.77</ele>
        <time>2013-12-15T08:42:43Z</time>
      </trkpt>
      <trkpt lat="44.27714" lon="6.07042">
        <ele>1189.77</ele>
        <time>2013-12-15T08:42:58Z</time>
      </trkpt>
      <trkpt lat="44.27714" lon="6.07042">
        <ele>1189.29</ele>
        <time>2013-12-15T08:43:16Z</time>
      </trkpt>
      <trkpt lat="44.27714" lon="6.07043">
        <ele>1190.25</ele>
        <time>2013-12-15T08:43:39Z</time>
      </trkpt>
      <trkpt lat="44.27715" lon="6.07042">
        <ele>1190.25</ele>
        <time>2013-12-15T08:43:53Z</time>
      </trkpt>
      <trkpt lat="44.27715" lon="6.07043">
        <ele>1190.25</ele>
        <time>2013-12-15T08:44:13Z</time>
      </trkpt>
      <trkpt lat="44.27715" lon="6.07043">
        <ele>1190.25</ele>
        <time>2013-12-15T08:44:33Z</time>
      </trkpt>
      <trkpt lat="44.27715" lon="6.07044">
        <ele>1190.25</ele>
        <time>2013-12-15T08:44:48Z</time>
      </trkpt>
      <trkpt lat="44.27715" lon="6.07044">
        <ele>1189.77</ele>
        <time>2013-12-15T08:45:04Z</time>
      </trkpt>
      <trkpt lat="44.27715" lon="6.07044">
        <ele>1189.77</ele>
        <time>2013-12-15T08:45:28Z</time>
      </trkpt>
      <trkpt lat="44.27712" lon="6.0705">
        <ele>1189.77</ele>
        <time>2013-12-15T08:45:42Z</time>
      </trkpt>
      <trkpt lat="44.27711" lon="6.07059">
        <ele>1190.73</ele>
        <time>2013-12-15T08:45:53Z</time>
      </trkpt>
      <trkpt lat="44.27712" lon="6.0707">
        <ele>1191.69</ele>
        <time>2013-12-15T08:46:05Z</time>
      </trkpt>
      <trkpt lat="44.27714" lon="6.0709">
        <ele>1192.65</ele>
        <time>2013-12-15T08:46:21Z</time>
      </trkpt>
      <trkpt lat="44.27715" lon="6.07097">
        <ele>1192.17</ele>
        <time>2013-12-15T08:46:33Z</time>
      </trkpt>
      <trkpt lat="44.27715" lon="6.07101">
        <ele>1193.13</ele>
        <time>2013-12-15T08:46:36Z</time>
      </trkpt>
      <trkpt lat="44.27716" lon="6.07114">
        <ele>1193.61</ele>
        <time>2013-12-15T08:46:50Z</time>
      </trkpt>
      <trkpt lat="44.2772" lon="6.07122">
        <ele>1195.06</ele>
        <time>2013-12-15T08:46:58Z</time>
      </trkpt>
      <trkpt lat="44.27729" lon="6.07128">
        <ele>1196.98</ele>
        <time>2013-12-15T08:47:09Z</time>
      </trkpt>
      <trkpt lat="44.27734" lon="6.0713">
        <ele>1197.46</ele>
        <time>2013-12-15T08:47:14Z</time>
      </trkpt>
      <trkpt lat="44.27739" lon="6.07142">
        <ele>1198.9</ele>
        <time>2013-12-15T08:47:27Z</time>
      </trkpt>
      <trkpt lat="44.27736" lon="6.07156">
        <ele>1200.34</ele>
        <time>2013-12-15T08:47:38Z</time>
      </trkpt>
      <trkpt lat="44.27734" lon="6.07176">
        <ele>1202.27</ele>
        <time>2013-12-15T08:47:55Z</time>
      </trkpt>
      <trkpt lat="44.27734" lon="6.07178">
        <ele>1202.75</ele>
        <time>2013-12-15T08:47:57Z</time>
      </trkpt>
      <trkpt lat="44.27737" lon="6.07188">
        <ele>1203.23</ele>
        <time>2013-12-15T08:48:06Z</time>
      </trkpt>
      <trkpt lat="44.27748" lon="6.07202">
        <ele>1205.15</ele>
        <time>2013-12-15T08:48:22Z</time>
      </trkpt>
      <trkpt lat="44.27762" lon="6.07209">
        <ele>1206.11</ele>
        <time>2013-12-15T08:48:37Z</time>
      </trkpt>
      <trkpt lat="44.27774" lon="6.07218">
        <ele>1207.55</ele>
        <time>2013-12-15T08:48:52Z</time>
      </trkpt>
      <trkpt lat="44.27778" lon="6.07238">
        <ele>1209</ele>
        <time>2013-12-15T08:49:08Z</time>
      </trkpt>
      <trkpt lat="44.27778" lon="6.07239">
        <ele>1209</ele>
        <time>2013-12-15T08:49:09Z</time>
      </trkpt>
      <trkpt lat="44.27774" lon="6.07258">
        <ele>1210.92</ele>
        <time>2013-12-15T08:49:25Z</time>
      </trkpt>
      <trkpt lat="44.27774" lon="6.07264">
        <ele>1210.92</ele>
        <time>2013-12-15T08:49:30Z</time>
      </trkpt>
      <trkpt lat="44.27771" lon="6.0728">
        <ele>1212.84</ele>
        <time>2013-12-15T08:49:43Z</time>
      </trkpt>
      <trkpt lat="44.2777" lon="6.07287">
        <ele>1213.8</ele>
        <time>2013-12-15T08:49:49Z</time>
      </trkpt>
      <trkpt lat="44.27766" lon="6.07298">
        <ele>1214.76</ele>
        <time>2013-12-15T08:50:02Z</time>
      </trkpt>
      <trkpt lat="44.27762" lon="6.07316">
        <ele>1216.69</ele>
        <time>2013-12-15T08:50:17Z</time>
      </trkpt>
      <trkpt lat="44.27764" lon="6.07327">
        <ele>1217.65</ele>
        <time>2013-12-15T08:50:26Z</time>
      </trkpt>
      <trkpt lat="44.27769" lon="6.07348">
        <ele>1218.61</ele>
        <time>2013-12-15T08:50:42Z</time>
      </trkpt>
      <trkpt lat="44.2777" lon="6.07369">
        <ele>1220.53</ele>
        <time>2013-12-15T08:50:59Z</time>
      </trkpt>
      <trkpt lat="44.27768" lon="6.0739">
        <ele>1221.97</ele>
        <time>2013-12-15T08:51:15Z</time>
      </trkpt>
      <trkpt lat="44.27768" lon="6.07403">
        <ele>1223.42</ele>
        <time>2013-12-15T08:51:25Z</time>
      </trkpt>
      <trkpt lat="44.27766" lon="6.07408">
        <ele>1223.9</ele>
        <time>2013-12-15T08:51:29Z</time>
      </trkpt>
      <trkpt lat="44.27762" lon="6.07427">
        <ele>1225.34</ele>
        <time>2013-12-15T08:51:44Z</time>
      </trkpt>
      <trkpt lat="44.27756" lon="6.07443">
        <ele>1227.26</ele>
        <time>2013-12-15T08:51:59Z</time>
      </trkpt>
      <trkpt lat="44.27756" lon="6.07445">
        <ele>1227.26</ele>
        <time>2013-12-15T08:52:01Z</time>
      </trkpt>
      <trkpt lat="44.27754" lon="6.07452">
        <ele>1228.22</ele>
        <time>2013-12-15T08:52:07Z</time>
      </trkpt>
      <trkpt lat="44.27747" lon="6.07468">
        <ele>1230.14</ele>
        <time>2013-12-15T08:52:21Z</time>
      </trkpt>
      <trkpt lat="44.27741" lon="6.07487">
        <ele>1231.11</ele>
        <time>2013-12-15T08:52:36Z</time>
      </trkpt>
      <trkpt lat="44.27728" lon="6.07501">
        <ele>1233.03</ele>
        <time>2013-12-15T08:52:53Z</time>
      </trkpt>
      <trkpt lat="44.2772" lon="6.07513">
        <ele>1234.95</ele>
        <time>2013-12-15T08:53:06Z</time>
      </trkpt>
      <trkpt lat="44.27708" lon="6.07524">
        <ele>1236.87</ele>
        <time>2013-12-15T08:53:21Z</time>
      </trkpt>
      <trkpt lat="44.27696" lon="6.07531">
        <ele>1238.32</ele>
        <time>2013-12-15T08:53:36Z</time>
      </trkpt>
      <trkpt lat="44.27689" lon="6.07538">
        <ele>1239.76</ele>
        <time>2013-12-15T08:53:46Z</time>
      </trkpt>
      <trkpt lat="44.27688" lon="6.07547">
        <ele>1240.72</ele>
        <time>2013-12-15T08:53:53Z</time>
      </trkpt>
      <trkpt lat="44.27691" lon="6.07551">
        <ele>1240.72</ele>
        <time>2013-12-15T08:53:57Z</time>
      </trkpt>
      <trkpt lat="44.27702" lon="6.07548">
        <ele>1241.68</ele>
        <time>2013-12-15T08:54:09Z</time>
      </trkpt>
      <trkpt lat="44.27715" lon="6.07537">
        <ele>1243.6</ele>
        <time>2013-12-15T08:54:25Z</time>
      </trkpt>
      <trkpt lat="44.27717" lon="6.07535">
        <ele>1244.08</ele>
        <time>2013-12-15T08:54:27Z</time>
      </trkpt>
      <trkpt lat="44.2773" lon="6.07528">
        <ele>1244.56</ele>
        <time>2013-12-15T08:54:43Z</time>
      </trkpt>
      <trkpt lat="44.27743" lon="6.07519">
        <ele>1246.49</ele>
        <time>2013-12-15T08:54:58Z</time>
      </trkpt>
      <trkpt lat="44.27757" lon="6.07513">
        <ele>1247.45</ele>
        <time>2013-12-15T08:55:13Z</time>
      </trkpt>
      <trkpt lat="44.2777" lon="6.07512">
        <ele>1248.89</ele>
        <time>2013-12-15T08:55:28Z</time>
      </trkpt>
      <trkpt lat="44.27775" lon="6.0752">
        <ele>1249.37</ele>
        <time>2013-12-15T08:55:37Z</time>
      </trkpt>
      <trkpt lat="44.27776" lon="6.07523">
        <ele>1250.33</ele>
        <time>2013-12-15T08:55:39Z</time>
      </trkpt>
      <trkpt lat="44.27779" lon="6.07534">
        <ele>1251.29</ele>
        <time>2013-12-15T08:55:48Z</time>
      </trkpt>
      <trkpt lat="44.27782" lon="6.07554">
        <ele>1252.25</ele>
        <time>2013-12-15T08:56:04Z</time>
      </trkpt>
      <trkpt lat="44.27786" lon="6.07569">
        <ele>1254.18</ele>
        <time>2013-12-15T08:56:19Z</time>
      </trkpt>
      <trkpt lat="44.27786" lon="6.07585">
        <ele>1254.66</ele>
        <time>2013-12-15T08:56:33Z</time>
      </trkpt>
      <trkpt lat="44.27784" lon="6.07599">
        <ele>1256.1</ele>
        <time>2013-12-15T08:56:44Z</time>
      </trkpt>
      <trkpt lat="44.27778" lon="6.07622">
        <ele>1257.54</ele>
        <time>2013-12-15T08:57:01Z</time>
      </trkpt>
      <trkpt lat="44.27778" lon="6.07623">
        <ele>1257.54</ele>
        <time>2013-12-15T08:57:02Z</time>
      </trkpt>
      <trkpt lat="44.27774" lon="6.07644">
        <ele>1260.43</ele>
        <time>2013-12-15T08:57:18Z</time>
      </trkpt>
      <trkpt lat="44.27774" lon="6.07645">
        <ele>1259.94</ele>
        <time>2013-12-15T08:57:19Z</time>
      </trkpt>
      <trkpt lat="44.27768" lon="6.07664">
        <ele>1261.87</ele>
        <time>2013-12-15T08:57:36Z</time>
      </trkpt>
      <trkpt lat="44.27768" lon="6.07682">
        <ele>1263.31</ele>
        <time>2013-12-15T08:57:52Z</time>
      </trkpt>
      <trkpt lat="44.27768" lon="6.07693">
        <ele>1264.27</ele>
        <time>2013-12-15T08:58:01Z</time>
      </trkpt>
      <trkpt lat="44.27765" lon="6.07711">
        <ele>1265.71</ele>
        <time>2013-12-15T08:58:16Z</time>
      </trkpt>
      <trkpt lat="44.27762" lon="6.07734">
        <ele>1267.16</ele>
        <time>2013-12-15T08:58:35Z</time>
      </trkpt>
      <trkpt lat="44.27761" lon="6.07754">
        <ele>1269.08</ele>
        <time>2013-12-15T08:58:50Z</time>
      </trkpt>
      <trkpt lat="44.27761" lon="6.07764">
        <ele>1269.56</ele>
        <time>2013-12-15T08:58:58Z</time>
      </trkpt>
      <trkpt lat="44.27763" lon="6.0778">
        <ele>1271</ele>
        <time>2013-12-15T08:59:14Z</time>
      </trkpt>
      <trkpt lat="44.27768" lon="6.07784">
        <ele>1271.48</ele>
        <time>2013-12-15T08:59:30Z</time>
      </trkpt>
      <trkpt lat="44.27769" lon="6.07785">
        <ele>1271.48</ele>
        <time>2013-12-15T08:59:31Z</time>
      </trkpt>
      <trkpt lat="44.27781" lon="6.07792">
        <ele>1272.92</ele>
        <time>2013-12-15T08:59:48Z</time>
      </trkpt>
      <trkpt lat="44.27783" lon="6.07796">
        <ele>1273.4</ele>
        <time>2013-12-15T09:00:00Z</time>
      </trkpt>
      <trkpt lat="44.27789" lon="6.07807">
        <ele>1275.33</ele>
        <time>2013-12-15T09:00:14Z</time>
      </trkpt>
      <trkpt lat="44.27797" lon="6.07816">
        <ele>1276.77</ele>
        <time>2013-12-15T09:00:28Z</time>
      </trkpt>
      <trkpt lat="44.27808" lon="6.07824">
        <ele>1277.25</ele>
        <time>2013-12-15T09:00:45Z</time>
      </trkpt>
      <trkpt lat="44.27816" lon="6.07834">
        <ele>1280.13</ele>
        <time>2013-12-15T09:01:00Z</time>
      </trkpt>
      <trkpt lat="44.27821" lon="6.07849">
        <ele>1281.57</ele>
        <time>2013-12-15T09:01:16Z</time>
      </trkpt>
      <trkpt lat="44.27828" lon="6.07863">
        <ele>1283.02</ele>
        <time>2013-12-15T09:01:31Z</time>
      </trkpt>
      <trkpt lat="44.27829" lon="6.07865">
        <ele>1283.02</ele>
        <time>2013-12-15T09:01:48Z</time>
      </trkpt>
      <trkpt lat="44.27837" lon="6.07881">
        <ele>1284.94</ele>
        <time>2013-12-15T09:02:03Z</time>
      </trkpt>
      <trkpt lat="44.27852" lon="6.07881">
        <ele>1286.38</ele>
        <time>2013-12-15T09:02:18Z</time>
      </trkpt>
      <trkpt lat="44.2786" lon="6.07867">
        <ele>1287.34</ele>
        <time>2013-12-15T09:02:34Z</time>
      </trkpt>
      <trkpt lat="44.27866" lon="6.07862">
        <ele>1287.34</ele>
        <time>2013-12-15T09:02:43Z</time>
      </trkpt>
      <trkpt lat="44.27877" lon="6.07863">
        <ele>1288.3</ele>
        <time>2013-12-15T09:02:54Z</time>
      </trkpt>
      <trkpt lat="44.27893" lon="6.07872">
        <ele>1289.27</ele>
        <time>2013-12-15T09:03:12Z</time>
      </trkpt>
      <trkpt lat="44.27906" lon="6.07879">
        <ele>1291.19</ele>
        <time>2013-12-15T09:03:28Z</time>
      </trkpt>
      <trkpt lat="44.27916" lon="6.07891">
        <ele>1293.11</ele>
        <time>2013-12-15T09:03:44Z</time>
      </trkpt>
      <trkpt lat="44.27916" lon="6.07901">
        <ele>1294.07</ele>
        <time>2013-12-15T09:03:57Z</time>
      </trkpt>
      <trkpt lat="44.27915" lon="6.07903">
        <ele>1293.59</ele>
        <time>2013-12-15T09:03:59Z</time>
      </trkpt>
      <trkpt lat="44.27905" lon="6.07907">
        <ele>1295.03</ele>
        <time>2013-12-15T09:04:12Z</time>
      </trkpt>
      <trkpt lat="44.27902" lon="6.07906">
        <ele>1295.03</ele>
        <time>2013-12-15T09:04:15Z</time>
      </trkpt>
      <trkpt lat="44.27885" lon="6.07903">
        <ele>1295.99</ele>
        <time>2013-12-15T09:04:31Z</time>
      </trkpt>
      <trkpt lat="44.27882" lon="6.07903">
        <ele>1296.48</ele>
        <time>2013-12-15T09:04:34Z</time>
      </trkpt>
      <trkpt lat="44.27873" lon="6.07906">
        <ele>1296.96</ele>
        <time>2013-12-15T09:04:44Z</time>
      </trkpt>
      <trkpt lat="44.27866" lon="6.0791">
        <ele>1297.44</ele>
        <time>2013-12-15T09:04:52Z</time>
      </trkpt>
      <trkpt lat="44.27855" lon="6.07922">
        <ele>1298.88</ele>
        <time>2013-12-15T09:05:06Z</time>
      </trkpt>
      <trkpt lat="44.27841" lon="6.07925">
        <ele>1299.84</ele>
        <time>2013-12-15T09:05:20Z</time>
      </trkpt>
      <trkpt lat="44.27838" lon="6.07925">
        <ele>1298.88</ele>
        <time>2013-12-15T09:05:23Z</time>
      </trkpt>
      <trkpt lat="44.27824" lon="6.07921">
        <ele>1300.8</ele>
        <time>2013-12-15T09:05:38Z</time>
      </trkpt>
      <trkpt lat="44.27818" lon="6.07919">
        <ele>1301.28</ele>
        <time>2013-12-15T09:05:45Z</time>
      </trkpt>
      <trkpt lat="44.27805" lon="6.07919">
        <ele>1302.72</ele>
        <time>2013-12-15T09:06:00Z</time>
      </trkpt>
      <trkpt lat="44.27791" lon="6.07929">
        <ele>1304.17</ele>
        <time>2013-12-15T09:06:15Z</time>
      </trkpt>
      <trkpt lat="44.27789" lon="6.07931">
        <ele>1305.13</ele>
        <time>2013-12-15T09:06:19Z</time>
      </trkpt>
      <trkpt lat="44.27777" lon="6.07941">
        <ele>1307.05</ele>
        <time>2013-12-15T09:06:35Z</time>
      </trkpt>
      <trkpt lat="44.27768" lon="6.07951">
        <ele>1308.49</ele>
        <time>2013-12-15T09:06:49Z</time>
      </trkpt>
      <trkpt lat="44.2776" lon="6.07959">
        <ele>1309.45</ele>
        <time>2013-12-15T09:07:01Z</time>
      </trkpt>
      <trkpt lat="44.2775" lon="6.0797">
        <ele>1310.9</ele>
        <time>2013-12-15T09:07:15Z</time>
      </trkpt>
      <trkpt lat="44.27742" lon="6.0798">
        <ele>1311.86</ele>
        <time>2013-12-15T09:07:29Z</time>
      </trkpt>
      <trkpt lat="44.27736" lon="6.07991">
        <ele>1312.34</ele>
        <time>2013-12-15T09:07:42Z</time>
      </trkpt>
      <trkpt lat="44.2773" lon="6.08002">
        <ele>1313.78</ele>
        <time>2013-12-15T09:07:55Z</time>
      </trkpt>
      <trkpt lat="44.27723" lon="6.08017">
        <ele>1315.7</ele>
        <time>2013-12-15T09:08:11Z</time>
      </trkpt>
      <trkpt lat="44.27714" lon="6.08031">
        <ele>1317.62</ele>
        <time>2013-12-15T09:08:26Z</time>
      </trkpt>
      <trkpt lat="44.27707" lon="6.08041">
        <ele>1319.55</ele>
        <time>2013-12-15T09:08:40Z</time>
      </trkpt>
      <trkpt lat="44.277" lon="6.08052">
        <ele>1320.51</ele>
        <time>2013-12-15T09:08:54Z</time>
      </trkpt>
      <trkpt lat="44.27691" lon="6.08064">
        <ele>1321.47</ele>
        <time>2013-12-15T09:09:09Z</time>
      </trkpt>
      <trkpt lat="44.27686" lon="6.0807">
        <ele>1322.43</ele>
        <time>2013-12-15T09:09:18Z</time>
      </trkpt>
      <trkpt lat="44.27683" lon="6.08076">
        <ele>1322.91</ele>
        <time>2013-12-15T09:09:23Z</time>
      </trkpt>
      <trkpt lat="44.27674" lon="6.08094">
        <ele>1324.83</ele>
        <time>2013-12-15T09:09:40Z</time>
      </trkpt>
      <trkpt lat="44.27668" lon="6.08107">
        <ele>1325.8</ele>
        <time>2013-12-15T09:09:55Z</time>
      </trkpt>
      <trkpt lat="44.2766" lon="6.08119">
        <ele>1326.76</ele>
        <time>2013-12-15T09:10:08Z</time>
      </trkpt>
      <trkpt lat="44.27651" lon="6.08134">
        <ele>1328.2</ele>
        <time>2013-12-15T09:10:21Z</time>
      </trkpt>
      <trkpt lat="44.27638" lon="6.08144">
        <ele>1329.64</ele>
        <time>2013-12-15T09:10:37Z</time>
      </trkpt>
      <trkpt lat="44.2763" lon="6.08152">
        <ele>1330.12</ele>
        <time>2013-12-15T09:10:47Z</time>
      </trkpt>
      <trkpt lat="44.27619" lon="6.0817">
        <ele>1331.56</ele>
        <time>2013-12-15T09:11:04Z</time>
      </trkpt>
      <trkpt lat="44.27613" lon="6.08186">
        <ele>1333.01</ele>
        <time>2013-12-15T09:11:18Z</time>
      </trkpt>
      <trkpt lat="44.2761" lon="6.08195">
        <ele>1332.52</ele>
        <time>2013-12-15T09:11:25Z</time>
      </trkpt>
      <trkpt lat="44.27609" lon="6.08205">
        <ele>1333.01</ele>
        <time>2013-12-15T09:11:33Z</time>
      </trkpt>
      <trkpt lat="44.27613" lon="6.08211">
        <ele>1333.49</ele>
        <time>2013-12-15T09:11:40Z</time>
      </trkpt>
      <trkpt lat="44.2762" lon="6.08212">
        <ele>1334.45</ele>
        <time>2013-12-15T09:11:45Z</time>
      </trkpt>
      <trkpt lat="44.27629" lon="6.08215">
        <ele>1335.41</ele>
        <time>2013-12-15T09:11:54Z</time>
      </trkpt>
      <trkpt lat="44.27645" lon="6.08209">
        <ele>1337.33</ele>
        <time>2013-12-15T09:12:12Z</time>
      </trkpt>
      <trkpt lat="44.27657" lon="6.08195">
        <ele>1338.77</ele>
        <time>2013-12-15T09:12:28Z</time>
      </trkpt>
      <trkpt lat="44.27667" lon="6.08179">
        <ele>1340.7</ele>
        <time>2013-12-15T09:12:44Z</time>
      </trkpt>
      <trkpt lat="44.27676" lon="6.08166">
        <ele>1341.66</ele>
        <time>2013-12-15T09:13:00Z</time>
      </trkpt>
      <trkpt lat="44.27678" lon="6.0818">
        <ele>1344.06</ele>
        <time>2013-12-15T09:13:15Z</time>
      </trkpt>
      <trkpt lat="44.27675" lon="6.08198">
        <ele>1344.54</ele>
        <time>2013-12-15T09:13:29Z</time>
      </trkpt>
      <trkpt lat="44.27671" lon="6.08217">
        <ele>1346.94</ele>
        <time>2013-12-15T09:13:45Z</time>
      </trkpt>
      <trkpt lat="44.27668" lon="6.08232">
        <ele>1348.87</ele>
        <time>2013-12-15T09:13:59Z</time>
      </trkpt>
      <trkpt lat="44.27663" lon="6.0825">
        <ele>1350.79</ele>
        <time>2013-12-15T09:14:15Z</time>
      </trkpt>
      <trkpt lat="44.27658" lon="6.08261">
        <ele>1352.23</ele>
        <time>2013-12-15T09:14:31Z</time>
      </trkpt>
      <trkpt lat="44.27657" lon="6.08267">
        <ele>1352.71</ele>
        <time>2013-12-15T09:14:37Z</time>
      </trkpt>
      <trkpt lat="44.27652" lon="6.08284">
        <ele>1354.15</ele>
        <time>2013-12-15T09:14:52Z</time>
      </trkpt>
      <trkpt lat="44.27647" lon="6.08298">
        <ele>1355.6</ele>
        <time>2013-12-15T09:15:05Z</time>
      </trkpt>
      <trkpt lat="44.27641" lon="6.08313">
        <ele>1356.56</ele>
        <time>2013-12-15T09:15:20Z</time>
      </trkpt>
      <trkpt lat="44.27635" lon="6.08333">
        <ele>1357.52</ele>
        <time>2013-12-15T09:15:38Z</time>
      </trkpt>
      <trkpt lat="44.27641" lon="6.08343">
        <ele>1358.48</ele>
        <time>2013-12-15T09:15:52Z</time>
      </trkpt>
      <trkpt lat="44.27644" lon="6.08333">
        <ele>1359.92</ele>
        <time>2013-12-15T09:16:02Z</time>
      </trkpt>
      <trkpt lat="44.27649" lon="6.08322">
        <ele>1360.88</ele>
        <time>2013-12-15T09:16:11Z</time>
      </trkpt>
      <trkpt lat="44.27658" lon="6.0831">
        <ele>1362.81</ele>
        <time>2013-12-15T09:16:27Z</time>
      </trkpt>
      <trkpt lat="44.27667" lon="6.08296">
        <ele>1364.25</ele>
        <time>2013-12-15T09:16:42Z</time>
      </trkpt>
      <trkpt lat="44.27675" lon="6.08285">
        <ele>1365.69</ele>
        <time>2013-12-15T09:16:55Z</time>
      </trkpt>
      <trkpt lat="44.27683" lon="6.08272">
        <ele>1367.13</ele>
        <time>2013-12-15T09:17:09Z</time>
      </trkpt>
      <trkpt lat="44.27688" lon="6.08267">
        <ele>1367.61</ele>
        <time>2013-12-15T09:17:25Z</time>
      </trkpt>
      <trkpt lat="44.2769" lon="6.08269">
        <ele>1369.05</ele>
        <time>2013-12-15T09:17:29Z</time>
      </trkpt>
      <trkpt lat="44.27689" lon="6.08287">
        <ele>1370.5</ele>
        <time>2013-12-15T09:17:44Z</time>
      </trkpt>
      <trkpt lat="44.27686" lon="6.08303">
        <ele>1371.94</ele>
        <time>2013-12-15T09:17:58Z</time>
      </trkpt>
      <trkpt lat="44.27686" lon="6.08319">
        <ele>1373.38</ele>
        <time>2013-12-15T09:18:13Z</time>
      </trkpt>
      <trkpt lat="44.27686" lon="6.08336">
        <ele>1374.34</ele>
        <time>2013-12-15T09:18:28Z</time>
      </trkpt>
      <trkpt lat="44.27687" lon="6.0835">
        <ele>1376.26</ele>
        <time>2013-12-15T09:18:42Z</time>
      </trkpt>
      <trkpt lat="44.27692" lon="6.08365">
        <ele>1378.19</ele>
        <time>2013-12-15T09:18:57Z</time>
      </trkpt>
      <trkpt lat="44.27696" lon="6.08381">
        <ele>1380.11</ele>
        <time>2013-12-15T09:19:12Z</time>
      </trkpt>
      <trkpt lat="44.277" lon="6.084">
        <ele>1381.55</ele>
        <time>2013-12-15T09:19:28Z</time>
      </trkpt>
      <trkpt lat="44.27703" lon="6.0842">
        <ele>1382.99</ele>
        <time>2013-12-15T09:19:43Z</time>
      </trkpt>
      <trkpt lat="44.27706" lon="6.08433">
        <ele>1384.92</ele>
        <time>2013-12-15T09:19:57Z</time>
      </trkpt>
      <trkpt lat="44.2771" lon="6.08428">
        <ele>1385.88</ele>
        <time>2013-12-15T09:20:04Z</time>
      </trkpt>
      <trkpt lat="44.27709" lon="6.08407">
        <ele>1387.32</ele>
        <time>2013-12-15T09:20:21Z</time>
      </trkpt>
      <trkpt lat="44.27707" lon="6.08388">
        <ele>1388.28</ele>
        <time>2013-12-15T09:20:36Z</time>
      </trkpt>
      <trkpt lat="44.27708" lon="6.08369">
        <ele>1389.24</ele>
        <time>2013-12-15T09:20:50Z</time>
      </trkpt>
      <trkpt lat="44.2771" lon="6.08346">
        <ele>1390.68</ele>
        <time>2013-12-15T09:21:07Z</time>
      </trkpt>
      <trkpt lat="44.27714" lon="6.08327">
        <ele>1392.61</ele>
        <time>2013-12-15T09:21:23Z</time>
      </trkpt>
      <trkpt lat="44.27717" lon="6.0831">
        <ele>1394.05</ele>
        <time>2013-12-15T09:21:37Z</time>
      </trkpt>
      <trkpt lat="44.27722" lon="6.0829">
        <ele>1394.53</ele>
        <time>2013-12-15T09:21:53Z</time>
      </trkpt>
      <trkpt lat="44.27727" lon="6.08283">
        <ele>1394.53</ele>
        <time>2013-12-15T09:22:00Z</time>
      </trkpt>
      <trkpt lat="44.27731" lon="6.0828">
        <ele>1395.01</ele>
        <time>2013-12-15T09:22:04Z</time>
      </trkpt>
      <trkpt lat="44.27749" lon="6.0828">
        <ele>1395.97</ele>
        <time>2013-12-15T09:22:22Z</time>
      </trkpt>
      <trkpt lat="44.27761" lon="6.0829">
        <ele>1397.41</ele>
        <time>2013-12-15T09:22:36Z</time>
      </trkpt>
      <trkpt lat="44.2777" lon="6.08302">
        <ele>1398.86</ele>
        <time>2013-12-15T09:22:50Z</time>
      </trkpt>
      <trkpt lat="44.27781" lon="6.0831">
        <ele>1400.3</ele>
        <time>2013-12-15T09:23:07Z</time>
      </trkpt>
      <trkpt lat="44.27797" lon="6.0832">
        <ele>1402.7</ele>
        <time>2013-12-15T09:23:25Z</time>
      </trkpt>
      <trkpt lat="44.27804" lon="6.08331">
        <ele>1403.66</ele>
        <time>2013-12-15T09:23:38Z</time>
      </trkpt>
      <trkpt lat="44.27815" lon="6.0834">
        <ele>1405.1</ele>
        <time>2013-12-15T09:23:47Z</time>
      </trkpt>
      <trkpt lat="44.27823" lon="6.08349">
        <ele>1406.07</ele>
        <time>2013-12-15T09:24:01Z</time>
      </trkpt>
      <trkpt lat="44.27831" lon="6.08356">
        <ele>1407.51</ele>
        <time>2013-12-15T09:24:13Z</time>
      </trkpt>
      <trkpt lat="44.27846" lon="6.0837">
        <ele>1409.43</ele>
        <time>2013-12-15T09:24:30Z</time>
      </trkpt>
      <trkpt lat="44.27858" lon="6.08382">
        <ele>1410.39</ele>
        <time>2013-12-15T09:24:45Z</time>
      </trkpt>
      <trkpt lat="44.27865" lon="6.0839">
        <ele>1411.35</ele>
        <time>2013-12-15T09:24:57Z</time>
      </trkpt>
      <trkpt lat="44.27872" lon="6.08399">
        <ele>1412.31</ele>
        <time>2013-12-15T09:25:13Z</time>
      </trkpt>
      <trkpt lat="44.27878" lon="6.08413">
        <ele>1413.28</ele>
        <time>2013-12-15T09:25:26Z</time>
      </trkpt>
      <trkpt lat="44.27878" lon="6.08429">
        <ele>1415.2</ele>
        <time>2013-12-15T09:25:41Z</time>
      </trkpt>
      <trkpt lat="44.27882" lon="6.08441">
        <ele>1417.12</ele>
        <time>2013-12-15T09:25:55Z</time>
      </trkpt>
      <trkpt lat="44.27882" lon="6.08455">
        <ele>1419.04</ele>
        <time>2013-12-15T09:26:10Z</time>
      </trkpt>
      <trkpt lat="44.27885" lon="6.08472">
        <ele>1420.97</ele>
        <time>2013-12-15T09:26:26Z</time>
      </trkpt>
      <trkpt lat="44.27889" lon="6.08479">
        <ele>1421.93</ele>
        <time>2013-12-15T09:26:41Z</time>
      </trkpt>
      <trkpt lat="44.27888" lon="6.0848">
        <ele>1422.41</ele>
        <time>2013-12-15T09:27:02Z</time>
      </trkpt>
      <trkpt lat="44.27889" lon="6.08494">
        <ele>1423.85</ele>
        <time>2013-12-15T09:27:17Z</time>
      </trkpt>
      <trkpt lat="44.27891" lon="6.08505">
        <ele>1426.25</ele>
        <time>2013-12-15T09:27:33Z</time>
      </trkpt>
      <trkpt lat="44.27892" lon="6.08514">
        <ele>1428.66</ele>
        <time>2013-12-15T09:27:50Z</time>
      </trkpt>
      <trkpt lat="44.27892" lon="6.0853">
        <ele>1431.06</ele>
        <time>2013-12-15T09:28:06Z</time>
      </trkpt>
      <trkpt lat="44.2789" lon="6.08542">
        <ele>1433.46</ele>
        <time>2013-12-15T09:28:22Z</time>
      </trkpt>
      <trkpt lat="44.2789" lon="6.08556">
        <ele>1435.39</ele>
        <time>2013-12-15T09:28:38Z</time>
      </trkpt>
      <trkpt lat="44.27887" lon="6.08565">
        <ele>1437.79</ele>
        <time>2013-12-15T09:28:53Z</time>
      </trkpt>
      <trkpt lat="44.27884" lon="6.08575">
        <ele>1439.71</ele>
        <time>2013-12-15T09:29:10Z</time>
      </trkpt>
      <trkpt lat="44.27889" lon="6.08583">
        <ele>1442.6</ele>
        <time>2013-12-15T09:29:26Z</time>
      </trkpt>
      <trkpt lat="44.27892" lon="6.08594">
        <ele>1444.52</ele>
        <time>2013-12-15T09:29:41Z</time>
      </trkpt>
      <trkpt lat="44.2789" lon="6.08605">
        <ele>1444.52</ele>
        <time>2013-12-15T09:29:52Z</time>
      </trkpt>
      <trkpt lat="44.27885" lon="6.08618">
        <ele>1446.44</ele>
        <time>2013-12-15T09:30:07Z</time>
      </trkpt>
      <trkpt lat="44.27887" lon="6.08623">
        <ele>1448.36</ele>
        <time>2013-12-15T09:30:21Z</time>
      </trkpt>
      <trkpt lat="44.27894" lon="6.08636">
        <ele>1450.77</ele>
        <time>2013-12-15T09:30:38Z</time>
      </trkpt>
      <trkpt lat="44.27898" lon="6.08645">
        <ele>1452.21</ele>
        <time>2013-12-15T09:30:53Z</time>
      </trkpt>
      <trkpt lat="44.27902" lon="6.08653">
        <ele>1453.17</ele>
        <time>2013-12-15T09:31:07Z</time>
      </trkpt>
      <trkpt lat="44.27906" lon="6.08659">
        <ele>1455.57</ele>
        <time>2013-12-15T09:31:22Z</time>
      </trkpt>
      <trkpt lat="44.27907" lon="6.08664">
        <ele>1455.57</ele>
        <time>2013-12-15T09:31:38Z</time>
      </trkpt>
      <trkpt lat="44.27909" lon="6.08673">
        <ele>1457.98</ele>
        <time>2013-12-15T09:31:51Z</time>
      </trkpt>
      <trkpt lat="44.27908" lon="6.08687">
        <ele>1460.38</ele>
        <time>2013-12-15T09:32:08Z</time>
      </trkpt>
      <trkpt lat="44.27906" lon="6.08701">
        <ele>1462.78</ele>
        <time>2013-12-15T09:32:25Z</time>
      </trkpt>
      <trkpt lat="44.2791" lon="6.08711">
        <ele>1464.71</ele>
        <time>2013-12-15T09:32:40Z</time>
      </trkpt>
      <trkpt lat="44.27913" lon="6.08719">
        <ele>1466.15</ele>
        <time>2013-12-15T09:32:52Z</time>
      </trkpt>
      <trkpt lat="44.27913" lon="6.08719">
        <ele>1466.63</ele>
        <time>2013-12-15T09:33:14Z</time>
      </trkpt>
      <trkpt lat="44.27913" lon="6.08728">
        <ele>1469.03</ele>
        <time>2013-12-15T09:33:28Z</time>
      </trkpt>
      <trkpt lat="44.27913" lon="6.08738">
        <ele>1470.95</ele>
        <time>2013-12-15T09:33:42Z</time>
      </trkpt>
      <trkpt lat="44.27911" lon="6.08751">
        <ele>1472.88</ele>
        <time>2013-12-15T09:33:57Z</time>
      </trkpt>
      <trkpt lat="44.27911" lon="6.08758">
        <ele>1474.8</ele>
        <time>2013-12-15T09:34:11Z</time>
      </trkpt>
      <trkpt lat="44.27914" lon="6.08766">
        <ele>1476.72</ele>
        <time>2013-12-15T09:34:26Z</time>
      </trkpt>
      <trkpt lat="44.27913" lon="6.08772">
        <ele>1479.13</ele>
        <time>2013-12-15T09:34:42Z</time>
      </trkpt>
      <trkpt lat="44.27913" lon="6.08773">
        <ele>1480.09</ele>
        <time>2013-12-15T09:34:57Z</time>
      </trkpt>
      <trkpt lat="44.27913" lon="6.08773">
        <ele>1482.49</ele>
        <time>2013-12-15T09:35:11Z</time>
      </trkpt>
      <trkpt lat="44.27912" lon="6.08787">
        <ele>1484.41</ele>
        <time>2013-12-15T09:35:25Z</time>
      </trkpt>
      <trkpt lat="44.27913" lon="6.0879">
        <ele>1485.37</ele>
        <time>2013-12-15T09:35:46Z</time>
      </trkpt>
      <trkpt lat="44.27913" lon="6.08791">
        <ele>1487.78</ele>
        <time>2013-12-15T09:36:02Z</time>
      </trkpt>
      <trkpt lat="44.27913" lon="6.08792">
        <ele>1490.18</ele>
        <time>2013-12-15T09:36:19Z</time>
      </trkpt>
      <trkpt lat="44.27913" lon="6.08792">
        <ele>1493.06</ele>
        <time>2013-12-15T09:36:34Z</time>
      </trkpt>
      <trkpt lat="44.27914" lon="6.08796">
        <ele>1495.47</ele>
        <time>2013-12-15T09:36:51Z</time>
      </trkpt>
      <trkpt lat="44.27918" lon="6.08823">
        <ele>1496.91</ele>
        <time>2013-12-15T09:37:07Z</time>
      </trkpt>
      <trkpt lat="44.27921" lon="6.08831">
        <ele>1498.83</ele>
        <time>2013-12-15T09:37:23Z</time>
      </trkpt>
      <trkpt lat="44.27921" lon="6.08831">
        <ele>1500.27</ele>
        <time>2013-12-15T09:37:38Z</time>
      </trkpt>
      <trkpt lat="44.2793" lon="6.0885">
        <ele>1502.68</ele>
        <time>2013-12-15T09:37:53Z</time>
      </trkpt>
      <trkpt lat="44.27933" lon="6.08855">
        <ele>1504.6</ele>
        <time>2013-12-15T09:38:09Z</time>
      </trkpt>
      <trkpt lat="44.27933" lon="6.08855">
        <ele>1505.56</ele>
        <time>2013-12-15T09:38:25Z</time>
      </trkpt>
      <trkpt lat="44.27934" lon="6.08855">
        <ele>1506.52</ele>
        <time>2013-12-15T09:38:40Z</time>
      </trkpt>
      <trkpt lat="44.27934" lon="6.08855">
        <ele>1508.93</ele>
        <time>2013-12-15T09:38:55Z</time>
      </trkpt>
      <trkpt lat="44.27942" lon="6.0887">
        <ele>1510.37</ele>
        <time>2013-12-15T09:39:10Z</time>
      </trkpt>
      <trkpt lat="44.27942" lon="6.0887">
        <ele>1512.77</ele>
        <time>2013-12-15T09:39:28Z</time>
      </trkpt>
      <trkpt lat="44.27942" lon="6.0887">
        <ele>1513.73</ele>
        <time>2013-12-15T09:39:45Z</time>
      </trkpt>
      <trkpt lat="44.27944" lon="6.08872">
        <ele>1514.69</ele>
        <time>2013-12-15T09:40:04Z</time>
      </trkpt>
      <trkpt lat="44.27944" lon="6.08872">
        <ele>1517.1</ele>
        <time>2013-12-15T09:40:19Z</time>
      </trkpt>
      <trkpt lat="44.27944" lon="6.08874">
        <ele>1519.5</ele>
        <time>2013-12-15T09:40:33Z</time>
      </trkpt>
      <trkpt lat="44.27944" lon="6.08874">
        <ele>1520.94</ele>
        <time>2013-12-15T09:40:47Z</time>
      </trkpt>
      <trkpt lat="44.27944" lon="6.08874">
        <ele>1522.87</ele>
        <time>2013-12-15T09:41:01Z</time>
      </trkpt>
      <trkpt lat="44.27944" lon="6.08875">
        <ele>1524.79</ele>
        <time>2013-12-15T09:41:16Z</time>
      </trkpt>
      <trkpt lat="44.27944" lon="6.08875">
        <ele>1526.71</ele>
        <time>2013-12-15T09:41:31Z</time>
      </trkpt>
      <trkpt lat="44.27944" lon="6.08875">
        <ele>1528.15</ele>
        <time>2013-12-15T09:41:47Z</time>
      </trkpt>
      <trkpt lat="44.27944" lon="6.08875">
        <ele>1528.63</ele>
        <time>2013-12-15T09:41:49Z</time>
      </trkpt>
      <trkpt lat="44.27944" lon="6.08877">
        <ele>1531.04</ele>
        <time>2013-12-15T09:42:05Z</time>
      </trkpt>
      <trkpt lat="44.27944" lon="6.08877">
        <ele>1531.52</ele>
        <time>2013-12-15T09:42:22Z</time>
      </trkpt>
      <trkpt lat="44.27946" lon="6.08916">
        <ele>1533.92</ele>
        <time>2013-12-15T09:42:38Z</time>
      </trkpt>
      <trkpt lat="44.27946" lon="6.08916">
        <ele>1535.84</ele>
        <time>2013-12-15T09:42:52Z</time>
      </trkpt>
      <trkpt lat="44.27946" lon="6.08916">
        <ele>1537.29</ele>
        <time>2013-12-15T09:43:04Z</time>
      </trkpt>
      <trkpt lat="44.27946" lon="6.08923">
        <ele>1539.21</ele>
        <time>2013-12-15T09:43:19Z</time>
      </trkpt>
      <trkpt lat="44.27946" lon="6.08926">
        <ele>1540.17</ele>
        <time>2013-12-15T09:43:33Z</time>
      </trkpt>
      <trkpt lat="44.27946" lon="6.08926">
        <ele>1541.13</ele>
        <time>2013-12-15T09:43:35Z</time>
      </trkpt>
      <trkpt lat="44.27946" lon="6.08926">
        <ele>1543.05</ele>
        <time>2013-12-15T09:43:52Z</time>
      </trkpt>
      <trkpt lat="44.27948" lon="6.08929">
        <ele>1545.46</ele>
        <time>2013-12-15T09:44:06Z</time>
      </trkpt>
      <trkpt lat="44.27948" lon="6.08929">
        <ele>1547.38</ele>
        <time>2013-12-15T09:44:21Z</time>
      </trkpt>
      <trkpt lat="44.27948" lon="6.08929">
        <ele>1548.82</ele>
        <time>2013-12-15T09:44:36Z</time>
      </trkpt>
      <trkpt lat="44.2795" lon="6.08932">
        <ele>1551.22</ele>
        <time>2013-12-15T09:44:52Z</time>
      </trkpt>
      <trkpt lat="44.2795" lon="6.08932">
        <ele>1551.71</ele>
        <time>2013-12-15T09:45:07Z</time>
      </trkpt>
      <trkpt lat="44.2795" lon="6.08933">
        <ele>1552.67</ele>
        <time>2013-12-15T09:45:24Z</time>
      </trkpt>
      <trkpt lat="44.27956" lon="6.08947">
        <ele>1555.07</ele>
        <time>2013-12-15T09:45:42Z</time>
      </trkpt>
      <trkpt lat="44.27969" lon="6.08981">
        <ele>1556.03</ele>
        <time>2013-12-15T09:45:55Z</time>
      </trkpt>
      <trkpt lat="44.27969" lon="6.08983">
        <ele>1556.51</ele>
        <time>2013-12-15T09:46:19Z</time>
      </trkpt>
      <trkpt lat="44.27969" lon="6.08983">
        <ele>1557.95</ele>
        <time>2013-12-15T09:46:30Z</time>
      </trkpt>
      <trkpt lat="44.2797" lon="6.08989">
        <ele>1559.88</ele>
        <time>2013-12-15T09:46:46Z</time>
      </trkpt>
      <trkpt lat="44.27972" lon="6.08999">
        <ele>1560.36</ele>
        <time>2013-12-15T09:47:00Z</time>
      </trkpt>
      <trkpt lat="44.27972" lon="6.08999">
        <ele>1561.8</ele>
        <time>2013-12-15T09:47:14Z</time>
      </trkpt>
      <trkpt lat="44.27972" lon="6.08999">
        <ele>1562.28</ele>
        <time>2013-12-15T09:47:27Z</time>
      </trkpt>
      <trkpt lat="44.27971" lon="6.09002">
        <ele>1563.24</ele>
        <time>2013-12-15T09:47:46Z</time>
      </trkpt>
      <trkpt lat="44.27971" lon="6.09002">
        <ele>1564.2</ele>
        <time>2013-12-15T09:48:02Z</time>
      </trkpt>
      <trkpt lat="44.27974" lon="6.09038">
        <ele>1565.64</ele>
        <time>2013-12-15T09:48:14Z</time>
      </trkpt>
      <trkpt lat="44.27981" lon="6.09052">
        <ele>1566.12</ele>
        <time>2013-12-15T09:48:17Z</time>
      </trkpt>
      <trkpt lat="44.27985" lon="6.0907">
        <ele>1568.05</ele>
        <time>2013-12-15T09:48:33Z</time>
      </trkpt>
      <trkpt lat="44.27985" lon="6.09075">
        <ele>1569.97</ele>
        <time>2013-12-15T09:48:48Z</time>
      </trkpt>
      <trkpt lat="44.27984" lon="6.0908">
        <ele>1570.93</ele>
        <time>2013-12-15T09:48:53Z</time>
      </trkpt>
      <trkpt lat="44.27982" lon="6.09093">
        <ele>1572.37</ele>
        <time>2013-12-15T09:49:09Z</time>
      </trkpt>
      <trkpt lat="44.2798" lon="6.091">
        <ele>1573.82</ele>
        <time>2013-12-15T09:49:24Z</time>
      </trkpt>
      <trkpt lat="44.27977" lon="6.09109">
        <ele>1576.22</ele>
        <time>2013-12-15T09:49:40Z</time>
      </trkpt>
      <trkpt lat="44.27982" lon="6.09117">
        <ele>1577.18</ele>
        <time>2013-12-15T09:49:56Z</time>
      </trkpt>
      <trkpt lat="44.27987" lon="6.09121">
        <ele>1579.58</ele>
        <time>2013-12-15T09:50:10Z</time>
      </trkpt>
      <trkpt lat="44.27991" lon="6.09125">
        <ele>1581.99</ele>
        <time>2013-12-15T09:50:26Z</time>
      </trkpt>
      <trkpt lat="44.27996" lon="6.0913">
        <ele>1583.91</ele>
        <time>2013-12-15T09:50:41Z</time>
      </trkpt>
      <trkpt lat="44.27995" lon="6.09132">
        <ele>1584.39</ele>
        <time>2013-12-15T09:50:55Z</time>
      </trkpt>
      <trkpt lat="44.27993" lon="6.09129">
        <ele>1583.43</ele>
        <time>2013-12-15T09:51:06Z</time>
      </trkpt>
      <trkpt lat="44.27992" lon="6.0913">
        <ele>1583.43</ele>
        <time>2013-12-15T09:51:20Z</time>
      </trkpt>
      <trkpt lat="44.27992" lon="6.0913">
        <ele>1583.91</ele>
        <time>2013-12-15T09:51:42Z</time>
      </trkpt>
      <trkpt lat="44.2799" lon="6.09129">
        <ele>1582.95</ele>
        <time>2013-12-15T09:52:02Z</time>
      </trkpt>
      <trkpt lat="44.27995" lon="6.0913">
        <ele>1584.87</ele>
        <time>2013-12-15T09:52:23Z</time>
      </trkpt>
      <trkpt lat="44.27996" lon="6.0913">
        <ele>1584.87</ele>
        <time>2013-12-15T09:52:39Z</time>
      </trkpt>
      <trkpt lat="44.27996" lon="6.0913">
        <ele>1589.2</ele>
        <time>2013-12-15T09:52:47Z</time>
      </trkpt>
      <trkpt lat="44.27996" lon="6.0913">
        <ele>1584.87</ele>
        <time>2013-12-15T09:52:48Z</time>
      </trkpt>
      <trkpt lat="44.27996" lon="6.0913">
        <ele>1585.35</ele>
        <time>2013-12-15T09:52:49Z</time>
      </trkpt>
      <trkpt lat="44.27996" lon="6.0913">
        <ele>1581.99</ele>
        <time>2013-12-15T09:52:55Z</time>
      </trkpt>
      <trkpt lat="44.27996" lon="6.0913">
        <ele>1586.31</ele>
        <time>2013-12-15T09:53:04Z</time>
      </trkpt>
      <trkpt lat="44.27996" lon="6.0913">
        <ele>1584.39</ele>
        <time>2013-12-15T09:53:10Z</time>
      </trkpt>
      <trkpt lat="44.27996" lon="6.0913">
        <ele>1585.35</ele>
        <time>2013-12-15T09:53:30Z</time>
      </trkpt>
      <trkpt lat="44.27996" lon="6.0913">
        <ele>1585.35</ele>
        <time>2013-12-15T09:54:01Z</time>
      </trkpt>
      <trkpt lat="44.28001" lon="6.09129">
        <ele>1585.83</ele>
        <time>2013-12-15T09:54:22Z</time>
      </trkpt>
      <trkpt lat="44.28012" lon="6.09131">
        <ele>1587.27</ele>
        <time>2013-12-15T09:54:38Z</time>
      </trkpt>
      <trkpt lat="44.28019" lon="6.09133">
        <ele>1589.2</ele>
        <time>2013-12-15T09:54:52Z</time>
      </trkpt>
      <trkpt lat="44.28027" lon="6.09136">
        <ele>1591.6</ele>
        <time>2013-12-15T09:55:08Z</time>
      </trkpt>
      <trkpt lat="44.28034" lon="6.09139">
        <ele>1592.56</ele>
        <time>2013-12-15T09:55:23Z</time>
      </trkpt>
      <trkpt lat="44.28034" lon="6.09139">
        <ele>1594</ele>
        <time>2013-12-15T09:55:31Z</time>
      </trkpt>
      <trkpt lat="44.28034" lon="6.09139">
        <ele>1593.04</ele>
        <time>2013-12-15T09:55:54Z</time>
      </trkpt>
      <trkpt lat="44.28034" lon="6.09139">
        <ele>1594.48</ele>
        <time>2013-12-15T09:56:16Z</time>
      </trkpt>
      <trkpt lat="44.2804" lon="6.09139">
        <ele>1596.41</ele>
        <time>2013-12-15T09:56:31Z</time>
      </trkpt>
      <trkpt lat="44.28048" lon="6.09142">
        <ele>1597.37</ele>
        <time>2013-12-15T09:56:43Z</time>
      </trkpt>
      <trkpt lat="44.28057" lon="6.09147">
        <ele>1598.33</ele>
        <time>2013-12-15T09:56:57Z</time>
      </trkpt>
      <trkpt lat="44.28058" lon="6.09147">
        <ele>1598.33</ele>
        <time>2013-12-15T09:56:58Z</time>
      </trkpt>
      <trkpt lat="44.2807" lon="6.0915">
        <ele>1597.85</ele>
        <time>2013-12-15T09:57:14Z</time>
      </trkpt>
      <trkpt lat="44.28071" lon="6.09149">
        <ele>1598.33</ele>
        <time>2013-12-15T09:57:16Z</time>
      </trkpt>
      <trkpt lat="44.28074" lon="6.09153">
        <ele>1597.85</ele>
        <time>2013-12-15T09:57:29Z</time>
      </trkpt>
      <trkpt lat="44.28076" lon="6.09154">
        <ele>1598.81</ele>
        <time>2013-12-15T09:57:51Z</time>
      </trkpt>
      <trkpt lat="44.28085" lon="6.09159">
        <ele>1598.81</ele>
        <time>2013-12-15T09:58:08Z</time>
      </trkpt>
      <trkpt lat="44.28092" lon="6.09165">
        <ele>1600.25</ele>
        <time>2013-12-15T09:58:22Z</time>
      </trkpt>
      <trkpt lat="44.28097" lon="6.09169">
        <ele>1602.66</ele>
        <time>2013-12-15T09:58:37Z</time>
      </trkpt>
      <trkpt lat="44.28099" lon="6.0917">
        <ele>1603.14</ele>
        <time>2013-12-15T09:58:50Z</time>
      </trkpt>
      <trkpt lat="44.28099" lon="6.0917">
        <ele>1604.58</ele>
        <time>2013-12-15T09:59:05Z</time>
      </trkpt>
      <trkpt lat="44.28107" lon="6.09176">
        <ele>1606.5</ele>
        <time>2013-12-15T09:59:20Z</time>
      </trkpt>
      <trkpt lat="44.28107" lon="6.09176">
        <ele>1606.98</ele>
        <time>2013-12-15T09:59:36Z</time>
      </trkpt>
      <trkpt lat="44.28107" lon="6.09176">
        <ele>1609.86</ele>
        <time>2013-12-15T09:59:50Z</time>
      </trkpt>
      <trkpt lat="44.28107" lon="6.09176">
        <ele>1609.38</ele>
        <time>2013-12-15T09:59:53Z</time>
      </trkpt>
      <trkpt lat="44.28108" lon="6.09175">
        <ele>1610.83</ele>
        <time>2013-12-15T10:00:08Z</time>
      </trkpt>
      <trkpt lat="44.28114" lon="6.09182">
        <ele>1610.83</ele>
        <time>2013-12-15T10:00:22Z</time>
      </trkpt>
      <trkpt lat="44.28114" lon="6.09182">
        <ele>1610.83</ele>
        <time>2013-12-15T10:00:43Z</time>
      </trkpt>
      <trkpt lat="44.28117" lon="6.09185">
        <ele>1611.31</ele>
        <time>2013-12-15T10:01:04Z</time>
      </trkpt>
      <trkpt lat="44.2812" lon="6.09188">
        <ele>1611.31</ele>
        <time>2013-12-15T10:01:06Z</time>
      </trkpt>
      <trkpt lat="44.28131" lon="6.09198">
        <ele>1612.27</ele>
        <time>2013-12-15T10:01:13Z</time>
      </trkpt>
      <trkpt lat="44.28148" lon="6.09216">
        <ele>1612.75</ele>
        <time>2013-12-15T10:01:27Z</time>
      </trkpt>
      <trkpt lat="44.28153" lon="6.0922">
        <ele>1614.67</ele>
        <time>2013-12-15T10:01:40Z</time>
      </trkpt>
      <trkpt lat="44.28157" lon="6.09222">
        <ele>1617.07</ele>
        <time>2013-12-15T10:01:55Z</time>
      </trkpt>
      <trkpt lat="44.28164" lon="6.09224">
        <ele>1619</ele>
        <time>2013-12-15T10:02:10Z</time>
      </trkpt>
      <trkpt lat="44.28167" lon="6.09226">
        <ele>1620.44</ele>
        <time>2013-12-15T10:02:25Z</time>
      </trkpt>
      <trkpt lat="44.28175" lon="6.09226">
        <ele>1622.36</ele>
        <time>2013-12-15T10:02:40Z</time>
      </trkpt>
      <trkpt lat="44.28179" lon="6.09227">
        <ele>1624.77</ele>
        <time>2013-12-15T10:02:54Z</time>
      </trkpt>
      <trkpt lat="44.28178" lon="6.09237">
        <ele>1626.21</ele>
        <time>2013-12-15T10:03:09Z</time>
      </trkpt>
      <trkpt lat="44.28178" lon="6.09241">
        <ele>1627.65</ele>
        <time>2013-12-15T10:03:23Z</time>
      </trkpt>
      <trkpt lat="44.2818" lon="6.09245">
        <ele>1630.05</ele>
        <time>2013-12-15T10:03:36Z</time>
      </trkpt>
      <trkpt lat="44.28181" lon="6.09245">
        <ele>1631.01</ele>
        <time>2013-12-15T10:03:49Z</time>
      </trkpt>
      <trkpt lat="44.28184" lon="6.09248">
        <ele>1632.46</ele>
        <time>2013-12-15T10:04:01Z</time>
      </trkpt>
      <trkpt lat="44.28188" lon="6.09246">
        <ele>1634.38</ele>
        <time>2013-12-15T10:04:15Z</time>
      </trkpt>
      <trkpt lat="44.28188" lon="6.09246">
        <ele>1633.9</ele>
        <time>2013-12-15T10:04:46Z</time>
      </trkpt>
      <trkpt lat="44.2819" lon="6.09244">
        <ele>1634.86</ele>
        <time>2013-12-15T10:05:08Z</time>
      </trkpt>
      <trkpt lat="44.28198" lon="6.0925">
        <ele>1637.74</ele>
        <time>2013-12-15T10:05:24Z</time>
      </trkpt>
      <trkpt lat="44.28197" lon="6.09251">
        <ele>1637.74</ele>
        <time>2013-12-15T10:05:44Z</time>
      </trkpt>
      <trkpt lat="44.28197" lon="6.09251">
        <ele>1637.74</ele>
        <time>2013-12-15T10:06:09Z</time>
      </trkpt>
      <trkpt lat="44.28203" lon="6.09255">
        <ele>1639.19</ele>
        <time>2013-12-15T10:06:26Z</time>
      </trkpt>
      <trkpt lat="44.28207" lon="6.09258">
        <ele>1640.63</ele>
        <time>2013-12-15T10:06:43Z</time>
      </trkpt>
      <trkpt lat="44.28212" lon="6.09266">
        <ele>1642.07</ele>
        <time>2013-12-15T10:06:58Z</time>
      </trkpt>
      <trkpt lat="44.28218" lon="6.09266">
        <ele>1643.99</ele>
        <time>2013-12-15T10:07:14Z</time>
      </trkpt>
      <trkpt lat="44.28219" lon="6.09266">
        <ele>1644.47</ele>
        <time>2013-12-15T10:07:35Z</time>
      </trkpt>
      <trkpt lat="44.28221" lon="6.09276">
        <ele>1646.4</ele>
        <time>2013-12-15T10:07:48Z</time>
      </trkpt>
      <trkpt lat="44.28226" lon="6.0928">
        <ele>1648.32</ele>
        <time>2013-12-15T10:08:03Z</time>
      </trkpt>
      <trkpt lat="44.28226" lon="6.09281">
        <ele>1648.8</ele>
        <time>2013-12-15T10:08:27Z</time>
      </trkpt>
      <trkpt lat="44.28228" lon="6.0928">
        <ele>1649.28</ele>
        <time>2013-12-15T10:08:50Z</time>
      </trkpt>
      <trkpt lat="44.28231" lon="6.09286">
        <ele>1652.16</ele>
        <time>2013-12-15T10:09:02Z</time>
      </trkpt>
      <trkpt lat="44.28239" lon="6.09295">
        <ele>1653.6</ele>
        <time>2013-12-15T10:09:16Z</time>
      </trkpt>
      <trkpt lat="44.28241" lon="6.09298">
        <ele>1655.53</ele>
        <time>2013-12-15T10:09:36Z</time>
      </trkpt>
      <trkpt lat="44.28245" lon="6.09308">
        <ele>1657.45</ele>
        <time>2013-12-15T10:09:51Z</time>
      </trkpt>
      <trkpt lat="44.28247" lon="6.09317">
        <ele>1658.41</ele>
        <time>2013-12-15T10:10:05Z</time>
      </trkpt>
      <trkpt lat="44.28248" lon="6.09326">
        <ele>1659.85</ele>
        <time>2013-12-15T10:10:19Z</time>
      </trkpt>
      <trkpt lat="44.28245" lon="6.09334">
        <ele>1662.74</ele>
        <time>2013-12-15T10:10:36Z</time>
      </trkpt>
      <trkpt lat="44.28242" lon="6.09338">
        <ele>1664.66</ele>
        <time>2013-12-15T10:10:54Z</time>
      </trkpt>
      <trkpt lat="44.28243" lon="6.09342">
        <ele>1666.58</ele>
        <time>2013-12-15T10:11:10Z</time>
      </trkpt>
      <trkpt lat="44.28245" lon="6.09345">
        <ele>1668.02</ele>
        <time>2013-12-15T10:11:19Z</time>
      </trkpt>
      <trkpt lat="44.28249" lon="6.0935">
        <ele>1669.47</ele>
        <time>2013-12-15T10:11:34Z</time>
      </trkpt>
      <trkpt lat="44.2825" lon="6.09351">
        <ele>1671.87</ele>
        <time>2013-12-15T10:11:46Z</time>
      </trkpt>
      <trkpt lat="44.28254" lon="6.09354">
        <ele>1673.31</ele>
        <time>2013-12-15T10:11:58Z</time>
      </trkpt>
      <trkpt lat="44.28259" lon="6.09357">
        <ele>1674.75</ele>
        <time>2013-12-15T10:12:12Z</time>
      </trkpt>
      <trkpt lat="44.28261" lon="6.0936">
        <ele>1675.72</ele>
        <time>2013-12-15T10:12:27Z</time>
      </trkpt>
      <trkpt lat="44.28256" lon="6.09369">
        <ele>1677.64</ele>
        <time>2013-12-15T10:12:43Z</time>
      </trkpt>
      <trkpt lat="44.28249" lon="6.09374">
        <ele>1679.08</ele>
        <time>2013-12-15T10:12:58Z</time>
      </trkpt>
      <trkpt lat="44.28247" lon="6.0938">
        <ele>1681</ele>
        <time>2013-12-15T10:13:12Z</time>
      </trkpt>
      <trkpt lat="44.28243" lon="6.09381">
        <ele>1681</ele>
        <time>2013-12-15T10:13:27Z</time>
      </trkpt>
      <trkpt lat="44.28242" lon="6.09382">
        <ele>1681</ele>
        <time>2013-12-15T10:13:45Z</time>
      </trkpt>
      <trkpt lat="44.28238" lon="6.09387">
        <ele>1681.96</ele>
        <time>2013-12-15T10:13:59Z</time>
      </trkpt>
      <trkpt lat="44.28231" lon="6.09394">
        <ele>1681.96</ele>
        <time>2013-12-15T10:14:09Z</time>
      </trkpt>
      <trkpt lat="44.28227" lon="6.09398">
        <ele>1682.44</ele>
        <time>2013-12-15T10:14:14Z</time>
      </trkpt>
      <trkpt lat="44.28215" lon="6.09411">
        <ele>1680.52</ele>
        <time>2013-12-15T10:14:29Z</time>
      </trkpt>
      <trkpt lat="44.28214" lon="6.09412">
        <ele>1681</ele>
        <time>2013-12-15T10:14:30Z</time>
      </trkpt>
      <trkpt lat="44.28212" lon="6.09415">
        <ele>1680.04</ele>
        <time>2013-12-15T10:14:33Z</time>
      </trkpt>
      <trkpt lat="44.28201" lon="6.09426">
        <ele>1679.56</ele>
        <time>2013-12-15T10:14:48Z</time>
      </trkpt>
      <trkpt lat="44.28187" lon="6.0944">
        <ele>1679.08</ele>
        <time>2013-12-15T10:15:04Z</time>
      </trkpt>
      <trkpt lat="44.28178" lon="6.09452">
        <ele>1680.52</ele>
        <time>2013-12-15T10:15:19Z</time>
      </trkpt>
      <trkpt lat="44.28172" lon="6.09459">
        <ele>1682.44</ele>
        <time>2013-12-15T10:15:33Z</time>
      </trkpt>
      <trkpt lat="44.28167" lon="6.09468">
        <ele>1684.85</ele>
        <time>2013-12-15T10:15:47Z</time>
      </trkpt>
      <trkpt lat="44.28162" lon="6.09479">
        <ele>1685.81</ele>
        <time>2013-12-15T10:16:03Z</time>
      </trkpt>
      <trkpt lat="44.28161" lon="6.09482">
        <ele>1686.77</ele>
        <time>2013-12-15T10:16:21Z</time>
      </trkpt>
      <trkpt lat="44.28158" lon="6.09492">
        <ele>1688.69</ele>
        <time>2013-12-15T10:16:36Z</time>
      </trkpt>
      <trkpt lat="44.28155" lon="6.09501">
        <ele>1691.1</ele>
        <time>2013-12-15T10:16:51Z</time>
      </trkpt>
      <trkpt lat="44.2815" lon="6.09509">
        <ele>1691.1</ele>
        <time>2013-12-15T10:17:05Z</time>
      </trkpt>
      <trkpt lat="44.28147" lon="6.09514">
        <ele>1691.58</ele>
        <time>2013-12-15T10:17:20Z</time>
      </trkpt>
      <trkpt lat="44.28145" lon="6.09524">
        <ele>1693.98</ele>
        <time>2013-12-15T10:17:34Z</time>
      </trkpt>
      <trkpt lat="44.28143" lon="6.09528">
        <ele>1694.46</ele>
        <time>2013-12-15T10:17:48Z</time>
      </trkpt>
      <trkpt lat="44.28134" lon="6.09535">
        <ele>1695.9</ele>
        <time>2013-12-15T10:18:03Z</time>
      </trkpt>
      <trkpt lat="44.2813" lon="6.0954">
        <ele>1696.86</ele>
        <time>2013-12-15T10:18:17Z</time>
      </trkpt>
      <trkpt lat="44.2813" lon="6.09541">
        <ele>1697.34</ele>
        <time>2013-12-15T10:18:35Z</time>
      </trkpt>
      <trkpt lat="44.28122" lon="6.09551">
        <ele>1698.79</ele>
        <time>2013-12-15T10:18:51Z</time>
      </trkpt>
      <trkpt lat="44.28116" lon="6.09561">
        <ele>1699.27</ele>
        <time>2013-12-15T10:19:05Z</time>
      </trkpt>
      <trkpt lat="44.28108" lon="6.09569">
        <ele>1700.71</ele>
        <time>2013-12-15T10:19:20Z</time>
      </trkpt>
      <trkpt lat="44.28103" lon="6.0958">
        <ele>1700.71</ele>
        <time>2013-12-15T10:19:33Z</time>
      </trkpt>
      <trkpt lat="44.28099" lon="6.09593">
        <ele>1701.67</ele>
        <time>2013-12-15T10:19:48Z</time>
      </trkpt>
      <trkpt lat="44.28097" lon="6.09604">
        <ele>1703.59</ele>
        <time>2013-12-15T10:20:02Z</time>
      </trkpt>
      <trkpt lat="44.28087" lon="6.09612">
        <ele>1703.11</ele>
        <time>2013-12-15T10:20:17Z</time>
      </trkpt>
      <trkpt lat="44.28084" lon="6.09615">
        <ele>1703.11</ele>
        <time>2013-12-15T10:20:32Z</time>
      </trkpt>
      <trkpt lat="44.28084" lon="6.09614">
        <ele>1704.07</ele>
        <time>2013-12-15T10:20:55Z</time>
      </trkpt>
      <trkpt lat="44.28085" lon="6.09617">
        <ele>1704.07</ele>
        <time>2013-12-15T10:21:05Z</time>
      </trkpt>
      <trkpt lat="44.28081" lon="6.09631">
        <ele>1705.04</ele>
        <time>2013-12-15T10:21:19Z</time>
      </trkpt>
      <trkpt lat="44.28078" lon="6.09632">
        <ele>1705.04</ele>
        <time>2013-12-15T10:21:26Z</time>
      </trkpt>
      <trkpt lat="44.28073" lon="6.09634">
        <ele>1705.04</ele>
        <time>2013-12-15T10:21:30Z</time>
      </trkpt>
      <trkpt lat="44.2807" lon="6.09636">
        <ele>1704.55</ele>
        <time>2013-12-15T10:21:34Z</time>
      </trkpt>
      <trkpt lat="44.28067" lon="6.09642">
        <ele>1704.55</ele>
        <time>2013-12-15T10:21:49Z</time>
      </trkpt>
      <trkpt lat="44.28062" lon="6.09651">
        <ele>1706</ele>
        <time>2013-12-15T10:22:04Z</time>
      </trkpt>
      <trkpt lat="44.28057" lon="6.09665">
        <ele>1707.44</ele>
        <time>2013-12-15T10:22:21Z</time>
      </trkpt>
      <trkpt lat="44.28056" lon="6.09677">
        <ele>1708.88</ele>
        <time>2013-12-15T10:22:35Z</time>
      </trkpt>
      <trkpt lat="44.28054" lon="6.09683">
        <ele>1710.8</ele>
        <time>2013-12-15T10:22:50Z</time>
      </trkpt>
      <trkpt lat="44.28048" lon="6.09686">
        <ele>1711.28</ele>
        <time>2013-12-15T10:23:04Z</time>
      </trkpt>
      <trkpt lat="44.28046" lon="6.09692">
        <ele>1712.25</ele>
        <time>2013-12-15T10:23:17Z</time>
      </trkpt>
      <trkpt lat="44.28041" lon="6.09697">
        <ele>1712.73</ele>
        <time>2013-12-15T10:23:30Z</time>
      </trkpt>
      <trkpt lat="44.28038" lon="6.097">
        <ele>1714.17</ele>
        <time>2013-12-15T10:23:45Z</time>
      </trkpt>
      <trkpt lat="44.28034" lon="6.09711">
        <ele>1716.09</ele>
        <time>2013-12-15T10:24:00Z</time>
      </trkpt>
      <trkpt lat="44.28029" lon="6.09721">
        <ele>1717.53</ele>
        <time>2013-12-15T10:24:16Z</time>
      </trkpt>
      <trkpt lat="44.28024" lon="6.09731">
        <ele>1718.97</ele>
        <time>2013-12-15T10:24:30Z</time>
      </trkpt>
      <trkpt lat="44.2802" lon="6.09738">
        <ele>1719.46</ele>
        <time>2013-12-15T10:24:43Z</time>
      </trkpt>
      <trkpt lat="44.28014" lon="6.09747">
        <ele>1721.38</ele>
        <time>2013-12-15T10:24:58Z</time>
      </trkpt>
      <trkpt lat="44.28007" lon="6.09756">
        <ele>1723.3</ele>
        <time>2013-12-15T10:25:13Z</time>
      </trkpt>
      <trkpt lat="44.28002" lon="6.09762">
        <ele>1724.26</ele>
        <time>2013-12-15T10:25:28Z</time>
      </trkpt>
      <trkpt lat="44.27997" lon="6.0977">
        <ele>1726.67</ele>
        <time>2013-12-15T10:25:44Z</time>
      </trkpt>
      <trkpt lat="44.27992" lon="6.09779">
        <ele>1727.63</ele>
        <time>2013-12-15T10:25:57Z</time>
      </trkpt>
      <trkpt lat="44.27986" lon="6.09787">
        <ele>1729.55</ele>
        <time>2013-12-15T10:26:10Z</time>
      </trkpt>
      <trkpt lat="44.27981" lon="6.09798">
        <ele>1730.03</ele>
        <time>2013-12-15T10:26:25Z</time>
      </trkpt>
      <trkpt lat="44.27974" lon="6.09807">
        <ele>1731.95</ele>
        <time>2013-12-15T10:26:40Z</time>
      </trkpt>
      <trkpt lat="44.27966" lon="6.09819">
        <ele>1733.39</ele>
        <time>2013-12-15T10:26:56Z</time>
      </trkpt>
      <trkpt lat="44.27956" lon="6.09829">
        <ele>1733.88</ele>
        <time>2013-12-15T10:27:11Z</time>
      </trkpt>
      <trkpt lat="44.27949" lon="6.0984">
        <ele>1734.84</ele>
        <time>2013-12-15T10:27:24Z</time>
      </trkpt>
      <trkpt lat="44.27945" lon="6.09849">
        <ele>1736.76</ele>
        <time>2013-12-15T10:27:38Z</time>
      </trkpt>
      <trkpt lat="44.2794" lon="6.09855">
        <ele>1737.24</ele>
        <time>2013-12-15T10:27:53Z</time>
      </trkpt>
      <trkpt lat="44.27937" lon="6.09858">
        <ele>1737.24</ele>
        <time>2013-12-15T10:28:18Z</time>
      </trkpt>
      <trkpt lat="44.27931" lon="6.09872">
        <ele>1738.68</ele>
        <time>2013-12-15T10:28:32Z</time>
      </trkpt>
      <trkpt lat="44.27926" lon="6.09878">
        <ele>1739.16</ele>
        <time>2013-12-15T10:28:42Z</time>
      </trkpt>
      <trkpt lat="44.27918" lon="6.09892">
        <ele>1740.12</ele>
        <time>2013-12-15T10:28:58Z</time>
      </trkpt>
      <trkpt lat="44.2791" lon="6.09903">
        <ele>1742.53</ele>
        <time>2013-12-15T10:29:15Z</time>
      </trkpt>
      <trkpt lat="44.27905" lon="6.0991">
        <ele>1743.49</ele>
        <time>2013-12-15T10:29:29Z</time>
      </trkpt>
      <trkpt lat="44.27897" lon="6.09917">
        <ele>1744.93</ele>
        <time>2013-12-15T10:29:44Z</time>
      </trkpt>
      <trkpt lat="44.27888" lon="6.09924">
        <ele>1746.37</ele>
        <time>2013-12-15T10:29:58Z</time>
      </trkpt>
      <trkpt lat="44.27878" lon="6.0993">
        <ele>1748.29</ele>
        <time>2013-12-15T10:30:14Z</time>
      </trkpt>
      <trkpt lat="44.27869" lon="6.09934">
        <ele>1750.22</ele>
        <time>2013-12-15T10:30:29Z</time>
      </trkpt>
      <trkpt lat="44.27864" lon="6.09936">
        <ele>1751.66</ele>
        <time>2013-12-15T10:30:42Z</time>
      </trkpt>
      <trkpt lat="44.2786" lon="6.09938">
        <ele>1752.62</ele>
        <time>2013-12-15T10:30:55Z</time>
      </trkpt>
      <trkpt lat="44.27855" lon="6.0995">
        <ele>1754.06</ele>
        <time>2013-12-15T10:31:09Z</time>
      </trkpt>
      <trkpt lat="44.27849" lon="6.09956">
        <ele>1754.54</ele>
        <time>2013-12-15T10:31:18Z</time>
      </trkpt>
      <trkpt lat="44.27846" lon="6.0996">
        <ele>1755.5</ele>
        <time>2013-12-15T10:31:22Z</time>
      </trkpt>
      <trkpt lat="44.27842" lon="6.09969">
        <ele>1757.43</ele>
        <time>2013-12-15T10:31:38Z</time>
      </trkpt>
      <trkpt lat="44.27836" lon="6.09978">
        <ele>1758.87</ele>
        <time>2013-12-15T10:31:52Z</time>
      </trkpt>
      <trkpt lat="44.27834" lon="6.09985">
        <ele>1759.35</ele>
        <time>2013-12-15T10:32:01Z</time>
      </trkpt>
      <trkpt lat="44.2783" lon="6.09993">
        <ele>1759.35</ele>
        <time>2013-12-15T10:32:09Z</time>
      </trkpt>
      <trkpt lat="44.27829" lon="6.09995">
        <ele>1759.35</ele>
        <time>2013-12-15T10:32:11Z</time>
      </trkpt>
      <trkpt lat="44.2783" lon="6.10001">
        <ele>1758.87</ele>
        <time>2013-12-15T10:32:17Z</time>
      </trkpt>
      <trkpt lat="44.27826" lon="6.10013">
        <ele>1760.79</ele>
        <time>2013-12-15T10:32:32Z</time>
      </trkpt>
      <trkpt lat="44.27821" lon="6.10021">
        <ele>1761.27</ele>
        <time>2013-12-15T10:32:43Z</time>
      </trkpt>
      <trkpt lat="44.27818" lon="6.10026">
        <ele>1761.75</ele>
        <time>2013-12-15T10:32:49Z</time>
      </trkpt>
      <trkpt lat="44.27811" lon="6.10036">
        <ele>1761.27</ele>
        <time>2013-12-15T10:33:02Z</time>
      </trkpt>
      <trkpt lat="44.2781" lon="6.10048">
        <ele>1761.75</ele>
        <time>2013-12-15T10:33:14Z</time>
      </trkpt>
      <trkpt lat="44.27806" lon="6.10059">
        <ele>1762.71</ele>
        <time>2013-12-15T10:33:27Z</time>
      </trkpt>
      <trkpt lat="44.27796" lon="6.10068">
        <ele>1764.16</ele>
        <time>2013-12-15T10:33:42Z</time>
      </trkpt>
      <trkpt lat="44.27793" lon="6.10071">
        <ele>1764.16</ele>
        <time>2013-12-15T10:33:48Z</time>
      </trkpt>
      <trkpt lat="44.27789" lon="6.10081">
        <ele>1764.64</ele>
        <time>2013-12-15T10:34:04Z</time>
      </trkpt>
      <trkpt lat="44.27786" lon="6.10096">
        <ele>1765.12</ele>
        <time>2013-12-15T10:34:18Z</time>
      </trkpt>
      <trkpt lat="44.27776" lon="6.10107">
        <ele>1766.56</ele>
        <time>2013-12-15T10:34:33Z</time>
      </trkpt>
      <trkpt lat="44.27771" lon="6.10121">
        <ele>1767.04</ele>
        <time>2013-12-15T10:34:48Z</time>
      </trkpt>
      <trkpt lat="44.27767" lon="6.10131">
        <ele>1768.48</ele>
        <time>2013-12-15T10:35:03Z</time>
      </trkpt>
      <trkpt lat="44.27763" lon="6.10145">
        <ele>1769.92</ele>
        <time>2013-12-15T10:35:18Z</time>
      </trkpt>
      <trkpt lat="44.27758" lon="6.1016">
        <ele>1771.37</ele>
        <time>2013-12-15T10:35:33Z</time>
      </trkpt>
      <trkpt lat="44.27753" lon="6.10168">
        <ele>1772.81</ele>
        <time>2013-12-15T10:35:46Z</time>
      </trkpt>
      <trkpt lat="44.2775" lon="6.10176">
        <ele>1774.25</ele>
        <time>2013-12-15T10:36:00Z</time>
      </trkpt>
      <trkpt lat="44.27749" lon="6.1018">
        <ele>1775.21</ele>
        <time>2013-12-15T10:36:18Z</time>
      </trkpt>
      <trkpt lat="44.27742" lon="6.10189">
        <ele>1776.17</ele>
        <time>2013-12-15T10:36:33Z</time>
      </trkpt>
      <trkpt lat="44.27737" lon="6.10197">
        <ele>1778.1</ele>
        <time>2013-12-15T10:36:47Z</time>
      </trkpt>
      <trkpt lat="44.27736" lon="6.10204">
        <ele>1779.54</ele>
        <time>2013-12-15T10:37:02Z</time>
      </trkpt>
      <trkpt lat="44.27735" lon="6.10204">
        <ele>1780.02</ele>
        <time>2013-12-15T10:37:03Z</time>
      </trkpt>
      <trkpt lat="44.2773" lon="6.10211">
        <ele>1780.02</ele>
        <time>2013-12-15T10:37:18Z</time>
      </trkpt>
      <trkpt lat="44.27726" lon="6.1022">
        <ele>1780.5</ele>
        <time>2013-12-15T10:37:31Z</time>
      </trkpt>
      <trkpt lat="44.27725" lon="6.10225">
        <ele>1782.9</ele>
        <time>2013-12-15T10:37:48Z</time>
      </trkpt>
      <trkpt lat="44.27721" lon="6.10233">
        <ele>1784.34</ele>
        <time>2013-12-15T10:38:03Z</time>
      </trkpt>
      <trkpt lat="44.27719" lon="6.1024">
        <ele>1786.27</ele>
        <time>2013-12-15T10:38:17Z</time>
      </trkpt>
      <trkpt lat="44.27716" lon="6.10245">
        <ele>1787.71</ele>
        <time>2013-12-15T10:38:32Z</time>
      </trkpt>
      <trkpt lat="44.27711" lon="6.10253">
        <ele>1790.11</ele>
        <time>2013-12-15T10:38:49Z</time>
      </trkpt>
      <trkpt lat="44.27709" lon="6.10257">
        <ele>1791.07</ele>
        <time>2013-12-15T10:39:02Z</time>
      </trkpt>
      <trkpt lat="44.27708" lon="6.10263">
        <ele>1794.44</ele>
        <time>2013-12-15T10:39:17Z</time>
      </trkpt>
      <trkpt lat="44.27704" lon="6.10272">
        <ele>1796.36</ele>
        <time>2013-12-15T10:39:34Z</time>
      </trkpt>
      <trkpt lat="44.277" lon="6.1028">
        <ele>1798.28</ele>
        <time>2013-12-15T10:39:49Z</time>
      </trkpt>
      <trkpt lat="44.27699" lon="6.10285">
        <ele>1799.73</ele>
        <time>2013-12-15T10:40:04Z</time>
      </trkpt>
      <trkpt lat="44.27702" lon="6.10294">
        <ele>1801.65</ele>
        <time>2013-12-15T10:40:20Z</time>
      </trkpt>
      <trkpt lat="44.27703" lon="6.10305">
        <ele>1802.61</ele>
        <time>2013-12-15T10:40:33Z</time>
      </trkpt>
      <trkpt lat="44.27698" lon="6.10318">
        <ele>1803.57</ele>
        <time>2013-12-15T10:40:49Z</time>
      </trkpt>
      <trkpt lat="44.27692" lon="6.10333">
        <ele>1805.01</ele>
        <time>2013-12-15T10:41:07Z</time>
      </trkpt>
      <trkpt lat="44.27692" lon="6.1034">
        <ele>1806.94</ele>
        <time>2013-12-15T10:41:20Z</time>
      </trkpt>
      <trkpt lat="44.27688" lon="6.10344">
        <ele>1809.34</ele>
        <time>2013-12-15T10:41:35Z</time>
      </trkpt>
      <trkpt lat="44.27688" lon="6.10348">
        <ele>1810.78</ele>
        <time>2013-12-15T10:41:50Z</time>
      </trkpt>
      <trkpt lat="44.27688" lon="6.1035">
        <ele>1813.66</ele>
        <time>2013-12-15T10:42:07Z</time>
      </trkpt>
      <trkpt lat="44.27687" lon="6.10358">
        <ele>1814.63</ele>
        <time>2013-12-15T10:42:22Z</time>
      </trkpt>
      <trkpt lat="44.2769" lon="6.10365">
        <ele>1817.03</ele>
        <time>2013-12-15T10:42:38Z</time>
      </trkpt>
      <trkpt lat="44.27687" lon="6.10371">
        <ele>1818.47</ele>
        <time>2013-12-15T10:42:52Z</time>
      </trkpt>
      <trkpt lat="44.27684" lon="6.10374">
        <ele>1820.39</ele>
        <time>2013-12-15T10:43:05Z</time>
      </trkpt>
      <trkpt lat="44.27687" lon="6.10381">
        <ele>1821.84</ele>
        <time>2013-12-15T10:43:20Z</time>
      </trkpt>
      <trkpt lat="44.27688" lon="6.10386">
        <ele>1822.8</ele>
        <time>2013-12-15T10:43:32Z</time>
      </trkpt>
      <trkpt lat="44.27686" lon="6.10388">
        <ele>1824.24</ele>
        <time>2013-12-15T10:43:48Z</time>
      </trkpt>
      <trkpt lat="44.27683" lon="6.10395">
        <ele>1825.2</ele>
        <time>2013-12-15T10:44:01Z</time>
      </trkpt>
      <trkpt lat="44.27676" lon="6.104">
        <ele>1826.64</ele>
        <time>2013-12-15T10:44:17Z</time>
      </trkpt>
      <trkpt lat="44.2767" lon="6.10403">
        <ele>1828.56</ele>
        <time>2013-12-15T10:44:32Z</time>
      </trkpt>
      <trkpt lat="44.27664" lon="6.10408">
        <ele>1830.01</ele>
        <time>2013-12-15T10:44:44Z</time>
      </trkpt>
      <trkpt lat="44.27658" lon="6.10413">
        <ele>1831.45</ele>
        <time>2013-12-15T10:44:57Z</time>
      </trkpt>
      <trkpt lat="44.27652" lon="6.10419">
        <ele>1833.37</ele>
        <time>2013-12-15T10:45:13Z</time>
      </trkpt>
      <trkpt lat="44.27647" lon="6.10424">
        <ele>1835.77</ele>
        <time>2013-12-15T10:45:28Z</time>
      </trkpt>
      <trkpt lat="44.27644" lon="6.10425">
        <ele>1836.74</ele>
        <time>2013-12-15T10:45:42Z</time>
      </trkpt>
      <trkpt lat="44.27641" lon="6.10431">
        <ele>1837.7</ele>
        <time>2013-12-15T10:45:56Z</time>
      </trkpt>
      <trkpt lat="44.27636" lon="6.10438">
        <ele>1839.62</ele>
        <time>2013-12-15T10:46:10Z</time>
      </trkpt>
      <trkpt lat="44.27631" lon="6.10446">
        <ele>1840.58</ele>
        <time>2013-12-15T10:46:23Z</time>
      </trkpt>
      <trkpt lat="44.27628" lon="6.10449">
        <ele>1841.54</ele>
        <time>2013-12-15T10:46:37Z</time>
      </trkpt>
      <trkpt lat="44.27621" lon="6.10456">
        <ele>1842.02</ele>
        <time>2013-12-15T10:46:50Z</time>
      </trkpt>
      <trkpt lat="44.27614" lon="6.10464">
        <ele>1843.47</ele>
        <time>2013-12-15T10:47:03Z</time>
      </trkpt>
      <trkpt lat="44.27606" lon="6.10473">
        <ele>1845.87</ele>
        <time>2013-12-15T10:47:20Z</time>
      </trkpt>
      <trkpt lat="44.27603" lon="6.10474">
        <ele>1847.79</ele>
        <time>2013-12-15T10:47:33Z</time>
      </trkpt>
      <trkpt lat="44.27597" lon="6.10477">
        <ele>1849.23</ele>
        <time>2013-12-15T10:47:46Z</time>
      </trkpt>
      <trkpt lat="44.27591" lon="6.1048">
        <ele>1851.64</ele>
        <time>2013-12-15T10:48:00Z</time>
      </trkpt>
      <trkpt lat="44.27581" lon="6.10479">
        <ele>1852.12</ele>
        <time>2013-12-15T10:48:14Z</time>
      </trkpt>
      <trkpt lat="44.27573" lon="6.10481">
        <ele>1851.64</ele>
        <time>2013-12-15T10:48:27Z</time>
      </trkpt>
      <trkpt lat="44.27566" lon="6.10483">
        <ele>1852.12</ele>
        <time>2013-12-15T10:48:40Z</time>
      </trkpt>
      <trkpt lat="44.27558" lon="6.10486">
        <ele>1851.16</ele>
        <time>2013-12-15T10:48:54Z</time>
      </trkpt>
      <trkpt lat="44.27549" lon="6.10493">
        <ele>1850.19</ele>
        <time>2013-12-15T10:49:09Z</time>
      </trkpt>
      <trkpt lat="44.27545" lon="6.105">
        <ele>1852.12</ele>
        <time>2013-12-15T10:49:22Z</time>
      </trkpt>
      <trkpt lat="44.27538" lon="6.10504">
        <ele>1854.04</ele>
        <time>2013-12-15T10:49:36Z</time>
      </trkpt>
      <trkpt lat="44.27534" lon="6.10511">
        <ele>1856.92</ele>
        <time>2013-12-15T10:49:52Z</time>
      </trkpt>
      <trkpt lat="44.2753" lon="6.10517">
        <ele>1858.85</ele>
        <time>2013-12-15T10:50:05Z</time>
      </trkpt>
      <trkpt lat="44.27525" lon="6.10521">
        <ele>1857.4</ele>
        <time>2013-12-15T10:50:19Z</time>
      </trkpt>
      <trkpt lat="44.27519" lon="6.10527">
        <ele>1858.85</ele>
        <time>2013-12-15T10:50:33Z</time>
      </trkpt>
      <trkpt lat="44.27513" lon="6.10533">
        <ele>1859.81</ele>
        <time>2013-12-15T10:50:45Z</time>
      </trkpt>
      <trkpt lat="44.27509" lon="6.1054">
        <ele>1859.81</ele>
        <time>2013-12-15T10:51:00Z</time>
      </trkpt>
      <trkpt lat="44.27506" lon="6.10543">
        <ele>1861.73</ele>
        <time>2013-12-15T10:51:15Z</time>
      </trkpt>
      <trkpt lat="44.27507" lon="6.10544">
        <ele>1865.09</ele>
        <time>2013-12-15T10:51:29Z</time>
      </trkpt>
      <trkpt lat="44.2751" lon="6.1055">
        <ele>1867.5</ele>
        <time>2013-12-15T10:51:42Z</time>
      </trkpt>
      <trkpt lat="44.27501" lon="6.10557">
        <ele>1867.98</ele>
        <time>2013-12-15T10:51:56Z</time>
      </trkpt>
      <trkpt lat="44.27494" lon="6.10558">
        <ele>1869.9</ele>
        <time>2013-12-15T10:52:10Z</time>
      </trkpt>
      <trkpt lat="44.27487" lon="6.10568">
        <ele>1871.82</ele>
        <time>2013-12-15T10:52:26Z</time>
      </trkpt>
      <trkpt lat="44.2748" lon="6.10572">
        <ele>1872.79</ele>
        <time>2013-12-15T10:52:40Z</time>
      </trkpt>
      <trkpt lat="44.27471" lon="6.10576">
        <ele>1874.71</ele>
        <time>2013-12-15T10:52:57Z</time>
      </trkpt>
      <trkpt lat="44.27464" lon="6.1058">
        <ele>1876.15</ele>
        <time>2013-12-15T10:53:12Z</time>
      </trkpt>
      <trkpt lat="44.27456" lon="6.10582">
        <ele>1878.55</ele>
        <time>2013-12-15T10:53:27Z</time>
      </trkpt>
      <trkpt lat="44.27448" lon="6.10584">
        <ele>1880</ele>
        <time>2013-12-15T10:53:41Z</time>
      </trkpt>
      <trkpt lat="44.2744" lon="6.10586">
        <ele>1881.44</ele>
        <time>2013-12-15T10:53:57Z</time>
      </trkpt>
      <trkpt lat="44.27436" lon="6.10586">
        <ele>1881.44</ele>
        <time>2013-12-15T10:54:09Z</time>
      </trkpt>
      <trkpt lat="44.27436" lon="6.10586">
        <ele>1872.79</ele>
        <time>2013-12-15T10:54:10Z</time>
      </trkpt>
      <trkpt lat="44.27436" lon="6.10586">
        <ele>1883.36</ele>
        <time>2013-12-15T10:54:11Z</time>
      </trkpt>
      <trkpt lat="44.27436" lon="6.10586">
        <ele>1880</ele>
        <time>2013-12-15T10:54:12Z</time>
      </trkpt>
      <trkpt lat="44.27436" lon="6.1059">
        <ele>1881.92</ele>
        <time>2013-12-15T10:54:29Z</time>
      </trkpt>
      <trkpt lat="44.27435" lon="6.10593">
        <ele>1880.96</ele>
        <time>2013-12-15T10:54:42Z</time>
      </trkpt>
      <trkpt lat="44.27435" lon="6.10593">
        <ele>1881.92</ele>
        <time>2013-12-15T10:55:11Z</time>
      </trkpt>
      <trkpt lat="44.27438" lon="6.1059">
        <ele>1882.4</ele>
        <time>2013-12-15T10:55:23Z</time>
      </trkpt>
      <trkpt lat="44.27438" lon="6.10587">
        <ele>1881.92</ele>
        <time>2013-12-15T10:55:38Z</time>
      </trkpt>
      <trkpt lat="44.27438" lon="6.10587">
        <ele>1881.92</ele>
        <time>2013-12-15T10:55:54Z</time>
      </trkpt>
      <trkpt lat="44.27435" lon="6.10586">
        <ele>1881.92</ele>
        <time>2013-12-15T10:56:08Z</time>
      </trkpt>
      <trkpt lat="44.27436" lon="6.10582">
        <ele>1881.92</ele>
        <time>2013-12-15T10:56:20Z</time>
      </trkpt>
      <trkpt lat="44.2744" lon="6.10584">
        <ele>1881.92</ele>
        <time>2013-12-15T10:56:35Z</time>
      </trkpt>
      <trkpt lat="44.27439" lon="6.10586">
        <ele>1882.4</ele>
        <time>2013-12-15T10:56:53Z</time>
      </trkpt>
      <trkpt lat="44.27439" lon="6.10586">
        <ele>1882.4</ele>
        <time>2013-12-15T10:57:16Z</time>
      </trkpt>
      <trkpt lat="44.27438" lon="6.10594">
        <ele>1881.44</ele>
        <time>2013-12-15T10:57:38Z</time>
      </trkpt>
      <trkpt lat="44.27438" lon="6.10602">
        <ele>1881.44</ele>
        <time>2013-12-15T10:57:44Z</time>
      </trkpt>
      <trkpt lat="44.27438" lon="6.10606">
        <ele>1880.96</ele>
        <time>2013-12-15T10:57:47Z</time>
      </trkpt>
      <trkpt lat="44.27435" lon="6.10627">
        <ele>1880.48</ele>
        <time>2013-12-15T10:58:04Z</time>
      </trkpt>
      <trkpt lat="44.27432" lon="6.10638">
        <ele>1880.96</ele>
        <time>2013-12-15T10:58:13Z</time>
      </trkpt>
      <trkpt lat="44.2743" lon="6.10645">
        <ele>1880.48</ele>
        <time>2013-12-15T10:58:19Z</time>
      </trkpt>
      <trkpt lat="44.27425" lon="6.10657">
        <ele>1880.48</ele>
        <time>2013-12-15T10:58:36Z</time>
      </trkpt>
      <trkpt lat="44.27425" lon="6.10657">
        <ele>1880.48</ele>
        <time>2013-12-15T10:58:41Z</time>
      </trkpt>
      <trkpt lat="44.2742" lon="6.10671">
        <ele>1880</ele>
        <time>2013-12-15T10:58:54Z</time>
      </trkpt>
      <trkpt lat="44.27416" lon="6.10677">
        <ele>1880</ele>
        <time>2013-12-15T10:59:00Z</time>
      </trkpt>
      <trkpt lat="44.27408" lon="6.10694">
        <ele>1880</ele>
        <time>2013-12-15T10:59:15Z</time>
      </trkpt>
      <trkpt lat="44.27407" lon="6.10698">
        <ele>1880</ele>
        <time>2013-12-15T10:59:18Z</time>
      </trkpt>
      <trkpt lat="44.27404" lon="6.10706">
        <ele>1879.03</ele>
        <time>2013-12-15T10:59:26Z</time>
      </trkpt>
      <trkpt lat="44.27403" lon="6.10709">
        <ele>1879.03</ele>
        <time>2013-12-15T10:59:29Z</time>
      </trkpt>
      <trkpt lat="44.27397" lon="6.10731">
        <ele>1878.07</ele>
        <time>2013-12-15T10:59:47Z</time>
      </trkpt>
      <trkpt lat="44.27389" lon="6.10748">
        <ele>1877.59</ele>
        <time>2013-12-15T11:00:03Z</time>
      </trkpt>
      <trkpt lat="44.27377" lon="6.1076">
        <ele>1877.11</ele>
        <time>2013-12-15T11:00:19Z</time>
      </trkpt>
      <trkpt lat="44.27373" lon="6.10765">
        <ele>1878.07</ele>
        <time>2013-12-15T11:00:25Z</time>
      </trkpt>
      <trkpt lat="44.2736" lon="6.10768">
        <ele>1879.03</ele>
        <time>2013-12-15T11:00:40Z</time>
      </trkpt>
      <trkpt lat="44.27353" lon="6.10767">
        <ele>1880.48</ele>
        <time>2013-12-15T11:00:53Z</time>
      </trkpt>
      <trkpt lat="44.27349" lon="6.10764">
        <ele>1880.96</ele>
        <time>2013-12-15T11:01:13Z</time>
      </trkpt>
      <trkpt lat="44.27342" lon="6.10758">
        <ele>1881.92</ele>
        <time>2013-12-15T11:01:31Z</time>
      </trkpt>
      <trkpt lat="44.2734" lon="6.10756">
        <ele>1882.4</ele>
        <time>2013-12-15T11:01:46Z</time>
      </trkpt>
      <trkpt lat="44.27341" lon="6.10757">
        <ele>1880.96</ele>
        <time>2013-12-15T11:02:00Z</time>
      </trkpt>
      <trkpt lat="44.27341" lon="6.10756">
        <ele>1881.44</ele>
        <time>2013-12-15T11:02:32Z</time>
      </trkpt>
      <trkpt lat="44.27341" lon="6.10757">
        <ele>1881.92</ele>
        <time>2013-12-15T11:03:12Z</time>
      </trkpt>
      <trkpt lat="44.27341" lon="6.10757">
        <ele>1881.92</ele>
        <time>2013-12-15T11:03:49Z</time>
      </trkpt>
      <trkpt lat="44.27341" lon="6.10757">
        <ele>1881.92</ele>
        <time>2013-12-15T11:04:23Z</time>
      </trkpt>
      <trkpt lat="44.27341" lon="6.10757">
        <ele>1881.44</ele>
        <time>2013-12-15T11:05:06Z</time>
      </trkpt>
      <trkpt lat="44.27341" lon="6.10758">
        <ele>1881.44</ele>
        <time>2013-12-15T11:05:41Z</time>
      </trkpt>
      <trkpt lat="44.27341" lon="6.10758">
        <ele>1882.4</ele>
        <time>2013-12-15T11:06:21Z</time>
      </trkpt>
      <trkpt lat="44.27342" lon="6.10758">
        <ele>1881.44</ele>
        <time>2013-12-15T11:06:58Z</time>
      </trkpt>
      <trkpt lat="44.27342" lon="6.10758">
        <ele>1881.44</ele>
        <time>2013-12-15T11:07:30Z</time>
      </trkpt>
      <trkpt lat="44.27341" lon="6.10757">
        <ele>1881.92</ele>
        <time>2013-12-15T11:08:02Z</time>
      </trkpt>
      <trkpt lat="44.27341" lon="6.10757">
        <ele>1881.44</ele>
        <time>2013-12-15T11:08:37Z</time>
      </trkpt>
      <trkpt lat="44.27341" lon="6.10757">
        <ele>1881.44</ele>
        <time>2013-12-15T11:09:15Z</time>
      </trkpt>
      <trkpt lat="44.27341" lon="6.10757">
        <ele>1882.4</ele>
        <time>2013-12-15T11:09:52Z</time>
      </trkpt>
      <trkpt lat="44.27341" lon="6.10757">
        <ele>1882.4</ele>
        <time>2013-12-15T11:10:29Z</time>
      </trkpt>
      <trkpt lat="44.27341" lon="6.10757">
        <ele>1881.92</ele>
        <time>2013-12-15T11:11:06Z</time>
      </trkpt>
      <trkpt lat="44.27341" lon="6.10757">
        <ele>1882.4</ele>
        <time>2013-12-15T11:11:40Z</time>
      </trkpt>
      <trkpt lat="44.27341" lon="6.10757">
        <ele>1881.92</ele>
        <time>2013-12-15T11:12:13Z</time>
      </trkpt>
      <trkpt lat="44.27341" lon="6.10757">
        <ele>1882.4</ele>
        <time>2013-12-15T11:12:48Z</time>
      </trkpt>
      <trkpt lat="44.27341" lon="6.10757">
        <ele>1882.4</ele>
        <time>2013-12-15T11:13:23Z</time>
      </trkpt>
      <trkpt lat="44.27341" lon="6.10756">
        <ele>1882.4</ele>
        <time>2013-12-15T11:13:56Z</time>
      </trkpt>
      <trkpt lat="44.27341" lon="6.10756">
        <ele>1881.92</ele>
        <time>2013-12-15T11:14:28Z</time>
      </trkpt>
      <trkpt lat="44.27341" lon="6.10756">
        <ele>1882.4</ele>
        <time>2013-12-15T11:15:04Z</time>
      </trkpt>
      <trkpt lat="44.27341" lon="6.10756">
        <ele>1881.92</ele>
        <time>2013-12-15T11:15:43Z</time>
      </trkpt>
      <trkpt lat="44.27341" lon="6.10756">
        <ele>1882.88</ele>
        <time>2013-12-15T11:16:25Z</time>
      </trkpt>
      <trkpt lat="44.2734" lon="6.10756">
        <ele>1882.4</ele>
        <time>2013-12-15T11:17:05Z</time>
      </trkpt>
      <trkpt lat="44.2734" lon="6.10756">
        <ele>1882.4</ele>
        <time>2013-12-15T11:17:45Z</time>
      </trkpt>
      <trkpt lat="44.2734" lon="6.10756">
        <ele>1882.4</ele>
        <time>2013-12-15T11:18:24Z</time>
      </trkpt>
      <trkpt lat="44.27341" lon="6.10755">
        <ele>1882.4</ele>
        <time>2013-12-15T11:19:00Z</time>
      </trkpt>
      <trkpt lat="44.2734" lon="6.10755">
        <ele>1882.4</ele>
        <time>2013-12-15T11:19:37Z</time>
      </trkpt>
      <trkpt lat="44.2734" lon="6.10755">
        <ele>1882.4</ele>
        <time>2013-12-15T11:20:14Z</time>
      </trkpt>
      <trkpt lat="44.2734" lon="6.10755">
        <ele>1882.4</ele>
        <time>2013-12-15T11:20:55Z</time>
      </trkpt>
      <trkpt lat="44.2734" lon="6.10755">
        <ele>1882.4</ele>
        <time>2013-12-15T11:21:31Z</time>
      </trkpt>
      <trkpt lat="44.2734" lon="6.10755">
        <ele>1882.4</ele>
        <time>2013-12-15T11:22:05Z</time>
      </trkpt>
      <trkpt lat="44.2734" lon="6.10756">
        <ele>1882.4</ele>
        <time>2013-12-15T11:22:42Z</time>
      </trkpt>
      <trkpt lat="44.2734" lon="6.10756">
        <ele>1882.4</ele>
        <time>2013-12-15T11:23:17Z</time>
      </trkpt>
      <trkpt lat="44.2734" lon="6.10756">
        <ele>1881.92</ele>
        <time>2013-12-15T11:23:53Z</time>
      </trkpt>
      <trkpt lat="44.2734" lon="6.10756">
        <ele>1882.4</ele>
        <time>2013-12-15T11:24:29Z</time>
      </trkpt>
      <trkpt lat="44.2734" lon="6.10756">
        <ele>1882.4</ele>
        <time>2013-12-15T11:25:06Z</time>
      </trkpt>
      <trkpt lat="44.2734" lon="6.10756">
        <ele>1882.4</ele>
        <time>2013-12-15T11:25:41Z</time>
      </trkpt>
      <trkpt lat="44.2734" lon="6.10756">
        <ele>1882.88</ele>
        <time>2013-12-15T11:26:15Z</time>
      </trkpt>
      <trkpt lat="44.2734" lon="6.10756">
        <ele>1882.88</ele>
        <time>2013-12-15T11:26:48Z</time>
      </trkpt>
      <trkpt lat="44.2734" lon="6.10756">
        <ele>1882.4</ele>
        <time>2013-12-15T11:27:24Z</time>
      </trkpt>
      <trkpt lat="44.27341" lon="6.10756">
        <ele>1882.4</ele>
        <time>2013-12-15T11:27:58Z</time>
      </trkpt>
      <trkpt lat="44.27341" lon="6.10756">
        <ele>1882.4</ele>
        <time>2013-12-15T11:28:33Z</time>
      </trkpt>
      <trkpt lat="44.27341" lon="6.10756">
        <ele>1882.4</ele>
        <time>2013-12-15T11:29:07Z</time>
      </trkpt>
      <trkpt lat="44.27341" lon="6.10756">
        <ele>1882.4</ele>
        <time>2013-12-15T11:29:39Z</time>
      </trkpt>
      <trkpt lat="44.2734" lon="6.10756">
        <ele>1882.88</ele>
        <time>2013-12-15T11:30:16Z</time>
      </trkpt>
      <trkpt lat="44.2734" lon="6.10756">
        <ele>1881.92</ele>
        <time>2013-12-15T11:30:49Z</time>
      </trkpt>
      <trkpt lat="44.2734" lon="6.10756">
        <ele>1882.88</ele>
        <time>2013-12-15T11:31:24Z</time>
      </trkpt>
      <trkpt lat="44.2734" lon="6.10756">
        <ele>1882.88</ele>
        <time>2013-12-15T11:31:59Z</time>
      </trkpt>
      <trkpt lat="44.2734" lon="6.10756">
        <ele>1882.88</ele>
        <time>2013-12-15T11:32:37Z</time>
      </trkpt>
      <trkpt lat="44.2734" lon="6.10756">
        <ele>1882.4</ele>
        <time>2013-12-15T11:33:12Z</time>
      </trkpt>
      <trkpt lat="44.2734" lon="6.10756">
        <ele>1882.88</ele>
        <time>2013-12-15T11:33:49Z</time>
      </trkpt>
      <trkpt lat="44.2734" lon="6.10756">
        <ele>1882.4</ele>
        <time>2013-12-15T11:34:26Z</time>
      </trkpt>
      <trkpt lat="44.2734" lon="6.10756">
        <ele>1882.4</ele>
        <time>2013-12-15T11:35:00Z</time>
      </trkpt>
      <trkpt lat="44.2734" lon="6.10756">
        <ele>1882.88</ele>
        <time>2013-12-15T11:35:28Z</time>
      </trkpt>
      <trkpt lat="44.2734" lon="6.10756">
        <ele>1882.88</ele>
        <time>2013-12-15T11:36:08Z</time>
      </trkpt>
      <trkpt lat="44.2734" lon="6.10756">
        <ele>1882.4</ele>
        <time>2013-12-15T11:36:41Z</time>
      </trkpt>
      <trkpt lat="44.2734" lon="6.10756">
        <ele>1882.4</ele>
        <time>2013-12-15T11:37:10Z</time>
      </trkpt>
      <trkpt lat="44.2734" lon="6.10756">
        <ele>1882.4</ele>
        <time>2013-12-15T11:37:51Z</time>
      </trkpt>
      <trkpt lat="44.2734" lon="6.10756">
        <ele>1882.4</ele>
        <time>2013-12-15T11:38:27Z</time>
      </trkpt>
      <trkpt lat="44.2734" lon="6.10756">
        <ele>1882.88</ele>
        <time>2013-12-15T11:39:00Z</time>
      </trkpt>
      <trkpt lat="44.27341" lon="6.10756">
        <ele>1882.4</ele>
        <time>2013-12-15T11:39:30Z</time>
      </trkpt>
      <trkpt lat="44.2734" lon="6.10756">
        <ele>1882.88</ele>
        <time>2013-12-15T11:39:52Z</time>
      </trkpt>
      <trkpt lat="44.2734" lon="6.10756">
        <ele>1882.4</ele>
        <time>2013-12-15T11:40:30Z</time>
      </trkpt>
      <trkpt lat="44.2734" lon="6.10756">
        <ele>1882.4</ele>
        <time>2013-12-15T11:41:11Z</time>
      </trkpt>
      <trkpt lat="44.2734" lon="6.10756">
        <ele>1882.88</ele>
        <time>2013-12-15T11:41:48Z</time>
      </trkpt>
      <trkpt lat="44.2734" lon="6.10756">
        <ele>1882.4</ele>
        <time>2013-12-15T11:42:27Z</time>
      </trkpt>
      <trkpt lat="44.27341" lon="6.10756">
        <ele>1882.88</ele>
        <time>2013-12-15T11:42:43Z</time>
      </trkpt>
      <trkpt lat="44.27341" lon="6.10756">
        <ele>1881.92</ele>
        <time>2013-12-15T11:43:16Z</time>
      </trkpt>
      <trkpt lat="44.27341" lon="6.10756">
        <ele>1881.92</ele>
        <time>2013-12-15T11:43:49Z</time>
      </trkpt>
      <trkpt lat="44.27341" lon="6.10756">
        <ele>1882.4</ele>
        <time>2013-12-15T11:44:04Z</time>
      </trkpt>
      <trkpt lat="44.27341" lon="6.10756">
        <ele>1882.4</ele>
        <time>2013-12-15T11:44:23Z</time>
      </trkpt>
      <trkpt lat="44.2734" lon="6.10756">
        <ele>1882.4</ele>
        <time>2013-12-15T11:44:59Z</time>
      </trkpt>
      <trkpt lat="44.2734" lon="6.10756">
        <ele>1882.4</ele>
        <time>2013-12-15T11:45:38Z</time>
      </trkpt>
      <trkpt lat="44.2734" lon="6.10756">
        <ele>1881.92</ele>
        <time>2013-12-15T11:46:15Z</time>
      </trkpt>
      <trkpt lat="44.2734" lon="6.10756">
        <ele>1882.88</ele>
        <time>2013-12-15T11:46:58Z</time>
      </trkpt>
      <trkpt lat="44.2734" lon="6.10756">
        <ele>1882.88</ele>
        <time>2013-12-15T11:47:12Z</time>
      </trkpt>
      <trkpt lat="44.2734" lon="6.10756">
        <ele>1882.4</ele>
        <time>2013-12-15T11:47:41Z</time>
      </trkpt>
      <trkpt lat="44.2734" lon="6.10756">
        <ele>1882.4</ele>
        <time>2013-12-15T11:48:17Z</time>
      </trkpt>
      <trkpt lat="44.2734" lon="6.10756">
        <ele>1882.88</ele>
        <time>2013-12-15T11:48:51Z</time>
      </trkpt>
      <trkpt lat="44.2734" lon="6.10756">
        <ele>1882.4</ele>
        <time>2013-12-15T11:49:27Z</time>
      </trkpt>
      <trkpt lat="44.2734" lon="6.10757">
        <ele>1881.92</ele>
        <time>2013-12-15T11:50:00Z</time>
      </trkpt>
      <trkpt lat="44.2734" lon="6.10756">
        <ele>1882.4</ele>
        <time>2013-12-15T11:50:33Z</time>
      </trkpt>
      <trkpt lat="44.2734" lon="6.10757">
        <ele>1882.88</ele>
        <time>2013-12-15T11:50:54Z</time>
      </trkpt>
      <trkpt lat="44.2734" lon="6.10757">
        <ele>1882.88</ele>
        <time>2013-12-15T11:51:15Z</time>
      </trkpt>
      <trkpt lat="44.2734" lon="6.10757">
        <ele>1883.36</ele>
        <time>2013-12-15T11:51:29Z</time>
      </trkpt>
      <trkpt lat="44.2734" lon="6.10757">
        <ele>1882.88</ele>
        <time>2013-12-15T11:52:03Z</time>
      </trkpt>
      <trkpt lat="44.2734" lon="6.10757">
        <ele>1883.36</ele>
        <time>2013-12-15T11:52:41Z</time>
      </trkpt>
      <trkpt lat="44.2734" lon="6.10757">
        <ele>1882.88</ele>
        <time>2013-12-15T11:53:20Z</time>
      </trkpt>
      <trkpt lat="44.2734" lon="6.10757">
        <ele>1882.88</ele>
        <time>2013-12-15T11:54:01Z</time>
      </trkpt>
      <trkpt lat="44.2734" lon="6.10757">
        <ele>1882.88</ele>
        <time>2013-12-15T11:54:37Z</time>
      </trkpt>
      <trkpt lat="44.2734" lon="6.10756">
        <ele>1882.88</ele>
        <time>2013-12-15T11:55:15Z</time>
      </trkpt>
      <trkpt lat="44.2734" lon="6.10756">
        <ele>1883.36</ele>
        <time>2013-12-15T11:55:54Z</time>
      </trkpt>
      <trkpt lat="44.2734" lon="6.10757">
        <ele>1882.88</ele>
        <time>2013-12-15T11:56:33Z</time>
      </trkpt>
      <trkpt lat="44.2734" lon="6.10757">
        <ele>1882.4</ele>
        <time>2013-12-15T11:57:11Z</time>
      </trkpt>
      <trkpt lat="44.2734" lon="6.10757">
        <ele>1882.88</ele>
        <time>2013-12-15T11:57:45Z</time>
      </trkpt>
      <trkpt lat="44.2734" lon="6.10757">
        <ele>1883.36</ele>
        <time>2013-12-15T11:58:21Z</time>
      </trkpt>
      <trkpt lat="44.2734" lon="6.10757">
        <ele>1883.36</ele>
        <time>2013-12-15T11:59:01Z</time>
      </trkpt>
      <trkpt lat="44.27341" lon="6.10756">
        <ele>1882.88</ele>
        <time>2013-12-15T11:59:36Z</time>
      </trkpt>
      <trkpt lat="44.27341" lon="6.10756">
        <ele>1882.88</ele>
        <time>2013-12-15T12:00:11Z</time>
      </trkpt>
      <trkpt lat="44.27341" lon="6.10756">
        <ele>1882.88</ele>
        <time>2013-12-15T12:00:42Z</time>
      </trkpt>
      <trkpt lat="44.27341" lon="6.10756">
        <ele>1883.36</ele>
        <time>2013-12-15T12:01:20Z</time>
      </trkpt>
      <trkpt lat="44.27341" lon="6.10755">
        <ele>1882.88</ele>
        <time>2013-12-15T12:01:57Z</time>
      </trkpt>
      <trkpt lat="44.27341" lon="6.10756">
        <ele>1882.88</ele>
        <time>2013-12-15T12:02:35Z</time>
      </trkpt>
      <trkpt lat="44.27341" lon="6.10756">
        <ele>1882.4</ele>
        <time>2013-12-15T12:03:10Z</time>
      </trkpt>
      <trkpt lat="44.27341" lon="6.10756">
        <ele>1883.36</ele>
        <time>2013-12-15T12:03:43Z</time>
      </trkpt>
      <trkpt lat="44.27341" lon="6.10756">
        <ele>1882.88</ele>
        <time>2013-12-15T12:04:21Z</time>
      </trkpt>
      <trkpt lat="44.27341" lon="6.10756">
        <ele>1882.88</ele>
        <time>2013-12-15T12:04:55Z</time>
      </trkpt>
      <trkpt lat="44.27341" lon="6.10756">
        <ele>1882.88</ele>
        <time>2013-12-15T12:05:32Z</time>
      </trkpt>
      <trkpt lat="44.27341" lon="6.10756">
        <ele>1883.36</ele>
        <time>2013-12-15T12:06:10Z</time>
      </trkpt>
      <trkpt lat="44.27341" lon="6.10756">
        <ele>1882.88</ele>
        <time>2013-12-15T12:06:47Z</time>
      </trkpt>
      <trkpt lat="44.27341" lon="6.10756">
        <ele>1883.84</ele>
        <time>2013-12-15T12:07:21Z</time>
      </trkpt>
      <trkpt lat="44.27341" lon="6.10756">
        <ele>1882.88</ele>
        <time>2013-12-15T12:07:55Z</time>
      </trkpt>
      <trkpt lat="44.2734" lon="6.10756">
        <ele>1883.36</ele>
        <time>2013-12-15T12:08:27Z</time>
      </trkpt>
      <trkpt lat="44.27341" lon="6.10756">
        <ele>1883.84</ele>
        <time>2013-12-15T12:09:06Z</time>
      </trkpt>
      <trkpt lat="44.27341" lon="6.10756">
        <ele>1882.88</ele>
        <time>2013-12-15T12:09:41Z</time>
      </trkpt>
      <trkpt lat="44.27341" lon="6.10756">
        <ele>1883.36</ele>
        <time>2013-12-15T12:10:17Z</time>
      </trkpt>
      <trkpt lat="44.2734" lon="6.10756">
        <ele>1883.84</ele>
        <time>2013-12-15T12:10:51Z</time>
      </trkpt>
      <trkpt lat="44.27341" lon="6.10756">
        <ele>1883.36</ele>
        <time>2013-12-15T12:11:28Z</time>
      </trkpt>
      <trkpt lat="44.27341" lon="6.10756">
        <ele>1883.36</ele>
        <time>2013-12-15T12:12:00Z</time>
      </trkpt>
      <trkpt lat="44.2734" lon="6.10756">
        <ele>1883.36</ele>
        <time>2013-12-15T12:12:35Z</time>
      </trkpt>
      <trkpt lat="44.2734" lon="6.10756">
        <ele>1883.36</ele>
        <time>2013-12-15T12:13:10Z</time>
      </trkpt>
      <trkpt lat="44.2734" lon="6.10756">
        <ele>1883.84</ele>
        <time>2013-12-15T12:13:46Z</time>
      </trkpt>
      <trkpt lat="44.2734" lon="6.10756">
        <ele>1883.36</ele>
        <time>2013-12-15T12:14:17Z</time>
      </trkpt>
      <trkpt lat="44.2734" lon="6.10756">
        <ele>1883.36</ele>
        <time>2013-12-15T12:14:46Z</time>
      </trkpt>
      <trkpt lat="44.2734" lon="6.10756">
        <ele>1883.36</ele>
        <time>2013-12-15T12:15:21Z</time>
      </trkpt>
      <trkpt lat="44.2734" lon="6.10756">
        <ele>1883.84</ele>
        <time>2013-12-15T12:15:55Z</time>
      </trkpt>
      <trkpt lat="44.2734" lon="6.10756">
        <ele>1883.36</ele>
        <time>2013-12-15T12:16:34Z</time>
      </trkpt>
      <trkpt lat="44.2734" lon="6.10756">
        <ele>1883.36</ele>
        <time>2013-12-15T12:17:14Z</time>
      </trkpt>
      <trkpt lat="44.2734" lon="6.10756">
        <ele>1883.84</ele>
        <time>2013-12-15T12:17:50Z</time>
      </trkpt>
      <trkpt lat="44.2734" lon="6.10756">
        <ele>1884.32</ele>
        <time>2013-12-15T12:18:27Z</time>
      </trkpt>
      <trkpt lat="44.2734" lon="6.10756">
        <ele>1882.88</ele>
        <time>2013-12-15T12:19:06Z</time>
      </trkpt>
      <trkpt lat="44.2734" lon="6.10756">
        <ele>1883.36</ele>
        <time>2013-12-15T12:19:43Z</time>
      </trkpt>
      <trkpt lat="44.27341" lon="6.10756">
        <ele>1883.84</ele>
        <time>2013-12-15T12:20:22Z</time>
      </trkpt>
      <trkpt lat="44.2734" lon="6.10756">
        <ele>1883.36</ele>
        <time>2013-12-15T12:20:58Z</time>
      </trkpt>
      <trkpt lat="44.2734" lon="6.10756">
        <ele>1883.36</ele>
        <time>2013-12-15T12:21:37Z</time>
      </trkpt>
      <trkpt lat="44.27341" lon="6.10756">
        <ele>1883.36</ele>
        <time>2013-12-15T12:22:15Z</time>
      </trkpt>
      <trkpt lat="44.2734" lon="6.10757">
        <ele>1882.88</ele>
        <time>2013-12-15T12:22:47Z</time>
      </trkpt>
      <trkpt lat="44.2734" lon="6.10757">
        <ele>1883.36</ele>
        <time>2013-12-15T12:23:29Z</time>
      </trkpt>
      <trkpt lat="44.2734" lon="6.10756">
        <ele>1883.36</ele>
        <time>2013-12-15T12:24:04Z</time>
      </trkpt>
      <trkpt lat="44.2734" lon="6.10756">
        <ele>1882.88</ele>
        <time>2013-12-15T12:24:39Z</time>
      </trkpt>
      <trkpt lat="44.27341" lon="6.10756">
        <ele>1883.36</ele>
        <time>2013-12-15T12:25:17Z</time>
      </trkpt>
      <trkpt lat="44.27341" lon="6.10756">
        <ele>1883.36</ele>
        <time>2013-12-15T12:25:54Z</time>
      </trkpt>
      <trkpt lat="44.27341" lon="6.10756">
        <ele>1883.36</ele>
        <time>2013-12-15T12:26:30Z</time>
      </trkpt>
      <trkpt lat="44.27341" lon="6.10756">
        <ele>1883.36</ele>
        <time>2013-12-15T12:27:04Z</time>
      </trkpt>
      <trkpt lat="44.27341" lon="6.10756">
        <ele>1882.88</ele>
        <time>2013-12-15T12:27:44Z</time>
      </trkpt>
      <trkpt lat="44.27341" lon="6.10756">
        <ele>1883.36</ele>
        <time>2013-12-15T12:28:27Z</time>
      </trkpt>
      <trkpt lat="44.27341" lon="6.10756">
        <ele>1883.84</ele>
        <time>2013-12-15T12:29:01Z</time>
      </trkpt>
      <trkpt lat="44.27341" lon="6.10756">
        <ele>1883.36</ele>
        <time>2013-12-15T12:29:35Z</time>
      </trkpt>
      <trkpt lat="44.27341" lon="6.10756">
        <ele>1883.36</ele>
        <time>2013-12-15T12:30:16Z</time>
      </trkpt>
      <trkpt lat="44.27341" lon="6.10756">
        <ele>1883.84</ele>
        <time>2013-12-15T12:30:52Z</time>
      </trkpt>
      <trkpt lat="44.27341" lon="6.10756">
        <ele>1883.84</ele>
        <time>2013-12-15T12:31:25Z</time>
      </trkpt>
      <trkpt lat="44.27341" lon="6.10756">
        <ele>1882.88</ele>
        <time>2013-12-15T12:31:56Z</time>
      </trkpt>
      <trkpt lat="44.27341" lon="6.10756">
        <ele>1883.36</ele>
        <time>2013-12-15T12:32:29Z</time>
      </trkpt>
      <trkpt lat="44.27341" lon="6.10756">
        <ele>1883.84</ele>
        <time>2013-12-15T12:33:05Z</time>
      </trkpt>
      <trkpt lat="44.27341" lon="6.10756">
        <ele>1882.88</ele>
        <time>2013-12-15T12:33:39Z</time>
      </trkpt>
      <trkpt lat="44.27341" lon="6.10756">
        <ele>1883.36</ele>
        <time>2013-12-15T12:34:16Z</time>
      </trkpt>
      <trkpt lat="44.27341" lon="6.10756">
        <ele>1883.36</ele>
        <time>2013-12-15T12:34:53Z</time>
      </trkpt>
      <trkpt lat="44.27341" lon="6.10756">
        <ele>1883.36</ele>
        <time>2013-12-15T12:35:29Z</time>
      </trkpt>
      <trkpt lat="44.27341" lon="6.10756">
        <ele>1883.36</ele>
        <time>2013-12-15T12:36:09Z</time>
      </trkpt>
      <trkpt lat="44.27341" lon="6.10756">
        <ele>1883.36</ele>
        <time>2013-12-15T12:36:46Z</time>
      </trkpt>
      <trkpt lat="44.27341" lon="6.10756">
        <ele>1883.84</ele>
        <time>2013-12-15T12:37:23Z</time>
      </trkpt>
      <trkpt lat="44.27341" lon="6.10756">
        <ele>1882.88</ele>
        <time>2013-12-15T12:38:00Z</time>
      </trkpt>
      <trkpt lat="44.27342" lon="6.10756">
        <ele>1882.88</ele>
        <time>2013-12-15T12:38:36Z</time>
      </trkpt>
      <trkpt lat="44.27341" lon="6.10757">
        <ele>1883.36</ele>
        <time>2013-12-15T12:39:12Z</time>
      </trkpt>
      <trkpt lat="44.27341" lon="6.10757">
        <ele>1882.88</ele>
        <time>2013-12-15T12:39:50Z</time>
      </trkpt>
      <trkpt lat="44.27342" lon="6.10757">
        <ele>1882.88</ele>
        <time>2013-12-15T12:40:29Z</time>
      </trkpt>
      <trkpt lat="44.27342" lon="6.10757">
        <ele>1882.4</ele>
        <time>2013-12-15T12:41:03Z</time>
      </trkpt>
      <trkpt lat="44.27342" lon="6.10757">
        <ele>1882.4</ele>
        <time>2013-12-15T12:41:37Z</time>
      </trkpt>
      <trkpt lat="44.27342" lon="6.10757">
        <ele>1882.88</ele>
        <time>2013-12-15T12:42:12Z</time>
      </trkpt>
      <trkpt lat="44.27341" lon="6.10758">
        <ele>1882.88</ele>
        <time>2013-12-15T12:42:47Z</time>
      </trkpt>
      <trkpt lat="44.27342" lon="6.10758">
        <ele>1882.88</ele>
        <time>2013-12-15T12:43:23Z</time>
      </trkpt>
      <trkpt lat="44.27342" lon="6.10758">
        <ele>1883.36</ele>
        <time>2013-12-15T12:43:57Z</time>
      </trkpt>
      <trkpt lat="44.27342" lon="6.10757">
        <ele>1882.88</ele>
        <time>2013-12-15T12:44:32Z</time>
      </trkpt>
      <trkpt lat="44.27342" lon="6.10757">
        <ele>1882.4</ele>
        <time>2013-12-15T12:45:10Z</time>
      </trkpt>
      <trkpt lat="44.27342" lon="6.10757">
        <ele>1882.4</ele>
        <time>2013-12-15T12:45:45Z</time>
      </trkpt>
      <trkpt lat="44.27342" lon="6.10757">
        <ele>1881.92</ele>
        <time>2013-12-15T12:46:20Z</time>
      </trkpt>
      <trkpt lat="44.27342" lon="6.10757">
        <ele>1882.4</ele>
        <time>2013-12-15T12:46:58Z</time>
      </trkpt>
      <trkpt lat="44.27342" lon="6.10757">
        <ele>1881.92</ele>
        <time>2013-12-15T12:47:34Z</time>
      </trkpt>
      <trkpt lat="44.27342" lon="6.10757">
        <ele>1882.88</ele>
        <time>2013-12-15T12:48:08Z</time>
      </trkpt>
      <trkpt lat="44.27342" lon="6.10757">
        <ele>1882.4</ele>
        <time>2013-12-15T12:48:49Z</time>
      </trkpt>
      <trkpt lat="44.27341" lon="6.10757">
        <ele>1882.4</ele>
        <time>2013-12-15T12:49:29Z</time>
      </trkpt>
      <trkpt lat="44.27341" lon="6.10757">
        <ele>1882.4</ele>
        <time>2013-12-15T12:50:09Z</time>
      </trkpt>
      <trkpt lat="44.27341" lon="6.10757">
        <ele>1882.4</ele>
        <time>2013-12-15T12:50:51Z</time>
      </trkpt>
      <trkpt lat="44.27341" lon="6.10757">
        <ele>1881.92</ele>
        <time>2013-12-15T12:51:29Z</time>
      </trkpt>
      <trkpt lat="44.27341" lon="6.10757">
        <ele>1882.88</ele>
        <time>2013-12-15T12:52:07Z</time>
      </trkpt>
      <trkpt lat="44.27341" lon="6.10757">
        <ele>1882.4</ele>
        <time>2013-12-15T12:52:48Z</time>
      </trkpt>
      <trkpt lat="44.27341" lon="6.10757">
        <ele>1881.92</ele>
        <time>2013-12-15T12:53:26Z</time>
      </trkpt>
      <trkpt lat="44.27341" lon="6.10757">
        <ele>1881.92</ele>
        <time>2013-12-15T12:54:01Z</time>
      </trkpt>
      <trkpt lat="44.27341" lon="6.10757">
        <ele>1882.4</ele>
        <time>2013-12-15T12:54:40Z</time>
      </trkpt>
      <trkpt lat="44.2734" lon="6.10757">
        <ele>1881.92</ele>
        <time>2013-12-15T12:55:21Z</time>
      </trkpt>
      <trkpt lat="44.2734" lon="6.10757">
        <ele>1882.4</ele>
        <time>2013-12-15T12:56:00Z</time>
      </trkpt>
      <trkpt lat="44.2734" lon="6.10757">
        <ele>1881.92</ele>
        <time>2013-12-15T12:56:39Z</time>
      </trkpt>
      <trkpt lat="44.2734" lon="6.10756">
        <ele>1881.44</ele>
        <time>2013-12-15T12:57:19Z</time>
      </trkpt>
      <trkpt lat="44.2734" lon="6.10756">
        <ele>1881.92</ele>
        <time>2013-12-15T12:58:00Z</time>
      </trkpt>
      <trkpt lat="44.2734" lon="6.10756">
        <ele>1881.92</ele>
        <time>2013-12-15T12:58:38Z</time>
      </trkpt>
      <trkpt lat="44.2734" lon="6.10756">
        <ele>1881.44</ele>
        <time>2013-12-15T12:59:21Z</time>
      </trkpt>
      <trkpt lat="44.2734" lon="6.10756">
        <ele>1881.92</ele>
        <time>2013-12-15T13:00:03Z</time>
      </trkpt>
      <trkpt lat="44.2734" lon="6.10756">
        <ele>1881.92</ele>
        <time>2013-12-15T13:00:40Z</time>
      </trkpt>
      <trkpt lat="44.2734" lon="6.10756">
        <ele>1881.92</ele>
        <time>2013-12-15T13:01:18Z</time>
      </trkpt>
      <trkpt lat="44.2734" lon="6.10756">
        <ele>1881.92</ele>
        <time>2013-12-15T13:01:56Z</time>
      </trkpt>
      <trkpt lat="44.2734" lon="6.10755">
        <ele>1881.92</ele>
        <time>2013-12-15T13:02:38Z</time>
      </trkpt>
      <trkpt lat="44.2734" lon="6.10755">
        <ele>1882.4</ele>
        <time>2013-12-15T13:03:24Z</time>
      </trkpt>
      <trkpt lat="44.2734" lon="6.10755">
        <ele>1881.92</ele>
        <time>2013-12-15T13:04:10Z</time>
      </trkpt>
      <trkpt lat="44.2734" lon="6.10755">
        <ele>1881.92</ele>
        <time>2013-12-15T13:04:51Z</time>
      </trkpt>
      <trkpt lat="44.2734" lon="6.10755">
        <ele>1881.92</ele>
        <time>2013-12-15T13:05:31Z</time>
      </trkpt>
      <trkpt lat="44.2734" lon="6.10756">
        <ele>1881.92</ele>
        <time>2013-12-15T13:06:02Z</time>
      </trkpt>
      <trkpt lat="44.2734" lon="6.10756">
        <ele>1881.92</ele>
        <time>2013-12-15T13:06:41Z</time>
      </trkpt>
      <trkpt lat="44.2734" lon="6.10755">
        <ele>1881.44</ele>
        <time>2013-12-15T13:07:25Z</time>
      </trkpt>
      <trkpt lat="44.2734" lon="6.10755">
        <ele>1881.44</ele>
        <time>2013-12-15T13:08:08Z</time>
      </trkpt>
      <trkpt lat="44.2734" lon="6.10755">
        <ele>1880.96</ele>
        <time>2013-12-15T13:08:48Z</time>
      </trkpt>
      <trkpt lat="44.2734" lon="6.10755">
        <ele>1880.96</ele>
        <time>2013-12-15T13:09:33Z</time>
      </trkpt>
      <trkpt lat="44.2734" lon="6.10755">
        <ele>1880.48</ele>
        <time>2013-12-15T13:10:14Z</time>
      </trkpt>
      <trkpt lat="44.2734" lon="6.10755">
        <ele>1880.96</ele>
        <time>2013-12-15T13:10:59Z</time>
      </trkpt>
      <trkpt lat="44.2734" lon="6.10755">
        <ele>1880.48</ele>
        <time>2013-12-15T13:11:41Z</time>
      </trkpt>
      <trkpt lat="44.2734" lon="6.10755">
        <ele>1880.48</ele>
        <time>2013-12-15T13:12:21Z</time>
      </trkpt>
      <trkpt lat="44.2734" lon="6.10756">
        <ele>1880.48</ele>
        <time>2013-12-15T13:13:04Z</time>
      </trkpt>
      <trkpt lat="44.2734" lon="6.10755">
        <ele>1880.48</ele>
        <time>2013-12-15T13:13:47Z</time>
      </trkpt>
      <trkpt lat="44.2734" lon="6.10755">
        <ele>1880</ele>
        <time>2013-12-15T13:14:27Z</time>
      </trkpt>
      <trkpt lat="44.27341" lon="6.10756">
        <ele>1880.96</ele>
        <time>2013-12-15T13:15:03Z</time>
      </trkpt>
      <trkpt lat="44.2734" lon="6.10756">
        <ele>1880.48</ele>
        <time>2013-12-15T13:15:45Z</time>
      </trkpt>
      <trkpt lat="44.2734" lon="6.10756">
        <ele>1880.48</ele>
        <time>2013-12-15T13:16:22Z</time>
      </trkpt>
      <trkpt lat="44.2734" lon="6.10756">
        <ele>1880.96</ele>
        <time>2013-12-15T13:17:01Z</time>
      </trkpt>
      <trkpt lat="44.2734" lon="6.10756">
        <ele>1881.44</ele>
        <time>2013-12-15T13:17:39Z</time>
      </trkpt>
      <trkpt lat="44.2734" lon="6.10755">
        <ele>1880.48</ele>
        <time>2013-12-15T13:18:20Z</time>
      </trkpt>
      <trkpt lat="44.2734" lon="6.10755">
        <ele>1880.96</ele>
        <time>2013-12-15T13:18:57Z</time>
      </trkpt>
      <trkpt lat="44.2734" lon="6.10755">
        <ele>1880.96</ele>
        <time>2013-12-15T13:19:40Z</time>
      </trkpt>
      <trkpt lat="44.2734" lon="6.10755">
        <ele>1880.48</ele>
        <time>2013-12-15T13:20:02Z</time>
      </trkpt>
      <trkpt lat="44.2734" lon="6.10755">
        <ele>1880</ele>
        <time>2013-12-15T13:20:39Z</time>
      </trkpt>
      <trkpt lat="44.2734" lon="6.10755">
        <ele>1880</ele>
        <time>2013-12-15T13:21:17Z</time>
      </trkpt>
      <trkpt lat="44.2734" lon="6.10755">
        <ele>1880</ele>
        <time>2013-12-15T13:21:57Z</time>
      </trkpt>
      <trkpt lat="44.2734" lon="6.10755">
        <ele>1880</ele>
        <time>2013-12-15T13:22:33Z</time>
      </trkpt>
      <trkpt lat="44.2734" lon="6.10755">
        <ele>1879.51</ele>
        <time>2013-12-15T13:23:14Z</time>
      </trkpt>
      <trkpt lat="44.2734" lon="6.10755">
        <ele>1880</ele>
        <time>2013-12-15T13:23:50Z</time>
      </trkpt>
      <trkpt lat="44.2734" lon="6.10755">
        <ele>1880.48</ele>
        <time>2013-12-15T13:24:08Z</time>
      </trkpt>
      <trkpt lat="44.2734" lon="6.10755">
        <ele>1880.96</ele>
        <time>2013-12-15T13:24:40Z</time>
      </trkpt>
      <trkpt lat="44.2734" lon="6.10755">
        <ele>1880</ele>
        <time>2013-12-15T13:25:21Z</time>
      </trkpt>
      <trkpt lat="44.2734" lon="6.10755">
        <ele>1880.48</ele>
        <time>2013-12-15T13:25:58Z</time>
      </trkpt>
      <trkpt lat="44.2734" lon="6.10756">
        <ele>1880</ele>
        <time>2013-12-15T13:26:41Z</time>
      </trkpt>
      <trkpt lat="44.2734" lon="6.10756">
        <ele>1880</ele>
        <time>2013-12-15T13:27:26Z</time>
      </trkpt>
      <trkpt lat="44.2734" lon="6.10756">
        <ele>1880</ele>
        <time>2013-12-15T13:28:14Z</time>
      </trkpt>
      <trkpt lat="44.2734" lon="6.10755">
        <ele>1880.48</ele>
        <time>2013-12-15T13:28:43Z</time>
      </trkpt>
      <trkpt lat="44.2734" lon="6.10754">
        <ele>1880.96</ele>
        <time>2013-12-15T13:28:55Z</time>
      </trkpt>
      <trkpt lat="44.27341" lon="6.10755">
        <ele>1879.03</ele>
        <time>2013-12-15T13:29:13Z</time>
      </trkpt>
      <trkpt lat="44.2734" lon="6.10755">
        <ele>1879.51</ele>
        <time>2013-12-15T13:29:36Z</time>
      </trkpt>
      <trkpt lat="44.2734" lon="6.10755">
        <ele>1879.03</ele>
        <time>2013-12-15T13:30:02Z</time>
      </trkpt>
      <trkpt lat="44.2734" lon="6.10755">
        <ele>1880.48</ele>
        <time>2013-12-15T13:30:24Z</time>
      </trkpt>
      <trkpt lat="44.2734" lon="6.10755">
        <ele>1880</ele>
        <time>2013-12-15T13:30:42Z</time>
      </trkpt>
      <trkpt lat="44.2734" lon="6.10755">
        <ele>1880.48</ele>
        <time>2013-12-15T13:31:08Z</time>
      </trkpt>
      <trkpt lat="44.2734" lon="6.10757">
        <ele>1880</ele>
        <time>2013-12-15T13:31:36Z</time>
      </trkpt>
      <trkpt lat="44.2734" lon="6.10757">
        <ele>1880.96</ele>
        <time>2013-12-15T13:31:56Z</time>
      </trkpt>
      <trkpt lat="44.2734" lon="6.10757">
        <ele>1880.48</ele>
        <time>2013-12-15T13:32:12Z</time>
      </trkpt>
      <trkpt lat="44.2734" lon="6.10757">
        <ele>1879.51</ele>
        <time>2013-12-15T13:32:26Z</time>
      </trkpt>
      <trkpt lat="44.2734" lon="6.10757">
        <ele>1878.55</ele>
        <time>2013-12-15T13:32:39Z</time>
      </trkpt>
      <trkpt lat="44.2734" lon="6.10758">
        <ele>1877.11</ele>
        <time>2013-12-15T13:32:52Z</time>
      </trkpt>
      <trkpt lat="44.2734" lon="6.10758">
        <ele>1877.11</ele>
        <time>2013-12-15T13:33:09Z</time>
      </trkpt>
      <trkpt lat="44.27343" lon="6.10757">
        <ele>1877.11</ele>
        <time>2013-12-15T13:33:42Z</time>
      </trkpt>
      <trkpt lat="44.27344" lon="6.10757">
        <ele>1877.59</ele>
        <time>2013-12-15T13:34:13Z</time>
      </trkpt>
      <trkpt lat="44.27344" lon="6.10757">
        <ele>1877.11</ele>
        <time>2013-12-15T13:34:40Z</time>
      </trkpt>
      <trkpt lat="44.27359" lon="6.10758">
        <ele>1876.15</ele>
        <time>2013-12-15T13:34:53Z</time>
      </trkpt>
      <trkpt lat="44.27362" lon="6.10759">
        <ele>1875.67</ele>
        <time>2013-12-15T13:34:55Z</time>
      </trkpt>
      <trkpt lat="44.27378" lon="6.10754">
        <ele>1876.15</ele>
        <time>2013-12-15T13:35:10Z</time>
      </trkpt>
      <trkpt lat="44.2738" lon="6.10752">
        <ele>1877.11</ele>
        <time>2013-12-15T13:35:13Z</time>
      </trkpt>
      <trkpt lat="44.27385" lon="6.10748">
        <ele>1876.15</ele>
        <time>2013-12-15T13:35:18Z</time>
      </trkpt>
      <trkpt lat="44.27395" lon="6.10736">
        <ele>1875.67</ele>
        <time>2013-12-15T13:35:34Z</time>
      </trkpt>
      <trkpt lat="44.27396" lon="6.10732">
        <ele>1876.15</ele>
        <time>2013-12-15T13:35:51Z</time>
      </trkpt>
      <trkpt lat="44.274" lon="6.10721">
        <ele>1876.15</ele>
        <time>2013-12-15T13:36:01Z</time>
      </trkpt>
      <trkpt lat="44.27402" lon="6.1071">
        <ele>1877.59</ele>
        <time>2013-12-15T13:36:10Z</time>
      </trkpt>
      <trkpt lat="44.27409" lon="6.10697">
        <ele>1877.59</ele>
        <time>2013-12-15T13:36:23Z</time>
      </trkpt>
      <trkpt lat="44.27415" lon="6.10681">
        <ele>1878.55</ele>
        <time>2013-12-15T13:36:38Z</time>
      </trkpt>
      <trkpt lat="44.27418" lon="6.10675">
        <ele>1879.03</ele>
        <time>2013-12-15T13:36:43Z</time>
      </trkpt>
      <trkpt lat="44.27424" lon="6.1066">
        <ele>1878.55</ele>
        <time>2013-12-15T13:36:57Z</time>
      </trkpt>
      <trkpt lat="44.27431" lon="6.10644">
        <ele>1879.03</ele>
        <time>2013-12-15T13:37:12Z</time>
      </trkpt>
      <trkpt lat="44.27435" lon="6.10629">
        <ele>1878.55</ele>
        <time>2013-12-15T13:37:25Z</time>
      </trkpt>
      <trkpt lat="44.27436" lon="6.10627">
        <ele>1879.03</ele>
        <time>2013-12-15T13:37:27Z</time>
      </trkpt>
      <trkpt lat="44.27438" lon="6.10608">
        <ele>1879.51</ele>
        <time>2013-12-15T13:37:43Z</time>
      </trkpt>
      <trkpt lat="44.27438" lon="6.10593">
        <ele>1880.96</ele>
        <time>2013-12-15T13:37:56Z</time>
      </trkpt>
      <trkpt lat="44.27438" lon="6.10586">
        <ele>1880.48</ele>
        <time>2013-12-15T13:38:11Z</time>
      </trkpt>
      <trkpt lat="44.27439" lon="6.10584">
        <ele>1880.96</ele>
        <time>2013-12-15T13:38:43Z</time>
      </trkpt>
      <trkpt lat="44.27449" lon="6.10582">
        <ele>1878.55</ele>
        <time>2013-12-15T13:38:57Z</time>
      </trkpt>
      <trkpt lat="44.27461" lon="6.10578">
        <ele>1875.67</ele>
        <time>2013-12-15T13:39:14Z</time>
      </trkpt>
      <trkpt lat="44.27467" lon="6.10575">
        <ele>1874.23</ele>
        <time>2013-12-15T13:39:28Z</time>
      </trkpt>
      <trkpt lat="44.27467" lon="6.10575">
        <ele>1874.71</ele>
        <time>2013-12-15T13:39:55Z</time>
      </trkpt>
      <trkpt lat="44.27467" lon="6.10575">
        <ele>1874.23</ele>
        <time>2013-12-15T13:40:22Z</time>
      </trkpt>
      <trkpt lat="44.27467" lon="6.10575">
        <ele>1875.19</ele>
        <time>2013-12-15T13:40:55Z</time>
      </trkpt>
      <trkpt lat="44.27467" lon="6.10575">
        <ele>1874.71</ele>
        <time>2013-12-15T13:41:30Z</time>
      </trkpt>
      <trkpt lat="44.27467" lon="6.10574">
        <ele>1874.71</ele>
        <time>2013-12-15T13:42:06Z</time>
      </trkpt>
      <trkpt lat="44.27467" lon="6.10574">
        <ele>1874.23</ele>
        <time>2013-12-15T13:42:35Z</time>
      </trkpt>
      <trkpt lat="44.27467" lon="6.10574">
        <ele>1875.19</ele>
        <time>2013-12-15T13:43:03Z</time>
      </trkpt>
      <trkpt lat="44.27467" lon="6.10574">
        <ele>1874.71</ele>
        <time>2013-12-15T13:43:29Z</time>
      </trkpt>
      <trkpt lat="44.27467" lon="6.10575">
        <ele>1874.71</ele>
        <time>2013-12-15T13:43:46Z</time>
      </trkpt>
      <trkpt lat="44.2748" lon="6.10569">
        <ele>1872.3</ele>
        <time>2013-12-15T13:44:02Z</time>
      </trkpt>
      <trkpt lat="44.27485" lon="6.10567">
        <ele>1871.82</ele>
        <time>2013-12-15T13:44:08Z</time>
      </trkpt>
      <trkpt lat="44.27492" lon="6.1056">
        <ele>1868.94</ele>
        <time>2013-12-15T13:44:21Z</time>
      </trkpt>
      <trkpt lat="44.27493" lon="6.10559">
        <ele>1868.94</ele>
        <time>2013-12-15T13:44:22Z</time>
      </trkpt>
      <trkpt lat="44.27501" lon="6.10554">
        <ele>1867.5</ele>
        <time>2013-12-15T13:44:35Z</time>
      </trkpt>
      <trkpt lat="44.27512" lon="6.10548">
        <ele>1865.58</ele>
        <time>2013-12-15T13:44:49Z</time>
      </trkpt>
      <trkpt lat="44.27515" lon="6.10546">
        <ele>1865.58</ele>
        <time>2013-12-15T13:44:53Z</time>
      </trkpt>
      <trkpt lat="44.27527" lon="6.10536">
        <ele>1864.61</ele>
        <time>2013-12-15T13:45:07Z</time>
      </trkpt>
      <trkpt lat="44.2754" lon="6.10527">
        <ele>1862.69</ele>
        <time>2013-12-15T13:45:24Z</time>
      </trkpt>
      <trkpt lat="44.27552" lon="6.10517">
        <ele>1862.21</ele>
        <time>2013-12-15T13:45:39Z</time>
      </trkpt>
      <trkpt lat="44.27565" lon="6.10503">
        <ele>1859.81</ele>
        <time>2013-12-15T13:45:56Z</time>
      </trkpt>
      <trkpt lat="44.27577" lon="6.10493">
        <ele>1859.33</ele>
        <time>2013-12-15T13:46:12Z</time>
      </trkpt>
      <trkpt lat="44.2759" lon="6.10494">
        <ele>1858.37</ele>
        <time>2013-12-15T13:46:28Z</time>
      </trkpt>
      <trkpt lat="44.27602" lon="6.10493">
        <ele>1857.4</ele>
        <time>2013-12-15T13:46:44Z</time>
      </trkpt>
      <trkpt lat="44.27607" lon="6.10494">
        <ele>1855.48</ele>
        <time>2013-12-15T13:47:01Z</time>
      </trkpt>
      <trkpt lat="44.27614" lon="6.10495">
        <ele>1852.6</ele>
        <time>2013-12-15T13:47:14Z</time>
      </trkpt>
      <trkpt lat="44.27622" lon="6.10497">
        <ele>1850.68</ele>
        <time>2013-12-15T13:47:28Z</time>
      </trkpt>
      <trkpt lat="44.27628" lon="6.10496">
        <ele>1847.79</ele>
        <time>2013-12-15T13:47:41Z</time>
      </trkpt>
      <trkpt lat="44.27634" lon="6.10489">
        <ele>1845.87</ele>
        <time>2013-12-15T13:47:55Z</time>
      </trkpt>
      <trkpt lat="44.27639" lon="6.10488">
        <ele>1843.47</ele>
        <time>2013-12-15T13:48:04Z</time>
      </trkpt>
      <trkpt lat="44.27643" lon="6.10484">
        <ele>1841.54</ele>
        <time>2013-12-15T13:48:17Z</time>
      </trkpt>
      <trkpt lat="44.2765" lon="6.10481">
        <ele>1838.18</ele>
        <time>2013-12-15T13:48:30Z</time>
      </trkpt>
      <trkpt lat="44.27658" lon="6.10481">
        <ele>1836.26</ele>
        <time>2013-12-15T13:48:44Z</time>
      </trkpt>
      <trkpt lat="44.27662" lon="6.10474">
        <ele>1832.89</ele>
        <time>2013-12-15T13:48:57Z</time>
      </trkpt>
      <trkpt lat="44.27669" lon="6.10475">
        <ele>1830.01</ele>
        <time>2013-12-15T13:49:10Z</time>
      </trkpt>
      <trkpt lat="44.27675" lon="6.10473">
        <ele>1827.12</ele>
        <time>2013-12-15T13:49:23Z</time>
      </trkpt>
      <trkpt lat="44.27681" lon="6.1047">
        <ele>1825.2</ele>
        <time>2013-12-15T13:49:38Z</time>
      </trkpt>
      <trkpt lat="44.27686" lon="6.10463">
        <ele>1824.24</ele>
        <time>2013-12-15T13:49:47Z</time>
      </trkpt>
      <trkpt lat="44.27694" lon="6.10447">
        <ele>1823.28</ele>
        <time>2013-12-15T13:50:04Z</time>
      </trkpt>
      <trkpt lat="44.27697" lon="6.1044">
        <ele>1823.28</ele>
        <time>2013-12-15T13:50:10Z</time>
      </trkpt>
      <trkpt lat="44.27698" lon="6.10437">
        <ele>1822.8</ele>
        <time>2013-12-15T13:50:13Z</time>
      </trkpt>
      <trkpt lat="44.27705" lon="6.10426">
        <ele>1822.32</ele>
        <time>2013-12-15T13:50:27Z</time>
      </trkpt>
      <trkpt lat="44.27708" lon="6.1041">
        <ele>1821.35</ele>
        <time>2013-12-15T13:50:41Z</time>
      </trkpt>
      <trkpt lat="44.27713" lon="6.10397">
        <ele>1819.91</ele>
        <time>2013-12-15T13:50:55Z</time>
      </trkpt>
      <trkpt lat="44.27716" lon="6.10384">
        <ele>1819.43</ele>
        <time>2013-12-15T13:51:08Z</time>
      </trkpt>
      <trkpt lat="44.27718" lon="6.10371">
        <ele>1818.95</ele>
        <time>2013-12-15T13:51:20Z</time>
      </trkpt>
      <trkpt lat="44.27724" lon="6.1036">
        <ele>1817.51</ele>
        <time>2013-12-15T13:51:33Z</time>
      </trkpt>
      <trkpt lat="44.27728" lon="6.10349">
        <ele>1815.11</ele>
        <time>2013-12-15T13:51:46Z</time>
      </trkpt>
      <trkpt lat="44.27729" lon="6.10342">
        <ele>1815.11</ele>
        <time>2013-12-15T13:51:59Z</time>
      </trkpt>
      <trkpt lat="44.27733" lon="6.10336">
        <ele>1814.15</ele>
        <time>2013-12-15T13:52:08Z</time>
      </trkpt>
      <trkpt lat="44.27738" lon="6.10318">
        <ele>1812.7</ele>
        <time>2013-12-15T13:52:23Z</time>
      </trkpt>
      <trkpt lat="44.27739" lon="6.10313">
        <ele>1813.18</ele>
        <time>2013-12-15T13:52:28Z</time>
      </trkpt>
      <trkpt lat="44.27741" lon="6.10304">
        <ele>1812.7</ele>
        <time>2013-12-15T13:52:36Z</time>
      </trkpt>
      <trkpt lat="44.27743" lon="6.10298">
        <ele>1813.18</ele>
        <time>2013-12-15T13:52:43Z</time>
      </trkpt>
      <trkpt lat="44.27749" lon="6.10286">
        <ele>1811.74</ele>
        <time>2013-12-15T13:52:57Z</time>
      </trkpt>
      <trkpt lat="44.27757" lon="6.10276">
        <ele>1810.3</ele>
        <time>2013-12-15T13:53:11Z</time>
      </trkpt>
      <trkpt lat="44.27763" lon="6.10264">
        <ele>1807.9</ele>
        <time>2013-12-15T13:53:25Z</time>
      </trkpt>
      <trkpt lat="44.27771" lon="6.10254">
        <ele>1805.49</ele>
        <time>2013-12-15T13:53:39Z</time>
      </trkpt>
      <trkpt lat="44.27776" lon="6.10247">
        <ele>1803.57</ele>
        <time>2013-12-15T13:53:49Z</time>
      </trkpt>
      <trkpt lat="44.27782" lon="6.10236">
        <ele>1802.13</ele>
        <time>2013-12-15T13:54:03Z</time>
      </trkpt>
      <trkpt lat="44.2779" lon="6.10223">
        <ele>1800.21</ele>
        <time>2013-12-15T13:54:17Z</time>
      </trkpt>
      <trkpt lat="44.27792" lon="6.1022">
        <ele>1799.24</ele>
        <time>2013-12-15T13:54:20Z</time>
      </trkpt>
      <trkpt lat="44.27795" lon="6.10211">
        <ele>1798.28</ele>
        <time>2013-12-15T13:54:29Z</time>
      </trkpt>
      <trkpt lat="44.27802" lon="6.102">
        <ele>1797.32</ele>
        <time>2013-12-15T13:54:43Z</time>
      </trkpt>
      <trkpt lat="44.27808" lon="6.1019">
        <ele>1796.36</ele>
        <time>2013-12-15T13:54:54Z</time>
      </trkpt>
      <trkpt lat="44.27812" lon="6.10176">
        <ele>1795.4</ele>
        <time>2013-12-15T13:55:07Z</time>
      </trkpt>
      <trkpt lat="44.27813" lon="6.10174">
        <ele>1795.88</ele>
        <time>2013-12-15T13:55:09Z</time>
      </trkpt>
      <trkpt lat="44.27816" lon="6.10169">
        <ele>1794.92</ele>
        <time>2013-12-15T13:55:14Z</time>
      </trkpt>
      <trkpt lat="44.27824" lon="6.10152">
        <ele>1793.48</ele>
        <time>2013-12-15T13:55:31Z</time>
      </trkpt>
      <trkpt lat="44.27828" lon="6.10139">
        <ele>1792.52</ele>
        <time>2013-12-15T13:55:44Z</time>
      </trkpt>
      <trkpt lat="44.27835" lon="6.10126">
        <ele>1791.55</ele>
        <time>2013-12-15T13:55:59Z</time>
      </trkpt>
      <trkpt lat="44.27839" lon="6.10123">
        <ele>1790.11</ele>
        <time>2013-12-15T13:56:09Z</time>
      </trkpt>
      <trkpt lat="44.27843" lon="6.10118">
        <ele>1789.15</ele>
        <time>2013-12-15T13:56:15Z</time>
      </trkpt>
      <trkpt lat="44.2785" lon="6.10107">
        <ele>1788.19</ele>
        <time>2013-12-15T13:56:29Z</time>
      </trkpt>
      <trkpt lat="44.27858" lon="6.10096">
        <ele>1787.23</ele>
        <time>2013-12-15T13:56:41Z</time>
      </trkpt>
      <trkpt lat="44.27865" lon="6.10092">
        <ele>1786.27</ele>
        <time>2013-12-15T13:56:48Z</time>
      </trkpt>
      <trkpt lat="44.27866" lon="6.10089">
        <ele>1785.79</ele>
        <time>2013-12-15T13:57:04Z</time>
      </trkpt>
      <trkpt lat="44.27871" lon="6.10085">
        <ele>1786.27</ele>
        <time>2013-12-15T13:57:26Z</time>
      </trkpt>
      <trkpt lat="44.27879" lon="6.10072">
        <ele>1785.79</ele>
        <time>2013-12-15T13:57:39Z</time>
      </trkpt>
      <trkpt lat="44.27888" lon="6.10063">
        <ele>1785.31</ele>
        <time>2013-12-15T13:57:52Z</time>
      </trkpt>
      <trkpt lat="44.27893" lon="6.10057">
        <ele>1784.34</ele>
        <time>2013-12-15T13:58:01Z</time>
      </trkpt>
      <trkpt lat="44.27898" lon="6.10053">
        <ele>1783.86</ele>
        <time>2013-12-15T13:58:08Z</time>
      </trkpt>
      <trkpt lat="44.27901" lon="6.10051">
        <ele>1783.38</ele>
        <time>2013-12-15T13:58:13Z</time>
      </trkpt>
      <trkpt lat="44.27903" lon="6.10045">
        <ele>1781.46</ele>
        <time>2013-12-15T13:58:17Z</time>
      </trkpt>
      <trkpt lat="44.27914" lon="6.10034">
        <ele>1780.5</ele>
        <time>2013-12-15T13:58:32Z</time>
      </trkpt>
      <trkpt lat="44.27922" lon="6.10029">
        <ele>1778.58</ele>
        <time>2013-12-15T13:58:47Z</time>
      </trkpt>
      <trkpt lat="44.27925" lon="6.10027">
        <ele>1777.61</ele>
        <time>2013-12-15T13:58:50Z</time>
      </trkpt>
      <trkpt lat="44.27932" lon="6.10018">
        <ele>1775.21</ele>
        <time>2013-12-15T13:59:03Z</time>
      </trkpt>
      <trkpt lat="44.2794" lon="6.10005">
        <ele>1774.73</ele>
        <time>2013-12-15T13:59:17Z</time>
      </trkpt>
      <trkpt lat="44.27942" lon="6.09996">
        <ele>1775.21</ele>
        <time>2013-12-15T13:59:24Z</time>
      </trkpt>
      <trkpt lat="44.27952" lon="6.09981">
        <ele>1772.33</ele>
        <time>2013-12-15T13:59:40Z</time>
      </trkpt>
      <trkpt lat="44.27955" lon="6.0998">
        <ele>1771.85</ele>
        <time>2013-12-15T13:59:45Z</time>
      </trkpt>
      <trkpt lat="44.27959" lon="6.09979">
        <ele>1770.41</ele>
        <time>2013-12-15T13:59:50Z</time>
      </trkpt>
      <trkpt lat="44.27962" lon="6.09977">
        <ele>1769.92</ele>
        <time>2013-12-15T13:59:53Z</time>
      </trkpt>
      <trkpt lat="44.27974" lon="6.0997">
        <ele>1768</ele>
        <time>2013-12-15T14:00:08Z</time>
      </trkpt>
      <trkpt lat="44.27985" lon="6.09958">
        <ele>1766.56</ele>
        <time>2013-12-15T14:00:24Z</time>
      </trkpt>
      <trkpt lat="44.27987" lon="6.09957">
        <ele>1766.56</ele>
        <time>2013-12-15T14:00:26Z</time>
      </trkpt>
      <trkpt lat="44.27989" lon="6.09947">
        <ele>1765.6</ele>
        <time>2013-12-15T14:00:35Z</time>
      </trkpt>
      <trkpt lat="44.27992" lon="6.09934">
        <ele>1765.12</ele>
        <time>2013-12-15T14:00:48Z</time>
      </trkpt>
      <trkpt lat="44.27993" lon="6.09928">
        <ele>1764.64</ele>
        <time>2013-12-15T14:00:52Z</time>
      </trkpt>
      <trkpt lat="44.27998" lon="6.09913">
        <ele>1762.71</ele>
        <time>2013-12-15T14:01:06Z</time>
      </trkpt>
      <trkpt lat="44.28005" lon="6.09901">
        <ele>1760.31</ele>
        <time>2013-12-15T14:01:23Z</time>
      </trkpt>
      <trkpt lat="44.28011" lon="6.09888">
        <ele>1759.35</ele>
        <time>2013-12-15T14:01:37Z</time>
      </trkpt>
      <trkpt lat="44.28015" lon="6.09877">
        <ele>1759.35</ele>
        <time>2013-12-15T14:01:50Z</time>
      </trkpt>
      <trkpt lat="44.28021" lon="6.09872">
        <ele>1758.39</ele>
        <time>2013-12-15T14:02:01Z</time>
      </trkpt>
      <trkpt lat="44.28027" lon="6.0986">
        <ele>1756.95</ele>
        <time>2013-12-15T14:02:14Z</time>
      </trkpt>
      <trkpt lat="44.28034" lon="6.0985">
        <ele>1755.5</ele>
        <time>2013-12-15T14:02:28Z</time>
      </trkpt>
      <trkpt lat="44.28041" lon="6.09836">
        <ele>1753.1</ele>
        <time>2013-12-15T14:02:43Z</time>
      </trkpt>
      <trkpt lat="44.28049" lon="6.09826">
        <ele>1751.66</ele>
        <time>2013-12-15T14:02:56Z</time>
      </trkpt>
      <trkpt lat="44.28054" lon="6.09814">
        <ele>1750.7</ele>
        <time>2013-12-15T14:03:09Z</time>
      </trkpt>
      <trkpt lat="44.28062" lon="6.09799">
        <ele>1748.29</ele>
        <time>2013-12-15T14:03:25Z</time>
      </trkpt>
      <trkpt lat="44.28062" lon="6.09798">
        <ele>1748.78</ele>
        <time>2013-12-15T14:03:26Z</time>
      </trkpt>
      <trkpt lat="44.28067" lon="6.09792">
        <ele>1747.33</ele>
        <time>2013-12-15T14:03:33Z</time>
      </trkpt>
      <trkpt lat="44.28074" lon="6.09775">
        <ele>1746.37</ele>
        <time>2013-12-15T14:03:49Z</time>
      </trkpt>
      <trkpt lat="44.28082" lon="6.09764">
        <ele>1744.93</ele>
        <time>2013-12-15T14:04:03Z</time>
      </trkpt>
      <trkpt lat="44.28089" lon="6.09754">
        <ele>1743.01</ele>
        <time>2013-12-15T14:04:18Z</time>
      </trkpt>
      <trkpt lat="44.28097" lon="6.09741">
        <ele>1740.6</ele>
        <time>2013-12-15T14:04:33Z</time>
      </trkpt>
      <trkpt lat="44.28102" lon="6.09734">
        <ele>1740.6</ele>
        <time>2013-12-15T14:04:41Z</time>
      </trkpt>
      <trkpt lat="44.28104" lon="6.09725">
        <ele>1739.16</ele>
        <time>2013-12-15T14:04:48Z</time>
      </trkpt>
      <trkpt lat="44.28116" lon="6.0971">
        <ele>1736.76</ele>
        <time>2013-12-15T14:05:05Z</time>
      </trkpt>
      <trkpt lat="44.28116" lon="6.09708">
        <ele>1736.76</ele>
        <time>2013-12-15T14:05:07Z</time>
      </trkpt>
      <trkpt lat="44.2812" lon="6.09701">
        <ele>1736.28</ele>
        <time>2013-12-15T14:05:14Z</time>
      </trkpt>
      <trkpt lat="44.28123" lon="6.09694">
        <ele>1735.32</ele>
        <time>2013-12-15T14:05:21Z</time>
      </trkpt>
      <trkpt lat="44.28132" lon="6.09678">
        <ele>1733.88</ele>
        <time>2013-12-15T14:05:37Z</time>
      </trkpt>
      <trkpt lat="44.28139" lon="6.09665">
        <ele>1732.43</ele>
        <time>2013-12-15T14:05:50Z</time>
      </trkpt>
      <trkpt lat="44.28148" lon="6.09651">
        <ele>1731.47</ele>
        <time>2013-12-15T14:06:05Z</time>
      </trkpt>
      <trkpt lat="44.28159" lon="6.09636">
        <ele>1729.55</ele>
        <time>2013-12-15T14:06:20Z</time>
      </trkpt>
      <trkpt lat="44.28162" lon="6.09633">
        <ele>1730.03</ele>
        <time>2013-12-15T14:06:23Z</time>
      </trkpt>
      <trkpt lat="44.28165" lon="6.0962">
        <ele>1730.03</ele>
        <time>2013-12-15T14:06:37Z</time>
      </trkpt>
      <trkpt lat="44.28164" lon="6.09619">
        <ele>1729.55</ele>
        <time>2013-12-15T14:06:53Z</time>
      </trkpt>
      <trkpt lat="44.28164" lon="6.09619">
        <ele>1730.03</ele>
        <time>2013-12-15T14:07:23Z</time>
      </trkpt>
      <trkpt lat="44.28164" lon="6.09619">
        <ele>1729.55</ele>
        <time>2013-12-15T14:07:44Z</time>
      </trkpt>
      <trkpt lat="44.28164" lon="6.09619">
        <ele>1728.59</ele>
        <time>2013-12-15T14:08:06Z</time>
      </trkpt>
      <trkpt lat="44.2816" lon="6.09619">
        <ele>1728.11</ele>
        <time>2013-12-15T14:08:31Z</time>
      </trkpt>
      <trkpt lat="44.28159" lon="6.09617">
        <ele>1728.59</ele>
        <time>2013-12-15T14:08:47Z</time>
      </trkpt>
      <trkpt lat="44.28159" lon="6.09617">
        <ele>1727.63</ele>
        <time>2013-12-15T14:09:03Z</time>
      </trkpt>
      <trkpt lat="44.28159" lon="6.09618">
        <ele>1728.11</ele>
        <time>2013-12-15T14:09:21Z</time>
      </trkpt>
      <trkpt lat="44.28159" lon="6.09617">
        <ele>1727.63</ele>
        <time>2013-12-15T14:09:36Z</time>
      </trkpt>
      <trkpt lat="44.28159" lon="6.09617">
        <ele>1727.15</ele>
        <time>2013-12-15T14:10:00Z</time>
      </trkpt>
      <trkpt lat="44.28155" lon="6.09622">
        <ele>1726.67</ele>
        <time>2013-12-15T14:10:14Z</time>
      </trkpt>
      <trkpt lat="44.28148" lon="6.09629">
        <ele>1724.26</ele>
        <time>2013-12-15T14:10:28Z</time>
      </trkpt>
      <trkpt lat="44.28144" lon="6.09633">
        <ele>1721.86</ele>
        <time>2013-12-15T14:10:42Z</time>
      </trkpt>
      <trkpt lat="44.28142" lon="6.09636">
        <ele>1721.86</ele>
        <time>2013-12-15T14:10:50Z</time>
      </trkpt>
      <trkpt lat="44.28134" lon="6.09635">
        <ele>1719.46</ele>
        <time>2013-12-15T14:11:00Z</time>
      </trkpt>
      <trkpt lat="44.28125" lon="6.09639">
        <ele>1717.05</ele>
        <time>2013-12-15T14:11:15Z</time>
      </trkpt>
      <trkpt lat="44.28115" lon="6.09641">
        <ele>1715.13</ele>
        <time>2013-12-15T14:11:30Z</time>
      </trkpt>
      <trkpt lat="44.28105" lon="6.09639">
        <ele>1712.73</ele>
        <time>2013-12-15T14:11:45Z</time>
      </trkpt>
      <trkpt lat="44.28101" lon="6.09641">
        <ele>1711.28</ele>
        <time>2013-12-15T14:11:54Z</time>
      </trkpt>
      <trkpt lat="44.28098" lon="6.09642">
        <ele>1711.28</ele>
        <time>2013-12-15T14:11:57Z</time>
      </trkpt>
      <trkpt lat="44.28092" lon="6.09645">
        <ele>1709.84</ele>
        <time>2013-12-15T14:12:04Z</time>
      </trkpt>
      <trkpt lat="44.28083" lon="6.0965">
        <ele>1707.44</ele>
        <time>2013-12-15T14:12:20Z</time>
      </trkpt>
      <trkpt lat="44.2808" lon="6.09643">
        <ele>1706</ele>
        <time>2013-12-15T14:12:28Z</time>
      </trkpt>
      <trkpt lat="44.28081" lon="6.09638">
        <ele>1706</ele>
        <time>2013-12-15T14:12:31Z</time>
      </trkpt>
      <trkpt lat="44.28084" lon="6.09616">
        <ele>1704.07</ele>
        <time>2013-12-15T14:12:47Z</time>
      </trkpt>
      <trkpt lat="44.28088" lon="6.09598">
        <ele>1703.11</ele>
        <time>2013-12-15T14:13:01Z</time>
      </trkpt>
      <trkpt lat="44.28093" lon="6.09583">
        <ele>1702.15</ele>
        <time>2013-12-15T14:13:14Z</time>
      </trkpt>
      <trkpt lat="44.28101" lon="6.09567">
        <ele>1701.19</ele>
        <time>2013-12-15T14:13:29Z</time>
      </trkpt>
      <trkpt lat="44.2811" lon="6.09554">
        <ele>1700.23</ele>
        <time>2013-12-15T14:13:44Z</time>
      </trkpt>
      <trkpt lat="44.28113" lon="6.09551">
        <ele>1700.23</ele>
        <time>2013-12-15T14:13:48Z</time>
      </trkpt>
      <trkpt lat="44.28123" lon="6.09542">
        <ele>1698.79</ele>
        <time>2013-12-15T14:14:02Z</time>
      </trkpt>
      <trkpt lat="44.2813" lon="6.09528">
        <ele>1697.34</ele>
        <time>2013-12-15T14:14:16Z</time>
      </trkpt>
      <trkpt lat="44.28136" lon="6.09518">
        <ele>1693.98</ele>
        <time>2013-12-15T14:14:28Z</time>
      </trkpt>
      <trkpt lat="44.28146" lon="6.09505">
        <ele>1692.54</ele>
        <time>2013-12-15T14:14:42Z</time>
      </trkpt>
      <trkpt lat="44.28148" lon="6.09504">
        <ele>1692.54</ele>
        <time>2013-12-15T14:14:45Z</time>
      </trkpt>
      <trkpt lat="44.28155" lon="6.09491">
        <ele>1690.14</ele>
        <time>2013-12-15T14:15:00Z</time>
      </trkpt>
      <trkpt lat="44.28162" lon="6.09472">
        <ele>1686.77</ele>
        <time>2013-12-15T14:15:17Z</time>
      </trkpt>
      <trkpt lat="44.2817" lon="6.09457">
        <ele>1684.37</ele>
        <time>2013-12-15T14:15:32Z</time>
      </trkpt>
      <trkpt lat="44.28173" lon="6.09453">
        <ele>1683.89</ele>
        <time>2013-12-15T14:15:37Z</time>
      </trkpt>
      <trkpt lat="44.28182" lon="6.09441">
        <ele>1681</ele>
        <time>2013-12-15T14:15:52Z</time>
      </trkpt>
      <trkpt lat="44.28194" lon="6.09426">
        <ele>1680.52</ele>
        <time>2013-12-15T14:16:08Z</time>
      </trkpt>
      <trkpt lat="44.28201" lon="6.09418">
        <ele>1681</ele>
        <time>2013-12-15T14:16:18Z</time>
      </trkpt>
      <trkpt lat="44.28202" lon="6.09416">
        <ele>1681.48</ele>
        <time>2013-12-15T14:16:20Z</time>
      </trkpt>
      <trkpt lat="44.28212" lon="6.09406">
        <ele>1682.44</ele>
        <time>2013-12-15T14:16:34Z</time>
      </trkpt>
      <trkpt lat="44.28223" lon="6.09396">
        <ele>1682.93</ele>
        <time>2013-12-15T14:16:49Z</time>
      </trkpt>
      <trkpt lat="44.28234" lon="6.09386">
        <ele>1683.89</ele>
        <time>2013-12-15T14:17:04Z</time>
      </trkpt>
      <trkpt lat="44.28243" lon="6.09377">
        <ele>1683.41</ele>
        <time>2013-12-15T14:17:18Z</time>
      </trkpt>
      <trkpt lat="44.28249" lon="6.0937">
        <ele>1681</ele>
        <time>2013-12-15T14:17:32Z</time>
      </trkpt>
      <trkpt lat="44.28252" lon="6.09367">
        <ele>1681</ele>
        <time>2013-12-15T14:17:45Z</time>
      </trkpt>
      <trkpt lat="44.28257" lon="6.09359">
        <ele>1680.04</ele>
        <time>2013-12-15T14:18:01Z</time>
      </trkpt>
      <trkpt lat="44.28259" lon="6.09355">
        <ele>1677.64</ele>
        <time>2013-12-15T14:18:13Z</time>
      </trkpt>
      <trkpt lat="44.28251" lon="6.09358">
        <ele>1674.75</ele>
        <time>2013-12-15T14:18:28Z</time>
      </trkpt>
      <trkpt lat="44.28247" lon="6.09354">
        <ele>1672.35</ele>
        <time>2013-12-15T14:18:43Z</time>
      </trkpt>
      <trkpt lat="44.28241" lon="6.09349">
        <ele>1669.47</ele>
        <time>2013-12-15T14:19:01Z</time>
      </trkpt>
      <trkpt lat="44.28243" lon="6.09339">
        <ele>1668.02</ele>
        <time>2013-12-15T14:19:13Z</time>
      </trkpt>
      <trkpt lat="44.28244" lon="6.09329">
        <ele>1664.66</ele>
        <time>2013-12-15T14:19:28Z</time>
      </trkpt>
      <trkpt lat="44.28245" lon="6.09318">
        <ele>1662.26</ele>
        <time>2013-12-15T14:19:41Z</time>
      </trkpt>
      <trkpt lat="44.28243" lon="6.09307">
        <ele>1659.85</ele>
        <time>2013-12-15T14:19:54Z</time>
      </trkpt>
      <trkpt lat="44.28239" lon="6.093">
        <ele>1657.93</ele>
        <time>2013-12-15T14:20:07Z</time>
      </trkpt>
      <trkpt lat="44.28233" lon="6.09289">
        <ele>1656.49</ele>
        <time>2013-12-15T14:20:21Z</time>
      </trkpt>
      <trkpt lat="44.2823" lon="6.09283">
        <ele>1655.05</ele>
        <time>2013-12-15T14:20:27Z</time>
      </trkpt>
      <trkpt lat="44.28225" lon="6.09283">
        <ele>1652.16</ele>
        <time>2013-12-15T14:20:41Z</time>
      </trkpt>
      <trkpt lat="44.2822" lon="6.09274">
        <ele>1650.72</ele>
        <time>2013-12-15T14:20:55Z</time>
      </trkpt>
      <trkpt lat="44.2822" lon="6.09267">
        <ele>1648.8</ele>
        <time>2013-12-15T14:21:07Z</time>
      </trkpt>
      <trkpt lat="44.28214" lon="6.09269">
        <ele>1647.36</ele>
        <time>2013-12-15T14:21:20Z</time>
      </trkpt>
      <trkpt lat="44.28206" lon="6.0926">
        <ele>1644.95</ele>
        <time>2013-12-15T14:21:35Z</time>
      </trkpt>
      <trkpt lat="44.28198" lon="6.09253">
        <ele>1642.55</ele>
        <time>2013-12-15T14:21:48Z</time>
      </trkpt>
      <trkpt lat="44.28192" lon="6.09247">
        <ele>1640.63</ele>
        <time>2013-12-15T14:22:04Z</time>
      </trkpt>
      <trkpt lat="44.28192" lon="6.09247">
        <ele>1640.15</ele>
        <time>2013-12-15T14:22:25Z</time>
      </trkpt>
      <trkpt lat="44.28193" lon="6.09247">
        <ele>1640.63</ele>
        <time>2013-12-15T14:22:49Z</time>
      </trkpt>
      <trkpt lat="44.28192" lon="6.09246">
        <ele>1640.15</ele>
        <time>2013-12-15T14:23:28Z</time>
      </trkpt>
      <trkpt lat="44.28192" lon="6.09246">
        <ele>1640.15</ele>
        <time>2013-12-15T14:23:53Z</time>
      </trkpt>
      <trkpt lat="44.28192" lon="6.09246">
        <ele>1640.63</ele>
        <time>2013-12-15T14:24:28Z</time>
      </trkpt>
      <trkpt lat="44.28193" lon="6.09246">
        <ele>1640.15</ele>
        <time>2013-12-15T14:24:57Z</time>
      </trkpt>
      <trkpt lat="44.28192" lon="6.09246">
        <ele>1639.67</ele>
        <time>2013-12-15T14:25:25Z</time>
      </trkpt>
      <trkpt lat="44.28192" lon="6.09246">
        <ele>1640.15</ele>
        <time>2013-12-15T14:25:50Z</time>
      </trkpt>
      <trkpt lat="44.28192" lon="6.09246">
        <ele>1640.15</ele>
        <time>2013-12-15T14:26:13Z</time>
      </trkpt>
      <trkpt lat="44.28193" lon="6.09246">
        <ele>1639.67</ele>
        <time>2013-12-15T14:26:41Z</time>
      </trkpt>
      <trkpt lat="44.28193" lon="6.09246">
        <ele>1640.15</ele>
        <time>2013-12-15T14:27:11Z</time>
      </trkpt>
      <trkpt lat="44.28193" lon="6.09246">
        <ele>1640.15</ele>
        <time>2013-12-15T14:27:40Z</time>
      </trkpt>
      <trkpt lat="44.28188" lon="6.09248">
        <ele>1638.22</ele>
        <time>2013-12-15T14:27:56Z</time>
      </trkpt>
      <trkpt lat="44.28188" lon="6.09248">
        <ele>1636.78</ele>
        <time>2013-12-15T14:28:09Z</time>
      </trkpt>
      <trkpt lat="44.28188" lon="6.09248">
        <ele>1634.86</ele>
        <time>2013-12-15T14:28:22Z</time>
      </trkpt>
      <trkpt lat="44.28188" lon="6.09247">
        <ele>1631.98</ele>
        <time>2013-12-15T14:28:36Z</time>
      </trkpt>
      <trkpt lat="44.28182" lon="6.09236">
        <ele>1630.05</ele>
        <time>2013-12-15T14:28:44Z</time>
      </trkpt>
      <trkpt lat="44.28182" lon="6.09234">
        <ele>1630.53</ele>
        <time>2013-12-15T14:28:45Z</time>
      </trkpt>
      <trkpt lat="44.2818" lon="6.09229">
        <ele>1629.09</ele>
        <time>2013-12-15T14:28:50Z</time>
      </trkpt>
      <trkpt lat="44.28175" lon="6.0923">
        <ele>1627.17</ele>
        <time>2013-12-15T14:29:02Z</time>
      </trkpt>
      <trkpt lat="44.28167" lon="6.09232">
        <ele>1624.77</ele>
        <time>2013-12-15T14:29:15Z</time>
      </trkpt>
      <trkpt lat="44.28164" lon="6.09232">
        <ele>1624.28</ele>
        <time>2013-12-15T14:29:18Z</time>
      </trkpt>
      <trkpt lat="44.28157" lon="6.09233">
        <ele>1622.84</ele>
        <time>2013-12-15T14:29:28Z</time>
      </trkpt>
      <trkpt lat="44.28151" lon="6.09233">
        <ele>1621.4</ele>
        <time>2013-12-15T14:29:39Z</time>
      </trkpt>
      <trkpt lat="44.2814" lon="6.09229">
        <ele>1618.52</ele>
        <time>2013-12-15T14:29:50Z</time>
      </trkpt>
      <trkpt lat="44.28135" lon="6.09222">
        <ele>1618.52</ele>
        <time>2013-12-15T14:30:06Z</time>
      </trkpt>
      <trkpt lat="44.28133" lon="6.09217">
        <ele>1617.07</ele>
        <time>2013-12-15T14:30:11Z</time>
      </trkpt>
      <trkpt lat="44.28126" lon="6.09207">
        <ele>1616.59</ele>
        <time>2013-12-15T14:30:25Z</time>
      </trkpt>
      <trkpt lat="44.28118" lon="6.09202">
        <ele>1615.15</ele>
        <time>2013-12-15T14:30:40Z</time>
      </trkpt>
      <trkpt lat="44.28113" lon="6.09195">
        <ele>1613.71</ele>
        <time>2013-12-15T14:30:53Z</time>
      </trkpt>
      <trkpt lat="44.2811" lon="6.09193">
        <ele>1612.27</ele>
        <time>2013-12-15T14:30:57Z</time>
      </trkpt>
      <trkpt lat="44.28104" lon="6.09185">
        <ele>1609.86</ele>
        <time>2013-12-15T14:31:13Z</time>
      </trkpt>
      <trkpt lat="44.281" lon="6.09182">
        <ele>1608.9</ele>
        <time>2013-12-15T14:31:28Z</time>
      </trkpt>
      <trkpt lat="44.281" lon="6.09182">
        <ele>1609.38</ele>
        <time>2013-12-15T14:31:53Z</time>
      </trkpt>
      <trkpt lat="44.28096" lon="6.09179">
        <ele>1608.9</ele>
        <time>2013-12-15T14:32:07Z</time>
      </trkpt>
      <trkpt lat="44.28096" lon="6.09179">
        <ele>1608.42</ele>
        <time>2013-12-15T14:32:24Z</time>
      </trkpt>
      <trkpt lat="44.28094" lon="6.09176">
        <ele>1606.98</ele>
        <time>2013-12-15T14:32:47Z</time>
      </trkpt>
      <trkpt lat="44.28092" lon="6.09175">
        <ele>1606.98</ele>
        <time>2013-12-15T14:33:04Z</time>
      </trkpt>
      <trkpt lat="44.28086" lon="6.09169">
        <ele>1606.02</ele>
        <time>2013-12-15T14:33:14Z</time>
      </trkpt>
      <trkpt lat="44.28076" lon="6.09164">
        <ele>1604.58</ele>
        <time>2013-12-15T14:33:27Z</time>
      </trkpt>
      <trkpt lat="44.28069" lon="6.09158">
        <ele>1604.1</ele>
        <time>2013-12-15T14:33:42Z</time>
      </trkpt>
      <trkpt lat="44.28065" lon="6.09155">
        <ele>1603.14</ele>
        <time>2013-12-15T14:33:54Z</time>
      </trkpt>
      <trkpt lat="44.28057" lon="6.09151">
        <ele>1603.62</ele>
        <time>2013-12-15T14:34:08Z</time>
      </trkpt>
      <trkpt lat="44.28047" lon="6.0915">
        <ele>1603.14</ele>
        <time>2013-12-15T14:34:22Z</time>
      </trkpt>
      <trkpt lat="44.28038" lon="6.09152">
        <ele>1602.66</ele>
        <time>2013-12-15T14:34:35Z</time>
      </trkpt>
      <trkpt lat="44.28035" lon="6.09154">
        <ele>1601.21</ele>
        <time>2013-12-15T14:34:46Z</time>
      </trkpt>
      <trkpt lat="44.28028" lon="6.09154">
        <ele>1598.81</ele>
        <time>2013-12-15T14:34:59Z</time>
      </trkpt>
      <trkpt lat="44.28022" lon="6.09151">
        <ele>1597.37</ele>
        <time>2013-12-15T14:35:06Z</time>
      </trkpt>
      <trkpt lat="44.2801" lon="6.09145">
        <ele>1595.93</ele>
        <time>2013-12-15T14:35:21Z</time>
      </trkpt>
      <trkpt lat="44.28002" lon="6.09139">
        <ele>1593.52</ele>
        <time>2013-12-15T14:35:33Z</time>
      </trkpt>
      <trkpt lat="44.27992" lon="6.09138">
        <ele>1593.52</ele>
        <time>2013-12-15T14:35:49Z</time>
      </trkpt>
      <trkpt lat="44.27992" lon="6.09138">
        <ele>1593.04</ele>
        <time>2013-12-15T14:36:04Z</time>
      </trkpt>
      <trkpt lat="44.27993" lon="6.09137">
        <ele>1593.04</ele>
        <time>2013-12-15T14:36:29Z</time>
      </trkpt>
      <trkpt lat="44.27993" lon="6.09137">
        <ele>1590.64</ele>
        <time>2013-12-15T14:36:45Z</time>
      </trkpt>
      <trkpt lat="44.2799" lon="6.09132">
        <ele>1587.75</ele>
        <time>2013-12-15T14:37:00Z</time>
      </trkpt>
      <trkpt lat="44.27984" lon="6.09121">
        <ele>1586.79</ele>
        <time>2013-12-15T14:37:07Z</time>
      </trkpt>
      <trkpt lat="44.27981" lon="6.091">
        <ele>1583.91</ele>
        <time>2013-12-15T14:37:22Z</time>
      </trkpt>
      <trkpt lat="44.27985" lon="6.09087">
        <ele>1581.51</ele>
        <time>2013-12-15T14:37:37Z</time>
      </trkpt>
      <trkpt lat="44.27987" lon="6.09071">
        <ele>1580.06</ele>
        <time>2013-12-15T14:37:54Z</time>
      </trkpt>
      <trkpt lat="44.27987" lon="6.09066">
        <ele>1580.06</ele>
        <time>2013-12-15T14:37:58Z</time>
      </trkpt>
      <trkpt lat="44.27994" lon="6.09062">
        <ele>1576.22</ele>
        <time>2013-12-15T14:38:12Z</time>
      </trkpt>
      <trkpt lat="44.28002" lon="6.09057">
        <ele>1572.85</ele>
        <time>2013-12-15T14:38:29Z</time>
      </trkpt>
      <trkpt lat="44.2801" lon="6.09051">
        <ele>1569.97</ele>
        <time>2013-12-15T14:38:43Z</time>
      </trkpt>
      <trkpt lat="44.28012" lon="6.09042">
        <ele>1567.57</ele>
        <time>2013-12-15T14:38:55Z</time>
      </trkpt>
      <trkpt lat="44.28011" lon="6.09037">
        <ele>1565.64</ele>
        <time>2013-12-15T14:39:01Z</time>
      </trkpt>
      <trkpt lat="44.28011" lon="6.09024">
        <ele>1562.76</ele>
        <time>2013-12-15T14:39:14Z</time>
      </trkpt>
      <trkpt lat="44.28009" lon="6.09011">
        <ele>1559.88</ele>
        <time>2013-12-15T14:39:30Z</time>
      </trkpt>
      <trkpt lat="44.28004" lon="6.09007">
        <ele>1557.95</ele>
        <time>2013-12-15T14:39:42Z</time>
      </trkpt>
      <trkpt lat="44.27998" lon="6.09007">
        <ele>1555.55</ele>
        <time>2013-12-15T14:39:56Z</time>
      </trkpt>
      <trkpt lat="44.27998" lon="6.09006">
        <ele>1555.55</ele>
        <time>2013-12-15T14:40:13Z</time>
      </trkpt>
      <trkpt lat="44.27992" lon="6.09004">
        <ele>1553.63</ele>
        <time>2013-12-15T14:40:32Z</time>
      </trkpt>
      <trkpt lat="44.27987" lon="6.09">
        <ele>1550.26</ele>
        <time>2013-12-15T14:40:47Z</time>
      </trkpt>
      <trkpt lat="44.27983" lon="6.08993">
        <ele>1547.38</ele>
        <time>2013-12-15T14:41:01Z</time>
      </trkpt>
      <trkpt lat="44.27979" lon="6.08988">
        <ele>1544.98</ele>
        <time>2013-12-15T14:41:14Z</time>
      </trkpt>
      <trkpt lat="44.27974" lon="6.08979">
        <ele>1542.09</ele>
        <time>2013-12-15T14:41:26Z</time>
      </trkpt>
      <trkpt lat="44.2797" lon="6.08966">
        <ele>1539.21</ele>
        <time>2013-12-15T14:41:41Z</time>
      </trkpt>
      <trkpt lat="44.2797" lon="6.08954">
        <ele>1537.29</ele>
        <time>2013-12-15T14:41:55Z</time>
      </trkpt>
      <trkpt lat="44.2797" lon="6.08952">
        <ele>1535.84</ele>
        <time>2013-12-15T14:41:58Z</time>
      </trkpt>
      <trkpt lat="44.27969" lon="6.08948">
        <ele>1535.84</ele>
        <time>2013-12-15T14:42:01Z</time>
      </trkpt>
      <trkpt lat="44.27974" lon="6.08945">
        <ele>1535.36</ele>
        <time>2013-12-15T14:42:15Z</time>
      </trkpt>
      <trkpt lat="44.27974" lon="6.08946">
        <ele>1534.88</ele>
        <time>2013-12-15T14:42:29Z</time>
      </trkpt>
      <trkpt lat="44.27974" lon="6.08946">
        <ele>1534.88</ele>
        <time>2013-12-15T14:42:48Z</time>
      </trkpt>
      <trkpt lat="44.27974" lon="6.08946">
        <ele>1535.36</ele>
        <time>2013-12-15T14:43:23Z</time>
      </trkpt>
      <trkpt lat="44.27974" lon="6.08946">
        <ele>1535.36</ele>
        <time>2013-12-15T14:43:54Z</time>
      </trkpt>
      <trkpt lat="44.27974" lon="6.08946">
        <ele>1535.36</ele>
        <time>2013-12-15T14:44:27Z</time>
      </trkpt>
      <trkpt lat="44.27974" lon="6.08946">
        <ele>1534.4</ele>
        <time>2013-12-15T14:44:58Z</time>
      </trkpt>
      <trkpt lat="44.27974" lon="6.08946">
        <ele>1534.88</ele>
        <time>2013-12-15T14:45:32Z</time>
      </trkpt>
      <trkpt lat="44.27974" lon="6.08945">
        <ele>1533.92</ele>
        <time>2013-12-15T14:46:04Z</time>
      </trkpt>
      <trkpt lat="44.27974" lon="6.08945">
        <ele>1534.88</ele>
        <time>2013-12-15T14:46:36Z</time>
      </trkpt>
      <trkpt lat="44.27974" lon="6.08946">
        <ele>1535.36</ele>
        <time>2013-12-15T14:47:06Z</time>
      </trkpt>
      <trkpt lat="44.27973" lon="6.08947">
        <ele>1534.88</ele>
        <time>2013-12-15T14:47:21Z</time>
      </trkpt>
      <trkpt lat="44.27966" lon="6.08939">
        <ele>1532</ele>
        <time>2013-12-15T14:47:34Z</time>
      </trkpt>
      <trkpt lat="44.27963" lon="6.0893">
        <ele>1529.11</ele>
        <time>2013-12-15T14:47:49Z</time>
      </trkpt>
      <trkpt lat="44.27962" lon="6.08921">
        <ele>1527.19</ele>
        <time>2013-12-15T14:48:02Z</time>
      </trkpt>
      <trkpt lat="44.27961" lon="6.08912">
        <ele>1523.83</ele>
        <time>2013-12-15T14:48:16Z</time>
      </trkpt>
      <trkpt lat="44.27962" lon="6.08903">
        <ele>1520.46</ele>
        <time>2013-12-15T14:48:32Z</time>
      </trkpt>
      <trkpt lat="44.27958" lon="6.08896">
        <ele>1518.54</ele>
        <time>2013-12-15T14:48:43Z</time>
      </trkpt>
      <trkpt lat="44.27958" lon="6.08887">
        <ele>1515.18</ele>
        <time>2013-12-15T14:48:55Z</time>
      </trkpt>
      <trkpt lat="44.27958" lon="6.08886">
        <ele>1515.66</ele>
        <time>2013-12-15T14:48:56Z</time>
      </trkpt>
      <trkpt lat="44.27955" lon="6.08875">
        <ele>1513.25</ele>
        <time>2013-12-15T14:49:10Z</time>
      </trkpt>
      <trkpt lat="44.27948" lon="6.08867">
        <ele>1510.37</ele>
        <time>2013-12-15T14:49:23Z</time>
      </trkpt>
      <trkpt lat="44.27939" lon="6.08862">
        <ele>1507</ele>
        <time>2013-12-15T14:49:38Z</time>
      </trkpt>
      <trkpt lat="44.27933" lon="6.08853">
        <ele>1504.6</ele>
        <time>2013-12-15T14:49:51Z</time>
      </trkpt>
      <trkpt lat="44.27927" lon="6.08846">
        <ele>1501.24</ele>
        <time>2013-12-15T14:50:02Z</time>
      </trkpt>
      <trkpt lat="44.27924" lon="6.0884">
        <ele>1500.76</ele>
        <time>2013-12-15T14:50:10Z</time>
      </trkpt>
      <trkpt lat="44.27921" lon="6.08831">
        <ele>1498.35</ele>
        <time>2013-12-15T14:50:23Z</time>
      </trkpt>
      <trkpt lat="44.2792" lon="6.08822">
        <ele>1495.95</ele>
        <time>2013-12-15T14:50:33Z</time>
      </trkpt>
      <trkpt lat="44.2792" lon="6.08818">
        <ele>1494.03</ele>
        <time>2013-12-15T14:50:38Z</time>
      </trkpt>
      <trkpt lat="44.27916" lon="6.08811">
        <ele>1492.1</ele>
        <time>2013-12-15T14:50:51Z</time>
      </trkpt>
      <trkpt lat="44.27913" lon="6.08801">
        <ele>1488.74</ele>
        <time>2013-12-15T14:51:04Z</time>
      </trkpt>
      <trkpt lat="44.27912" lon="6.08791">
        <ele>1485.85</ele>
        <time>2013-12-15T14:51:18Z</time>
      </trkpt>
      <trkpt lat="44.27913" lon="6.0878">
        <ele>1482.49</ele>
        <time>2013-12-15T14:51:32Z</time>
      </trkpt>
      <trkpt lat="44.27913" lon="6.0877">
        <ele>1480.09</ele>
        <time>2013-12-15T14:51:47Z</time>
      </trkpt>
      <trkpt lat="44.27913" lon="6.08765">
        <ele>1479.13</ele>
        <time>2013-12-15T14:52:01Z</time>
      </trkpt>
      <trkpt lat="44.2791" lon="6.08754">
        <ele>1476.24</ele>
        <time>2013-12-15T14:52:14Z</time>
      </trkpt>
      <trkpt lat="44.27914" lon="6.08741">
        <ele>1473.84</ele>
        <time>2013-12-15T14:52:29Z</time>
      </trkpt>
      <trkpt lat="44.27913" lon="6.08729">
        <ele>1470.95</ele>
        <time>2013-12-15T14:52:42Z</time>
      </trkpt>
      <trkpt lat="44.27915" lon="6.08726">
        <ele>1470.47</ele>
        <time>2013-12-15T14:52:46Z</time>
      </trkpt>
      <trkpt lat="44.2791" lon="6.08713">
        <ele>1467.11</ele>
        <time>2013-12-15T14:53:01Z</time>
      </trkpt>
      <trkpt lat="44.27909" lon="6.08709">
        <ele>1466.15</ele>
        <time>2013-12-15T14:53:16Z</time>
      </trkpt>
      <trkpt lat="44.27908" lon="6.08707">
        <ele>1466.15</ele>
        <time>2013-12-15T14:53:44Z</time>
      </trkpt>
      <trkpt lat="44.27905" lon="6.08691">
        <ele>1462.3</ele>
        <time>2013-12-15T14:53:59Z</time>
      </trkpt>
      <trkpt lat="44.27908" lon="6.08679">
        <ele>1460.86</ele>
        <time>2013-12-15T14:54:11Z</time>
      </trkpt>
      <trkpt lat="44.27908" lon="6.08676">
        <ele>1460.38</ele>
        <time>2013-12-15T14:54:13Z</time>
      </trkpt>
      <trkpt lat="44.27907" lon="6.08662">
        <ele>1457.02</ele>
        <time>2013-12-15T14:54:28Z</time>
      </trkpt>
      <trkpt lat="44.27904" lon="6.08655">
        <ele>1456.05</ele>
        <time>2013-12-15T14:54:35Z</time>
      </trkpt>
      <trkpt lat="44.27898" lon="6.08645">
        <ele>1454.13</ele>
        <time>2013-12-15T14:54:48Z</time>
      </trkpt>
      <trkpt lat="44.2789" lon="6.08631">
        <ele>1451.73</ele>
        <time>2013-12-15T14:55:04Z</time>
      </trkpt>
      <trkpt lat="44.27883" lon="6.0862">
        <ele>1449.32</ele>
        <time>2013-12-15T14:55:20Z</time>
      </trkpt>
      <trkpt lat="44.27889" lon="6.08609">
        <ele>1445.96</ele>
        <time>2013-12-15T14:55:35Z</time>
      </trkpt>
      <trkpt lat="44.2789" lon="6.08606">
        <ele>1446.44</ele>
        <time>2013-12-15T14:55:38Z</time>
      </trkpt>
      <trkpt lat="44.2789" lon="6.08592">
        <ele>1445.48</ele>
        <time>2013-12-15T14:55:53Z</time>
      </trkpt>
      <trkpt lat="44.27887" lon="6.08576">
        <ele>1442.11</ele>
        <time>2013-12-15T14:56:07Z</time>
      </trkpt>
      <trkpt lat="44.27885" lon="6.08571">
        <ele>1441.63</ele>
        <time>2013-12-15T14:56:14Z</time>
      </trkpt>
      <trkpt lat="44.27888" lon="6.08557">
        <ele>1438.27</ele>
        <time>2013-12-15T14:56:27Z</time>
      </trkpt>
      <trkpt lat="44.2789" lon="6.08546">
        <ele>1434.91</ele>
        <time>2013-12-15T14:56:40Z</time>
      </trkpt>
      <trkpt lat="44.2789" lon="6.08533">
        <ele>1432.98</ele>
        <time>2013-12-15T14:56:56Z</time>
      </trkpt>
      <trkpt lat="44.27891" lon="6.0853">
        <ele>1432.98</ele>
        <time>2013-12-15T14:57:18Z</time>
      </trkpt>
      <trkpt lat="44.2789" lon="6.08526">
        <ele>1432.02</ele>
        <time>2013-12-15T14:57:21Z</time>
      </trkpt>
      <trkpt lat="44.27889" lon="6.08509">
        <ele>1429.62</ele>
        <time>2013-12-15T14:57:37Z</time>
      </trkpt>
      <trkpt lat="44.27887" lon="6.08502">
        <ele>1427.7</ele>
        <time>2013-12-15T14:57:45Z</time>
      </trkpt>
      <trkpt lat="44.27885" lon="6.08487">
        <ele>1424.81</ele>
        <time>2013-12-15T14:58:02Z</time>
      </trkpt>
      <trkpt lat="44.27883" lon="6.0847">
        <ele>1422.89</ele>
        <time>2013-12-15T14:58:18Z</time>
      </trkpt>
      <trkpt lat="44.27882" lon="6.08465">
        <ele>1421.93</ele>
        <time>2013-12-15T14:58:24Z</time>
      </trkpt>
      <trkpt lat="44.27879" lon="6.08444">
        <ele>1419.52</ele>
        <time>2013-12-15T14:58:42Z</time>
      </trkpt>
      <trkpt lat="44.27877" lon="6.08428">
        <ele>1418.08</ele>
        <time>2013-12-15T14:58:57Z</time>
      </trkpt>
      <trkpt lat="44.27876" lon="6.08412">
        <ele>1416.16</ele>
        <time>2013-12-15T14:59:10Z</time>
      </trkpt>
      <trkpt lat="44.27873" lon="6.08409">
        <ele>1415.2</ele>
        <time>2013-12-15T14:59:18Z</time>
      </trkpt>
      <trkpt lat="44.27861" lon="6.08398">
        <ele>1413.76</ele>
        <time>2013-12-15T14:59:34Z</time>
      </trkpt>
      <trkpt lat="44.27851" lon="6.08388">
        <ele>1412.79</ele>
        <time>2013-12-15T14:59:48Z</time>
      </trkpt>
      <trkpt lat="44.27839" lon="6.08375">
        <ele>1411.35</ele>
        <time>2013-12-15T15:00:05Z</time>
      </trkpt>
      <trkpt lat="44.27834" lon="6.0837">
        <ele>1409.91</ele>
        <time>2013-12-15T15:00:12Z</time>
      </trkpt>
      <trkpt lat="44.27832" lon="6.08368">
        <ele>1410.87</ele>
        <time>2013-12-15T15:00:14Z</time>
      </trkpt>
      <trkpt lat="44.27812" lon="6.08359">
        <ele>1407.99</ele>
        <time>2013-12-15T15:00:31Z</time>
      </trkpt>
      <trkpt lat="44.278" lon="6.08348">
        <ele>1406.55</ele>
        <time>2013-12-15T15:00:45Z</time>
      </trkpt>
      <trkpt lat="44.2779" lon="6.08335">
        <ele>1404.62</ele>
        <time>2013-12-15T15:00:59Z</time>
      </trkpt>
      <trkpt lat="44.27781" lon="6.08325">
        <ele>1403.18</ele>
        <time>2013-12-15T15:01:14Z</time>
      </trkpt>
      <trkpt lat="44.27768" lon="6.08315">
        <ele>1402.22</ele>
        <time>2013-12-15T15:01:28Z</time>
      </trkpt>
      <trkpt lat="44.27762" lon="6.0831">
        <ele>1401.26</ele>
        <time>2013-12-15T15:01:36Z</time>
      </trkpt>
      <trkpt lat="44.27759" lon="6.08308">
        <ele>1401.26</ele>
        <time>2013-12-15T15:01:39Z</time>
      </trkpt>
      <trkpt lat="44.27747" lon="6.08293">
        <ele>1398.86</ele>
        <time>2013-12-15T15:01:55Z</time>
      </trkpt>
      <trkpt lat="44.27738" lon="6.08283">
        <ele>1397.89</ele>
        <time>2013-12-15T15:02:10Z</time>
      </trkpt>
      <trkpt lat="44.27727" lon="6.08283">
        <ele>1397.41</ele>
        <time>2013-12-15T15:02:21Z</time>
      </trkpt>
      <trkpt lat="44.27718" lon="6.08292">
        <ele>1396.93</ele>
        <time>2013-12-15T15:02:36Z</time>
      </trkpt>
      <trkpt lat="44.27718" lon="6.08295">
        <ele>1396.45</ele>
        <time>2013-12-15T15:02:55Z</time>
      </trkpt>
      <trkpt lat="44.27719" lon="6.08297">
        <ele>1396.45</ele>
        <time>2013-12-15T15:03:19Z</time>
      </trkpt>
      <trkpt lat="44.27719" lon="6.08299">
        <ele>1396.45</ele>
        <time>2013-12-15T15:03:20Z</time>
      </trkpt>
      <trkpt lat="44.27719" lon="6.08303">
        <ele>1396.45</ele>
        <time>2013-12-15T15:03:23Z</time>
      </trkpt>
      <trkpt lat="44.27716" lon="6.0832">
        <ele>1395.49</ele>
        <time>2013-12-15T15:03:37Z</time>
      </trkpt>
      <trkpt lat="44.27713" lon="6.08335">
        <ele>1394.05</ele>
        <time>2013-12-15T15:03:50Z</time>
      </trkpt>
      <trkpt lat="44.27711" lon="6.0834">
        <ele>1394.05</ele>
        <time>2013-12-15T15:03:54Z</time>
      </trkpt>
      <trkpt lat="44.27711" lon="6.08362">
        <ele>1392.13</ele>
        <time>2013-12-15T15:04:10Z</time>
      </trkpt>
      <trkpt lat="44.27706" lon="6.08371">
        <ele>1391.17</ele>
        <time>2013-12-15T15:04:25Z</time>
      </trkpt>
      <trkpt lat="44.27704" lon="6.08372">
        <ele>1388.28</ele>
        <time>2013-12-15T15:04:35Z</time>
      </trkpt>
      <trkpt lat="44.27697" lon="6.08375">
        <ele>1385.88</ele>
        <time>2013-12-15T15:04:45Z</time>
      </trkpt>
      <trkpt lat="44.27692" lon="6.08372">
        <ele>1382.99</ele>
        <time>2013-12-15T15:04:57Z</time>
      </trkpt>
      <trkpt lat="44.27686" lon="6.08368">
        <ele>1381.07</ele>
        <time>2013-12-15T15:05:09Z</time>
      </trkpt>
      <trkpt lat="44.27684" lon="6.08364">
        <ele>1380.59</ele>
        <time>2013-12-15T15:05:14Z</time>
      </trkpt>
      <trkpt lat="44.27679" lon="6.08356">
        <ele>1379.63</ele>
        <time>2013-12-15T15:05:21Z</time>
      </trkpt>
      <trkpt lat="44.27678" lon="6.0835">
        <ele>1379.63</ele>
        <time>2013-12-15T15:05:24Z</time>
      </trkpt>
      <trkpt lat="44.27675" lon="6.08342">
        <ele>1379.15</ele>
        <time>2013-12-15T15:05:40Z</time>
      </trkpt>
      <trkpt lat="44.27674" lon="6.08339">
        <ele>1378.19</ele>
        <time>2013-12-15T15:05:50Z</time>
      </trkpt>
      <trkpt lat="44.27675" lon="6.08335">
        <ele>1377.71</ele>
        <time>2013-12-15T15:05:52Z</time>
      </trkpt>
      <trkpt lat="44.27676" lon="6.08324">
        <ele>1377.23</ele>
        <time>2013-12-15T15:06:09Z</time>
      </trkpt>
      <trkpt lat="44.27676" lon="6.08314">
        <ele>1376.26</ele>
        <time>2013-12-15T15:06:16Z</time>
      </trkpt>
      <trkpt lat="44.27677" lon="6.08308">
        <ele>1375.78</ele>
        <time>2013-12-15T15:06:21Z</time>
      </trkpt>
      <trkpt lat="44.27682" lon="6.08284">
        <ele>1374.34</ele>
        <time>2013-12-15T15:06:37Z</time>
      </trkpt>
      <trkpt lat="44.27685" lon="6.08267">
        <ele>1372.42</ele>
        <time>2013-12-15T15:06:51Z</time>
      </trkpt>
      <trkpt lat="44.27682" lon="6.0827">
        <ele>1371.46</ele>
        <time>2013-12-15T15:06:57Z</time>
      </trkpt>
      <trkpt lat="44.27679" lon="6.08281">
        <ele>1370.02</ele>
        <time>2013-12-15T15:07:05Z</time>
      </trkpt>
      <trkpt lat="44.27676" lon="6.08292">
        <ele>1369.05</ele>
        <time>2013-12-15T15:07:15Z</time>
      </trkpt>
      <trkpt lat="44.27672" lon="6.08297">
        <ele>1368.09</ele>
        <time>2013-12-15T15:07:20Z</time>
      </trkpt>
      <trkpt lat="44.27662" lon="6.08312">
        <ele>1366.17</ele>
        <time>2013-12-15T15:07:34Z</time>
      </trkpt>
      <trkpt lat="44.27659" lon="6.08316">
        <ele>1366.17</ele>
        <time>2013-12-15T15:07:40Z</time>
      </trkpt>
      <trkpt lat="44.27646" lon="6.08327">
        <ele>1364.25</ele>
        <time>2013-12-15T15:07:57Z</time>
      </trkpt>
      <trkpt lat="44.2764" lon="6.08324">
        <ele>1361.36</ele>
        <time>2013-12-15T15:08:06Z</time>
      </trkpt>
      <trkpt lat="44.27641" lon="6.0832">
        <ele>1360.88</ele>
        <time>2013-12-15T15:08:08Z</time>
      </trkpt>
      <trkpt lat="44.27647" lon="6.08292">
        <ele>1359.92</ele>
        <time>2013-12-15T15:08:25Z</time>
      </trkpt>
      <trkpt lat="44.27651" lon="6.08281">
        <ele>1358</ele>
        <time>2013-12-15T15:08:39Z</time>
      </trkpt>
      <trkpt lat="44.27654" lon="6.08264">
        <ele>1356.08</ele>
        <time>2013-12-15T15:08:53Z</time>
      </trkpt>
      <trkpt lat="44.27658" lon="6.0825">
        <ele>1354.63</ele>
        <time>2013-12-15T15:09:05Z</time>
      </trkpt>
      <trkpt lat="44.27665" lon="6.08225">
        <ele>1352.71</ele>
        <time>2013-12-15T15:09:23Z</time>
      </trkpt>
      <trkpt lat="44.27667" lon="6.08207">
        <ele>1351.27</ele>
        <time>2013-12-15T15:09:39Z</time>
      </trkpt>
      <trkpt lat="44.27674" lon="6.08182">
        <ele>1348.87</ele>
        <time>2013-12-15T15:09:57Z</time>
      </trkpt>
      <trkpt lat="44.27674" lon="6.08164">
        <ele>1346.46</ele>
        <time>2013-12-15T15:10:12Z</time>
      </trkpt>
      <trkpt lat="44.27673" lon="6.08163">
        <ele>1346.46</ele>
        <time>2013-12-15T15:10:13Z</time>
      </trkpt>
      <trkpt lat="44.27669" lon="6.08172">
        <ele>1345.02</ele>
        <time>2013-12-15T15:10:22Z</time>
      </trkpt>
      <trkpt lat="44.27667" lon="6.08183">
        <ele>1344.06</ele>
        <time>2013-12-15T15:10:30Z</time>
      </trkpt>
      <trkpt lat="44.27657" lon="6.08199">
        <ele>1342.62</ele>
        <time>2013-12-15T15:10:46Z</time>
      </trkpt>
      <trkpt lat="44.27649" lon="6.08211">
        <ele>1341.66</ele>
        <time>2013-12-15T15:10:58Z</time>
      </trkpt>
      <trkpt lat="44.27636" lon="6.08217">
        <ele>1339.73</ele>
        <time>2013-12-15T15:11:12Z</time>
      </trkpt>
      <trkpt lat="44.27632" lon="6.08214">
        <ele>1338.77</ele>
        <time>2013-12-15T15:11:18Z</time>
      </trkpt>
      <trkpt lat="44.27614" lon="6.08206">
        <ele>1336.85</ele>
        <time>2013-12-15T15:11:34Z</time>
      </trkpt>
      <trkpt lat="44.27608" lon="6.08192">
        <ele>1335.89</ele>
        <time>2013-12-15T15:11:44Z</time>
      </trkpt>
      <trkpt lat="44.27613" lon="6.08171">
        <ele>1335.89</ele>
        <time>2013-12-15T15:11:59Z</time>
      </trkpt>
      <trkpt lat="44.27622" lon="6.08151">
        <ele>1334.93</ele>
        <time>2013-12-15T15:12:13Z</time>
      </trkpt>
      <trkpt lat="44.27638" lon="6.08137">
        <ele>1333.49</ele>
        <time>2013-12-15T15:12:31Z</time>
      </trkpt>
      <trkpt lat="44.27651" lon="6.08125">
        <ele>1332.04</ele>
        <time>2013-12-15T15:12:46Z</time>
      </trkpt>
      <trkpt lat="44.27662" lon="6.08109">
        <ele>1330.6</ele>
        <time>2013-12-15T15:13:02Z</time>
      </trkpt>
      <trkpt lat="44.27671" lon="6.08095">
        <ele>1328.2</ele>
        <time>2013-12-15T15:13:15Z</time>
      </trkpt>
      <trkpt lat="44.2768" lon="6.08076">
        <ele>1326.28</ele>
        <time>2013-12-15T15:13:30Z</time>
      </trkpt>
      <trkpt lat="44.27686" lon="6.08064">
        <ele>1324.83</ele>
        <time>2013-12-15T15:13:40Z</time>
      </trkpt>
      <trkpt lat="44.27699" lon="6.08048">
        <ele>1322.91</ele>
        <time>2013-12-15T15:13:55Z</time>
      </trkpt>
      <trkpt lat="44.2771" lon="6.08031">
        <ele>1320.51</ele>
        <time>2013-12-15T15:14:11Z</time>
      </trkpt>
      <trkpt lat="44.27721" lon="6.08017">
        <ele>1319.07</ele>
        <time>2013-12-15T15:14:25Z</time>
      </trkpt>
      <trkpt lat="44.27728" lon="6.08003">
        <ele>1317.14</ele>
        <time>2013-12-15T15:14:39Z</time>
      </trkpt>
      <trkpt lat="44.27738" lon="6.07983">
        <ele>1314.74</ele>
        <time>2013-12-15T15:14:55Z</time>
      </trkpt>
      <trkpt lat="44.27744" lon="6.0797">
        <ele>1313.78</ele>
        <time>2013-12-15T15:15:09Z</time>
      </trkpt>
      <trkpt lat="44.27747" lon="6.07966">
        <ele>1313.3</ele>
        <time>2013-12-15T15:15:23Z</time>
      </trkpt>
      <trkpt lat="44.27755" lon="6.07957">
        <ele>1312.34</ele>
        <time>2013-12-15T15:15:37Z</time>
      </trkpt>
      <trkpt lat="44.27767" lon="6.07948">
        <ele>1310.41</ele>
        <time>2013-12-15T15:15:51Z</time>
      </trkpt>
      <trkpt lat="44.27771" lon="6.07944">
        <ele>1309.93</ele>
        <time>2013-12-15T15:15:56Z</time>
      </trkpt>
      <trkpt lat="44.27779" lon="6.07935">
        <ele>1308.49</ele>
        <time>2013-12-15T15:16:07Z</time>
      </trkpt>
      <trkpt lat="44.27784" lon="6.07929">
        <ele>1307.53</ele>
        <time>2013-12-15T15:16:15Z</time>
      </trkpt>
      <trkpt lat="44.27788" lon="6.07927">
        <ele>1307.05</ele>
        <time>2013-12-15T15:16:19Z</time>
      </trkpt>
      <trkpt lat="44.27792" lon="6.07924">
        <ele>1306.57</ele>
        <time>2013-12-15T15:16:24Z</time>
      </trkpt>
      <trkpt lat="44.27794" lon="6.07921">
        <ele>1305.61</ele>
        <time>2013-12-15T15:16:27Z</time>
      </trkpt>
      <trkpt lat="44.27803" lon="6.07915">
        <ele>1304.17</ele>
        <time>2013-12-15T15:16:39Z</time>
      </trkpt>
      <trkpt lat="44.27812" lon="6.07912">
        <ele>1303.69</ele>
        <time>2013-12-15T15:16:46Z</time>
      </trkpt>
      <trkpt lat="44.27818" lon="6.07912">
        <ele>1303.2</ele>
        <time>2013-12-15T15:16:52Z</time>
      </trkpt>
      <trkpt lat="44.27836" lon="6.07917">
        <ele>1301.28</ele>
        <time>2013-12-15T15:17:07Z</time>
      </trkpt>
      <trkpt lat="44.27839" lon="6.07917">
        <ele>1300.8</ele>
        <time>2013-12-15T15:17:10Z</time>
      </trkpt>
      <trkpt lat="44.27856" lon="6.07913">
        <ele>1300.32</ele>
        <time>2013-12-15T15:17:27Z</time>
      </trkpt>
      <trkpt lat="44.27871" lon="6.07901">
        <ele>1298.88</ele>
        <time>2013-12-15T15:17:43Z</time>
      </trkpt>
      <trkpt lat="44.2788" lon="6.07898">
        <ele>1297.92</ele>
        <time>2013-12-15T15:17:52Z</time>
      </trkpt>
      <trkpt lat="44.27893" lon="6.07897">
        <ele>1295.99</ele>
        <time>2013-12-15T15:18:07Z</time>
      </trkpt>
      <trkpt lat="44.27893" lon="6.07888">
        <ele>1294.55</ele>
        <time>2013-12-15T15:18:17Z</time>
      </trkpt>
      <trkpt lat="44.27888" lon="6.07873">
        <ele>1291.19</ele>
        <time>2013-12-15T15:18:33Z</time>
      </trkpt>
      <trkpt lat="44.27884" lon="6.07873">
        <ele>1290.71</ele>
        <time>2013-12-15T15:18:36Z</time>
      </trkpt>
      <trkpt lat="44.27877" lon="6.07871">
        <ele>1290.23</ele>
        <time>2013-12-15T15:18:44Z</time>
      </trkpt>
      <trkpt lat="44.27868" lon="6.07868">
        <ele>1289.27</ele>
        <time>2013-12-15T15:18:53Z</time>
      </trkpt>
      <trkpt lat="44.27859" lon="6.07872">
        <ele>1289.27</ele>
        <time>2013-12-15T15:19:07Z</time>
      </trkpt>
      <trkpt lat="44.27857" lon="6.07877">
        <ele>1288.78</ele>
        <time>2013-12-15T15:19:12Z</time>
      </trkpt>
      <trkpt lat="44.27851" lon="6.07888">
        <ele>1287.82</ele>
        <time>2013-12-15T15:19:23Z</time>
      </trkpt>
      <trkpt lat="44.27847" lon="6.07889">
        <ele>1286.86</ele>
        <time>2013-12-15T15:19:26Z</time>
      </trkpt>
      <trkpt lat="44.27831" lon="6.07879">
        <ele>1285.42</ele>
        <time>2013-12-15T15:19:40Z</time>
      </trkpt>
      <trkpt lat="44.27819" lon="6.07859">
        <ele>1283.02</ele>
        <time>2013-12-15T15:19:58Z</time>
      </trkpt>
      <trkpt lat="44.27814" lon="6.07842">
        <ele>1281.09</ele>
        <time>2013-12-15T15:20:11Z</time>
      </trkpt>
      <trkpt lat="44.27813" lon="6.07841">
        <ele>1281.09</ele>
        <time>2013-12-15T15:20:12Z</time>
      </trkpt>
      <trkpt lat="44.27802" lon="6.07824">
        <ele>1278.69</ele>
        <time>2013-12-15T15:20:29Z</time>
      </trkpt>
      <trkpt lat="44.27789" lon="6.07811">
        <ele>1276.29</ele>
        <time>2013-12-15T15:20:45Z</time>
      </trkpt>
      <trkpt lat="44.27777" lon="6.07802">
        <ele>1273.88</ele>
        <time>2013-12-15T15:21:01Z</time>
      </trkpt>
      <trkpt lat="44.27778" lon="6.07799">
        <ele>1274.36</ele>
        <time>2013-12-15T15:21:10Z</time>
      </trkpt>
      <trkpt lat="44.27781" lon="6.07793">
        <ele>1273.88</ele>
        <time>2013-12-15T15:21:24Z</time>
      </trkpt>
      <trkpt lat="44.2778" lon="6.07795">
        <ele>1273.4</ele>
        <time>2013-12-15T15:21:29Z</time>
      </trkpt>
      <trkpt lat="44.27769" lon="6.07787">
        <ele>1272.92</ele>
        <time>2013-12-15T15:21:41Z</time>
      </trkpt>
      <trkpt lat="44.27762" lon="6.07771">
        <ele>1270.52</ele>
        <time>2013-12-15T15:21:53Z</time>
      </trkpt>
      <trkpt lat="44.27761" lon="6.07764">
        <ele>1270.04</ele>
        <time>2013-12-15T15:21:57Z</time>
      </trkpt>
      <trkpt lat="44.27762" lon="6.07743">
        <ele>1268.6</ele>
        <time>2013-12-15T15:22:13Z</time>
      </trkpt>
      <trkpt lat="44.27762" lon="6.07736">
        <ele>1268.12</ele>
        <time>2013-12-15T15:22:18Z</time>
      </trkpt>
      <trkpt lat="44.27762" lon="6.07717">
        <ele>1266.19</ele>
        <time>2013-12-15T15:22:32Z</time>
      </trkpt>
      <trkpt lat="44.27765" lon="6.0769">
        <ele>1264.75</ele>
        <time>2013-12-15T15:22:47Z</time>
      </trkpt>
      <trkpt lat="44.27769" lon="6.07673">
        <ele>1262.83</ele>
        <time>2013-12-15T15:23:01Z</time>
      </trkpt>
      <trkpt lat="44.2777" lon="6.07654">
        <ele>1260.91</ele>
        <time>2013-12-15T15:23:14Z</time>
      </trkpt>
      <trkpt lat="44.27771" lon="6.07649">
        <ele>1260.91</ele>
        <time>2013-12-15T15:23:18Z</time>
      </trkpt>
      <trkpt lat="44.27774" lon="6.07624">
        <ele>1258.02</ele>
        <time>2013-12-15T15:23:36Z</time>
      </trkpt>
      <trkpt lat="44.27774" lon="6.07617">
        <ele>1257.54</ele>
        <time>2013-12-15T15:23:41Z</time>
      </trkpt>
      <trkpt lat="44.27776" lon="6.07613">
        <ele>1257.06</ele>
        <time>2013-12-15T15:23:44Z</time>
      </trkpt>
      <trkpt lat="44.2778" lon="6.07588">
        <ele>1255.62</ele>
        <time>2013-12-15T15:24:01Z</time>
      </trkpt>
      <trkpt lat="44.2778" lon="6.07561">
        <ele>1253.22</ele>
        <time>2013-12-15T15:24:17Z</time>
      </trkpt>
      <trkpt lat="44.27778" lon="6.07549">
        <ele>1251.77</ele>
        <time>2013-12-15T15:24:26Z</time>
      </trkpt>
      <trkpt lat="44.2777" lon="6.07523">
        <ele>1249.85</ele>
        <time>2013-12-15T15:24:43Z</time>
      </trkpt>
      <trkpt lat="44.27766" lon="6.07511">
        <ele>1248.89</ele>
        <time>2013-12-15T15:24:54Z</time>
      </trkpt>
      <trkpt lat="44.27762" lon="6.07509">
        <ele>1247.93</ele>
        <time>2013-12-15T15:24:58Z</time>
      </trkpt>
      <trkpt lat="44.27754" lon="6.0751">
        <ele>1247.45</ele>
        <time>2013-12-15T15:25:05Z</time>
      </trkpt>
      <trkpt lat="44.27741" lon="6.07521">
        <ele>1246.01</ele>
        <time>2013-12-15T15:25:20Z</time>
      </trkpt>
      <trkpt lat="44.27726" lon="6.0753">
        <ele>1244.56</ele>
        <time>2013-12-15T15:25:35Z</time>
      </trkpt>
      <trkpt lat="44.2771" lon="6.07537">
        <ele>1242.16</ele>
        <time>2013-12-15T15:25:51Z</time>
      </trkpt>
      <trkpt lat="44.27697" lon="6.07545">
        <ele>1240.24</ele>
        <time>2013-12-15T15:26:05Z</time>
      </trkpt>
      <trkpt lat="44.27691" lon="6.07543">
        <ele>1238.8</ele>
        <time>2013-12-15T15:26:12Z</time>
      </trkpt>
      <trkpt lat="44.27692" lon="6.07533">
        <ele>1238.32</ele>
        <time>2013-12-15T15:26:19Z</time>
      </trkpt>
      <trkpt lat="44.27706" lon="6.07519">
        <ele>1236.39</ele>
        <time>2013-12-15T15:26:36Z</time>
      </trkpt>
      <trkpt lat="44.27714" lon="6.07515">
        <ele>1234.95</ele>
        <time>2013-12-15T15:26:43Z</time>
      </trkpt>
      <trkpt lat="44.27717" lon="6.07511">
        <ele>1234.47</ele>
        <time>2013-12-15T15:26:47Z</time>
      </trkpt>
      <trkpt lat="44.2772" lon="6.07507">
        <ele>1234.47</ele>
        <time>2013-12-15T15:26:51Z</time>
      </trkpt>
      <trkpt lat="44.27732" lon="6.0749">
        <ele>1231.59</ele>
        <time>2013-12-15T15:27:06Z</time>
      </trkpt>
      <trkpt lat="44.27744" lon="6.07472">
        <ele>1229.66</ele>
        <time>2013-12-15T15:27:23Z</time>
      </trkpt>
      <trkpt lat="44.27753" lon="6.07447">
        <ele>1227.74</ele>
        <time>2013-12-15T15:27:40Z</time>
      </trkpt>
      <trkpt lat="44.27761" lon="6.07425">
        <ele>1224.86</ele>
        <time>2013-12-15T15:27:56Z</time>
      </trkpt>
      <trkpt lat="44.27761" lon="6.07423">
        <ele>1224.38</ele>
        <time>2013-12-15T15:27:58Z</time>
      </trkpt>
      <trkpt lat="44.27766" lon="6.07405">
        <ele>1222.93</ele>
        <time>2013-12-15T15:28:11Z</time>
      </trkpt>
      <trkpt lat="44.27769" lon="6.07391">
        <ele>1221.97</ele>
        <time>2013-12-15T15:28:21Z</time>
      </trkpt>
      <trkpt lat="44.27768" lon="6.07362">
        <ele>1219.09</ele>
        <time>2013-12-15T15:28:40Z</time>
      </trkpt>
      <trkpt lat="44.27768" lon="6.07361">
        <ele>1219.09</ele>
        <time>2013-12-15T15:28:41Z</time>
      </trkpt>
      <trkpt lat="44.27766" lon="6.07336">
        <ele>1217.17</ele>
        <time>2013-12-15T15:28:58Z</time>
      </trkpt>
      <trkpt lat="44.27764" lon="6.07319">
        <ele>1215.24</ele>
        <time>2013-12-15T15:29:11Z</time>
      </trkpt>
      <trkpt lat="44.27764" lon="6.07316">
        <ele>1215.24</ele>
        <time>2013-12-15T15:29:13Z</time>
      </trkpt>
      <trkpt lat="44.27764" lon="6.0731">
        <ele>1214.76</ele>
        <time>2013-12-15T15:29:17Z</time>
      </trkpt>
      <trkpt lat="44.27769" lon="6.07291">
        <ele>1212.36</ele>
        <time>2013-12-15T15:29:31Z</time>
      </trkpt>
      <trkpt lat="44.27774" lon="6.07267">
        <ele>1209.96</ele>
        <time>2013-12-15T15:29:48Z</time>
      </trkpt>
      <trkpt lat="44.27776" lon="6.07249">
        <ele>1207.55</ele>
        <time>2013-12-15T15:30:01Z</time>
      </trkpt>
      <trkpt lat="44.27777" lon="6.07236">
        <ele>1207.07</ele>
        <time>2013-12-15T15:30:11Z</time>
      </trkpt>
      <trkpt lat="44.27776" lon="6.07224">
        <ele>1206.11</ele>
        <time>2013-12-15T15:30:19Z</time>
      </trkpt>
      <trkpt lat="44.27763" lon="6.0721">
        <ele>1204.19</ele>
        <time>2013-12-15T15:30:35Z</time>
      </trkpt>
      <trkpt lat="44.27752" lon="6.07202">
        <ele>1202.75</ele>
        <time>2013-12-15T15:30:48Z</time>
      </trkpt>
      <trkpt lat="44.27748" lon="6.07198">
        <ele>1202.75</ele>
        <time>2013-12-15T15:30:52Z</time>
      </trkpt>
      <trkpt lat="44.27747" lon="6.07196">
        <ele>1202.27</ele>
        <time>2013-12-15T15:30:54Z</time>
      </trkpt>
      <trkpt lat="44.27743" lon="6.07193">
        <ele>1201.79</ele>
        <time>2013-12-15T15:30:58Z</time>
      </trkpt>
      <trkpt lat="44.27739" lon="6.07179">
        <ele>1200.34</ele>
        <time>2013-12-15T15:31:09Z</time>
      </trkpt>
      <trkpt lat="44.27736" lon="6.07163">
        <ele>1197.46</ele>
        <time>2013-12-15T15:31:20Z</time>
      </trkpt>
      <trkpt lat="44.27737" lon="6.07159">
        <ele>1197.46</ele>
        <time>2013-12-15T15:31:24Z</time>
      </trkpt>
      <trkpt lat="44.27739" lon="6.07139">
        <ele>1195.06</ele>
        <time>2013-12-15T15:31:38Z</time>
      </trkpt>
      <trkpt lat="44.27731" lon="6.07128">
        <ele>1194.58</ele>
        <time>2013-12-15T15:31:49Z</time>
      </trkpt>
      <trkpt lat="44.27724" lon="6.07123">
        <ele>1192.17</ele>
        <time>2013-12-15T15:31:57Z</time>
      </trkpt>
      <trkpt lat="44.27716" lon="6.07107">
        <ele>1190.25</ele>
        <time>2013-12-15T15:32:13Z</time>
      </trkpt>
      <trkpt lat="44.27713" lon="6.07086">
        <ele>1185.44</ele>
        <time>2013-12-15T15:32:29Z</time>
      </trkpt>
      <trkpt lat="44.27713" lon="6.07084">
        <ele>1180.16</ele>
        <time>2013-12-15T15:32:30Z</time>
      </trkpt>
      <trkpt lat="44.27713" lon="6.07083">
        <ele>1188.81</ele>
        <time>2013-12-15T15:32:31Z</time>
      </trkpt>
      <trkpt lat="44.27713" lon="6.07082">
        <ele>1188.81</ele>
        <time>2013-12-15T15:32:32Z</time>
      </trkpt>
      <trkpt lat="44.27712" lon="6.07079">
        <ele>1178.71</ele>
        <time>2013-12-15T15:32:34Z</time>
      </trkpt>
      <trkpt lat="44.27712" lon="6.07077">
        <ele>1192.17</ele>
        <time>2013-12-15T15:32:35Z</time>
      </trkpt>
      <trkpt lat="44.27712" lon="6.07076">
        <ele>1188.81</ele>
        <time>2013-12-15T15:32:36Z</time>
      </trkpt>
      <trkpt lat="44.2771" lon="6.07053">
        <ele>1187.85</ele>
        <time>2013-12-15T15:32:53Z</time>
      </trkpt>
    </trkseg>
  </trk>
</gpx>